Provisional Data: Little Juniata River near Tipton, PA


Please select a monitoring station.
Please select start date.
Please select start date.

Toggle Unit: C/F Toggle Unit: C/F
Sample Time Temperature (C) Temperature (F) Specific Conductivity (mS/cm) pH   Turbidity (NTU+) DO (mg/L)
5/17/2022 12:00:00 AM 13.81 56.858 0.204 7.58 7.72 9.63
5/17/2022 12:15:00 AM 13.74 56.732 0.204 7.59 8.05 9.64
5/17/2022 12:30:00 AM 13.67 56.606 0.203 7.59 7.94 9.65
5/17/2022 12:45:00 AM 13.59 56.462 0.202 7.59 8 9.66
5/17/2022 1:00:00 AM 13.52 56.336 0.202 7.59 8.03 9.68
5/17/2022 1:15:00 AM 13.44 56.192 0.201 7.59 8.06 9.69
5/17/2022 1:30:00 AM 13.36 56.048 0.201 7.58 8.11 9.71
5/17/2022 1:45:00 AM 13.28 55.904 0.2 7.57 7.83 9.73
5/17/2022 2:00:00 AM 13.2 55.76 0.2 7.58 8.05 9.74
5/17/2022 2:15:00 AM 13.13 55.634 0.201 7.58 8.03 9.76
5/17/2022 2:30:00 AM 13.05 55.49 0.203 7.58 8 9.77
5/17/2022 2:45:00 AM 12.98 55.364 0.204 7.57 8 9.78
5/17/2022 3:00:00 AM 12.9 55.22 0.204 7.55 7.86 9.8
5/17/2022 3:15:00 AM 12.83 55.094 0.204 7.57 7.8 9.81
5/17/2022 3:30:00 AM 12.77 54.986 0.204 7.57 7.64 9.83
5/17/2022 3:45:00 AM 12.71 54.878 0.203 7.57 7.67 9.85
5/17/2022 4:00:00 AM 12.65 54.77 0.203 7.57 7.78 9.86
5/17/2022 4:15:00 AM 12.59 54.662 0.202 7.57 7.58 9.88
5/17/2022 4:30:00 AM 12.52 54.536 0.201 7.57 7.5 9.9
5/17/2022 4:45:00 AM 12.46 54.428 0.202 7.56 7.45 9.91
5/17/2022 5:00:00 AM 12.41 54.338 0.203 7.57 7.49 9.92
5/17/2022 5:15:00 AM 12.35 54.23 0.205 7.54 7.5 9.94
5/17/2022 5:30:00 AM 12.3 54.14 0.206 7.57 7.33 9.95
5/17/2022 5:45:00 AM 12.25 54.05 0.205 7.57 7.41 9.96
5/17/2022 6:00:00 AM 12.2 53.96 0.204 7.56 7.16 9.98
5/17/2022 6:15:00 AM 12.16 53.888 0.204 7.56 6.98 10
5/17/2022 6:30:00 AM 12.12 53.816 0.203 7.58 7.11 10.03
5/17/2022 6:45:00 AM 12.08 53.744 0.202 7.58 6.85 10.07
5/17/2022 7:00:00 AM 12.04 53.672 0.201 7.59 6.83 10.1
5/17/2022 7:15:00 AM 12.01 53.618 0.2 7.59 6.73 10.14
5/17/2022 7:30:00 AM 12 53.6 0.2 7.59 6.48 10.17
5/17/2022 7:45:00 AM 12.01 53.618 0.2 7.6 6.51 10.24
5/17/2022 8:00:00 AM 12.01 53.618 0.201 7.61 6.46 10.28
5/17/2022 8:15:00 AM 12.04 53.672 0.202 7.63 6.22 10.34
5/17/2022 8:30:00 AM 12.08 53.744 0.201 7.64 6.37 10.41
5/17/2022 8:45:00 AM 12.11 53.798 0.2 7.65 6.1 10.47
5/17/2022 9:00:00 AM 12.13 53.834 0.199 7.67 6.16 10.52
5/17/2022 9:15:00 AM 12.16 53.888 0.198 7.65 6.02 10.57
5/17/2022 9:30:00 AM 12.21 53.978 0.197 7.7 5.96 10.61
5/17/2022 9:45:00 AM 12.28 54.104 0.196 7.71 5.96 10.66
5/17/2022 10:00:00 AM 12.4 54.32 0.195 7.73 5.95 10.73
5/17/2022 10:15:00 AM 12.55 54.59 0.195 7.72 5.7 10.78
5/17/2022 10:30:00 AM 12.65 54.77 0.196 7.77 5.83 10.82
5/17/2022 10:45:00 AM 12.71 54.878 0.198 7.79 5.8 10.83
5/17/2022 11:00:00 AM 12.88 55.184 0.198 7.78 5.92 10.86
5/17/2022 11:15:00 AM 13.03 55.454 0.198 7.83 5.71 10.9
5/17/2022 11:30:00 AM 13.19 55.742 0.197 7.81 5.82 10.92
5/17/2022 11:45:00 AM 13.34 56.012 0.196 7.86 5.83 10.92
5/17/2022 12:00:00 PM 13.47 56.246 0.196 7.88 5.87 10.93
5/17/2022 12:15:00 PM 13.65 56.57 0.195 7.87 5.81 10.94
5/17/2022 12:30:00 PM 13.78 56.804 0.194 7.91 5.84 10.95
5/17/2022 12:45:00 PM 13.94 57.092 0.194 7.92 7.96 10.93
5/17/2022 1:00:00 PM 14.08 57.344 0.195 7.9 9.19 10.91
5/17/2022 1:15:00 PM 14.25 57.65 0.196 7.95 6.12 10.89
5/17/2022 1:30:00 PM 14.46 58.028 0.198 7.96 5.82 10.89
5/17/2022 1:45:00 PM 14.66 58.388 0.198 7.97 7.95 10.87
5/17/2022 2:00:00 PM 14.83 58.694 0.198 7.98 5.62 10.82
5/17/2022 2:15:00 PM 14.94 58.892 0.198 7.98 5.48 10.76
5/17/2022 2:30:00 PM 15.08 59.144 0.198 7.98 5.48 10.72
5/17/2022 2:45:00 PM 15.22 59.396 0.197 7.97 5.51 10.7
5/17/2022 3:00:00 PM 15.32 59.576 0.197 8 5.59 10.67
5/17/2022 3:15:00 PM 15.33 59.594 0.197 7.98 5.31 10.6
5/17/2022 3:30:00 PM 15.39 59.702 0.197 7.99 5.32 10.57
5/17/2022 3:45:00 PM 15.46 59.828 0.199 7.96 5.38 10.53
5/17/2022 4:00:00 PM 15.52 59.936 0.203 7.99 5.3 10.51
5/17/2022 4:15:00 PM 15.6 60.08 0.205 7.97 5.4 10.48
5/17/2022 4:30:00 PM 15.64 60.152 0.206 7.98 5.54 10.43
5/17/2022 4:45:00 PM 15.69 60.242 0.207 7.95 5.43 10.39
5/17/2022 5:00:00 PM 15.75 60.35 0.207 7.96 7.13 10.34
5/17/2022 5:15:00 PM 15.8 60.44 0.206 7.96 8.62 10.28
5/17/2022 5:30:00 PM 15.83 60.494 0.206 7.96 8.91 10.22
5/17/2022 5:45:00 PM 15.85 60.53 0.205 7.94 8.39 10.15
5/17/2022 6:00:00 PM 15.85 60.53 0.204 7.92 6.84 10.08
5/17/2022 6:15:00 PM 15.85 60.53 0.204 7.9 5.75 10.02
5/17/2022 6:30:00 PM 15.86 60.548 0.206 7.88 5.6 9.96
5/17/2022 6:45:00 PM 15.84 60.512 0.209 7.86 5.65 9.89
5/17/2022 7:00:00 PM 15.8 60.44 0.211 7.82 5.88 9.83
5/17/2022 7:15:00 PM 15.77 60.386 0.211 7.83 8.82 9.78
5/17/2022 7:30:00 PM 15.72 60.296 0.211 7.8 10.74 9.72
5/17/2022 7:45:00 PM 15.65 60.17 0.21 7.79 10.74 9.68
5/17/2022 8:00:00 PM 15.6 60.08 0.208 7.77 6.98 9.64
5/17/2022 8:15:00 PM 15.52 59.936 0.207 7.76 11.68 9.6
5/17/2022 8:30:00 PM 15.45 59.81 0.206 7.74 5.96 9.56
5/17/2022 8:45:00 PM 15.36 59.648 0.205 7.73 8.03 9.53
5/17/2022 9:00:00 PM 15.26 59.468 0.205 7.71 9.37 9.52
5/17/2022 9:15:00 PM 15.16 59.288 0.207 7.7 8.79 9.49
5/17/2022 9:30:00 PM 15.05 59.09 0.208 7.69 7 9.49
5/17/2022 9:45:00 PM 14.94 58.892 0.21 7.68 9.78 9.48
5/17/2022 10:00:00 PM 14.82 58.676 0.21 7.67 8.77 9.48
5/17/2022 10:15:00 PM 14.71 58.478 0.21 7.67 7.89 9.49
5/17/2022 10:30:00 PM 14.62 58.316 0.209 7.66 7.1 9.5
5/17/2022 10:45:00 PM 14.52 58.136 0.209 7.66 9.18 9.51
5/17/2022 11:00:00 PM 14.41 57.938 0.208 7.64 9.53 9.53
5/17/2022 11:15:00 PM 14.3 57.74 0.207 7.64 7.05 9.54
5/17/2022 11:30:00 PM 14.18 57.524 0.207 7.63 8.12 9.56
5/17/2022 11:45:00 PM 14.08 57.344 0.207 7.64 13.4 9.58
5/18/2022 12:00:00 AM 13.97 57.146 0.207 7.63 10.77 9.6
5/18/2022 12:15:00 AM 13.87 56.966 0.209 7.63 10.9 9.62
5/18/2022 12:30:00 AM 13.76 56.768 0.21 7.6 8.12 9.64
5/18/2022 12:45:00 AM 13.66 56.588 0.21 7.61 7.62 9.66
5/18/2022 1:00:00 AM 13.55 56.39 0.21 7.61 11.35 9.68
5/18/2022 1:15:00 AM 13.45 56.21 0.21 7.63 10.48 9.7
5/18/2022 1:30:00 AM 13.35 56.03 0.209 7.59 9.54 9.73
5/18/2022 1:45:00 AM 13.25 55.85 0.208 7.62 10.16 9.75
5/18/2022 2:00:00 AM 13.14 55.652 0.207 7.62 11.81 9.78
5/18/2022 2:15:00 AM 13.04 55.472 0.206 7.61 38.35 9.8
5/18/2022 2:30:00 AM 12.93 55.274 0.206 7.61 10.14 9.83
5/18/2022 2:45:00 AM 12.83 55.094 0.207 7.61 6.79 9.85
5/18/2022 3:00:00 AM 12.73 54.914 0.209 7.61 6.63 9.87
5/18/2022 3:15:00 AM 12.64 54.752 0.211 7.6 6.85 9.9
5/18/2022 3:30:00 AM 12.54 54.572 0.211 7.61 6.46 9.92
5/18/2022 3:45:00 AM 12.45 54.41 0.211 7.6 6.7 9.94
5/18/2022 4:00:00 AM 12.36 54.248 0.211 7.58 6.63 9.95
5/18/2022 4:15:00 AM 12.27 54.086 0.21 7.6 6.46 9.98
5/18/2022 4:30:00 AM 12.18 53.924 0.209 7.61 6.46 10.01
5/18/2022 4:45:00 AM 12.08 53.744 0.208 7.57 6.4 10.03
5/18/2022 5:00:00 AM 12 53.6 0.207 7.59 6.21 10.06
5/18/2022 5:15:00 AM 11.91 53.438 0.207 7.58 6.31 10.08
5/18/2022 5:30:00 AM 11.83 53.294 0.209 7.6 6.17 10.1
5/18/2022 5:45:00 AM 11.76 53.168 0.21 7.6 6.04 10.12
5/18/2022 6:00:00 AM 11.69 53.042 0.211 7.56 6.14 10.15
5/18/2022 6:15:00 AM 11.62 52.916 0.211 7.6 6.1 10.17
5/18/2022 6:30:00 AM 11.56 52.808 0.211 7.57 6.08 10.2
5/18/2022 6:45:00 AM 11.5 52.7 0.211 7.61 5.89 10.24
5/18/2022 7:00:00 AM 11.44 52.592 0.21 7.61 5.72 10.27
5/18/2022 7:15:00 AM 11.39 52.502 0.209 7.59 5.74 10.32
5/18/2022 7:30:00 AM 11.36 52.448 0.208 7.62 5.6 10.36
5/18/2022 7:45:00 AM 11.33 52.394 0.207 7.63 5.37 10.41
5/18/2022 8:00:00 AM 11.33 52.394 0.208 7.64 5.44 10.47
5/18/2022 8:15:00 AM 11.35 52.43 0.209 7.65 5.32 10.54
5/18/2022 8:30:00 AM 11.39 52.502 0.211 7.64 5.05 10.62
5/18/2022 8:45:00 AM 11.43 52.574 0.212 7.69 5.05 10.69
5/18/2022 9:00:00 AM 11.48 52.664 0.211 7.71 5.1 10.76
5/18/2022 9:15:00 AM 11.54 52.772 0.211 7.72 4.9 10.83
5/18/2022 9:30:00 AM 11.61 52.898 0.209 7.75 11.61 10.89
5/18/2022 9:45:00 AM 11.69 53.042 0.208 7.74 7.67 10.96
5/18/2022 10:00:00 AM 11.78 53.204 0.207 7.79 6.77 11.01
5/18/2022 10:15:00 AM 11.86 53.348 0.206 7.8 4.7 11.07
5/18/2022 10:30:00 AM 12.01 53.618 0.205 7.8 4.66 11.11
5/18/2022 10:45:00 AM 12.17 53.906 0.205 7.85 11.59 11.14
5/18/2022 11:00:00 AM 12.3 54.14 0.206 7.87 8.33 11.18
5/18/2022 11:15:00 AM 12.48 54.464 0.207 7.88 6.83 11.21
5/18/2022 11:30:00 AM 12.68 54.824 0.207 7.92 11.56 11.22
5/18/2022 11:45:00 AM 12.84 55.112 0.207 7.94 21.47 11.24
5/18/2022 12:00:00 PM 13 55.4 0.206 7.96 7.09 11.24
5/18/2022 12:15:00 PM 13.18 55.724 0.205 7.98 6.11 11.24
5/18/2022 12:30:00 PM 13.32 55.976 0.204 8 11.16 11.25
5/18/2022 12:45:00 PM 13.44 56.192 0.203 8.02 5.8 11.24
5/18/2022 1:00:00 PM 13.52 56.336 0.203 8.03 8.36 11.22
5/18/2022 1:15:00 PM 13.56 56.408 0.203 8.03 7.29 11.15
5/18/2022 1:30:00 PM 13.62 56.516 0.204 8.02 6.32 11.1
5/18/2022 1:45:00 PM 13.72 56.696 0.205 8.05 6.75 11.1
5/18/2022 2:00:00 PM 13.79 56.822 0.206 8.03 6.8 11.05
5/18/2022 2:15:00 PM 13.85 56.93 0.207 8.06 9.54 11.02
5/18/2022 2:30:00 PM 13.9 57.02 0.207 8.07 7.35 10.99
5/18/2022 2:45:00 PM 13.9 57.02 0.207 8.05 7.97 10.9
5/18/2022 3:00:00 PM 13.89 57.002 0.206 8.01 13.94 10.78
5/18/2022 3:15:00 PM 13.87 56.966 0.205 7.99 7.5 10.68
5/18/2022 3:30:00 PM 13.86 56.948 0.205 7.97 9.44 10.6
5/18/2022 3:45:00 PM 13.84 56.912 0.205 7.93 8.49 10.57
5/18/2022 4:00:00 PM 13.85 56.93 0.205 7.94 7.44 10.55
5/18/2022 4:15:00 PM 13.85 56.93 0.207 7.94 8.2 10.54
5/18/2022 4:30:00 PM 13.82 56.876 0.209 7.91 6.47 10.44
5/18/2022 4:45:00 PM 13.81 56.858 0.21 7.9 5.74 10.42
5/18/2022 5:00:00 PM 13.81 56.858 0.211 7.89 6.78 10.38
5/18/2022 5:15:00 PM 13.8 56.84 0.211 7.87 7.84 10.3
5/18/2022 5:30:00 PM 13.8 56.84 0.211 7.85 7.78 10.26
5/18/2022 5:45:00 PM 13.81 56.858 0.21 7.84 7.53 10.24
5/18/2022 6:00:00 PM 13.84 56.912 0.21 7.84 7.59 10.28
5/18/2022 6:15:00 PM 13.86 56.948 0.209 7.84 8.06 10.29
5/18/2022 6:30:00 PM 13.86 56.948 0.209 7.84 8.61 10.24
5/18/2022 6:45:00 PM 13.86 56.948 0.21 7.82 8.11 10.21
5/18/2022 7:00:00 PM 13.85 56.93 0.212 7.81 9.19 10.16
5/18/2022 7:15:00 PM 13.84 56.912 0.214 7.8 8.02 10.1
5/18/2022 7:30:00 PM 13.83 56.894 0.215 7.78 7.35 10.06
5/18/2022 7:45:00 PM 13.81 56.858 0.216 7.77 8.21 10
5/18/2022 8:00:00 PM 13.79 56.822 0.215 7.74 8.91 9.97
5/18/2022 8:15:00 PM 13.76 56.768 0.214 7.72 16.51 9.93
5/18/2022 8:30:00 PM 13.73 56.714 0.213 7.74 7.83 9.9
5/18/2022 8:45:00 PM 13.69 56.642 0.212 7.69 5.35 9.88
5/18/2022 9:00:00 PM 13.65 56.57 0.211 7.72 9.02 9.86
5/18/2022 9:15:00 PM 13.61 56.498 0.211 7.7 5.83 9.83
5/18/2022 9:30:00 PM 13.57 56.426 0.211 7.69 7 9.81
5/18/2022 9:45:00 PM 13.53 56.354 0.212 7.69 6.23 9.79
5/18/2022 10:00:00 PM 13.49 56.282 0.214 7.68 8.5 9.78
5/18/2022 10:15:00 PM 13.44 56.192 0.215 7.67 9.67 9.76
5/18/2022 10:30:00 PM 13.4 56.12 0.215 7.66 8.87 9.76
5/18/2022 10:45:00 PM 13.36 56.048 0.214 7.63 14.21 9.76
5/18/2022 11:00:00 PM 13.32 55.976 0.213 7.65 10.38 9.75
5/18/2022 11:15:00 PM 13.28 55.904 0.212 7.65 7.24 9.76
5/18/2022 11:30:00 PM 13.24 55.832 0.21 7.61 17.96 9.76
5/18/2022 11:45:00 PM 13.19 55.742 0.209 7.64 10.98 9.77
5/19/2022 12:00:00 AM 13.16 55.688 0.209 7.6 7.94 9.77
5/19/2022 12:15:00 AM 13.12 55.616 0.21 7.63 10.43 9.78
5/19/2022 12:30:00 AM 13.08 55.544 0.211 7.61 10.97 9.77
5/19/2022 12:45:00 AM 13.04 55.472 0.213 7.63 10.57 9.78
5/19/2022 1:00:00 AM 13.01 55.418 0.214 7.59 7.43 9.78
5/19/2022 1:15:00 AM 12.97 55.346 0.213 7.63 7.66 9.79
5/19/2022 1:30:00 AM 12.95 55.31 0.213 7.63 10.16 9.79
5/19/2022 1:45:00 AM 12.91 55.238 0.212 7.62 10.93 9.79
5/19/2022 2:00:00 AM 12.88 55.184 0.211 7.62 7.33 9.8
5/19/2022 2:15:00 AM 12.84 55.112 0.21 7.61 10.42 9.81
5/19/2022 2:30:00 AM 12.81 55.058 0.21 7.61 7.12 9.81
5/19/2022 2:45:00 AM 12.78 55.004 0.21 7.62 8.08 9.81
5/19/2022 3:00:00 AM 12.76 54.968 0.212 7.58 8.63 9.82
5/19/2022 3:15:00 AM 12.73 54.914 0.214 7.62 6.44 9.82
5/19/2022 3:30:00 AM 12.71 54.878 0.215 7.61 9.06 9.83
5/19/2022 3:45:00 AM 12.68 54.824 0.216 7.62 8.15 9.84
5/19/2022 4:00:00 AM 12.66 54.788 0.216 7.62 10.43 9.83
5/19/2022 4:15:00 AM 12.64 54.752 0.216 7.62 9.9 9.84
5/19/2022 4:30:00 AM 12.62 54.716 0.215 7.62 8.33 9.85
5/19/2022 4:45:00 AM 12.6 54.68 0.215 7.62 11.07 9.85
5/19/2022 5:00:00 AM 12.58 54.644 0.216 7.62 11.08 9.86
5/19/2022 5:15:00 AM 12.56 54.608 0.217 7.62 10.09 9.86
5/19/2022 5:30:00 AM 12.55 54.59 0.219 7.62 6.57 9.86
5/19/2022 5:45:00 AM 12.53 54.554 0.222 7.6 10.06 9.86
5/19/2022 6:00:00 AM 12.52 54.536 0.223 7.6 11.71 9.86
5/19/2022 6:15:00 AM 12.51 54.518 0.224 7.63 10.46 9.88
5/19/2022 6:30:00 AM 12.51 54.518 0.224 7.63 9.73 9.89
5/19/2022 6:45:00 AM 12.5 54.5 0.224 7.63 6.32 9.91
5/19/2022 7:00:00 AM 12.5 54.5 0.224 7.6 8 9.93
5/19/2022 7:15:00 AM 12.5 54.5 0.225 7.64 6.11 9.96
5/19/2022 7:30:00 AM 12.5 54.5 0.226 7.64 6.15 9.98
5/19/2022 7:45:00 AM 12.51 54.518 0.228 7.66 6.7 10.04
5/19/2022 8:00:00 AM 12.52 54.536 0.231 7.66 10.92 10.07
5/19/2022 8:15:00 AM 12.56 54.608 0.233 7.67 8.12 10.15
5/19/2022 8:30:00 AM 12.57 54.626 0.235 7.69 7.83 10.16
5/19/2022 8:45:00 AM 12.58 54.644 0.235 7.69 7.96 10.19
5/19/2022 9:00:00 AM 12.61 54.698 0.234 7.69 7.83 10.24
5/19/2022 9:15:00 AM 12.64 54.752 0.234 7.72 7.76 10.31
5/19/2022 9:30:00 AM 12.71 54.878 0.233 7.71 7.76 10.41
5/19/2022 9:45:00 AM 12.73 54.914 0.232 7.75 7.7 10.42
5/19/2022 10:00:00 AM 12.74 54.932 0.231 7.76 8.19 10.42
5/19/2022 10:15:00 AM 12.74 54.932 0.23 7.72 7.65 10.37
5/19/2022 10:30:00 AM 12.75 54.95 0.229 7.75 7.52 10.36
5/19/2022 10:45:00 AM 12.77 54.986 0.23 7.75 7.33 10.34
5/19/2022 11:00:00 AM 12.78 55.004 0.23 7.74 6.57 10.31
5/19/2022 11:15:00 AM 12.81 55.058 0.231 7.75 7.63 10.31
5/19/2022 11:30:00 AM 12.83 55.094 0.23 7.74 9.51 10.3
5/19/2022 11:45:00 AM 12.86 55.148 0.23 7.76 11.1 10.33
5/19/2022 12:00:00 PM 12.89 55.202 0.229 7.74 7.94 10.37
5/19/2022 12:15:00 PM 12.91 55.238 0.228 7.75 7.48 10.38
5/19/2022 12:30:00 PM 12.94 55.292 0.226 7.78 7.82 10.4
5/19/2022 12:45:00 PM 13 55.4 0.224 7.8 6.26 10.48
5/19/2022 1:00:00 PM 13.08 55.544 0.223 7.82 9.1 10.56
5/19/2022 1:15:00 PM 13.19 55.742 0.222 7.8 6.88 10.61
5/19/2022 1:30:00 PM 13.4 56.12 0.221 7.86 6.98 10.67
5/19/2022 1:45:00 PM 13.45 56.21 0.222 7.87 7.53 10.65
5/19/2022 2:00:00 PM 13.47 56.246 0.222 7.87 17.35 10.65
5/19/2022 2:15:00 PM 13.54 56.372 0.222 7.89 8.01 10.68
5/19/2022 2:30:00 PM 13.62 56.516 0.221 7.9 11.34 10.68
5/19/2022 2:45:00 PM 13.8 56.84 0.22 7.89 8.07 10.74
5/19/2022 3:00:00 PM 14 57.2 0.219 7.95 7.25 10.76
5/19/2022 3:15:00 PM 14.09 57.362 0.218 7.96 5.67 10.75
5/19/2022 3:30:00 PM 14.21 57.578 0.217 7.98 7.42 10.77
5/19/2022 3:45:00 PM 14.32 57.776 0.216 8 7.83 10.76
5/19/2022 4:00:00 PM 14.37 57.866 0.216 7.96 7.44 10.69
5/19/2022 4:15:00 PM 14.47 58.046 0.217 8 20.29 10.67
5/19/2022 4:30:00 PM 14.6 58.28 0.219 8.01 7.77 10.67
5/19/2022 4:45:00 PM 14.67 58.406 0.22 8 7.15 10.6
5/19/2022 5:00:00 PM 14.78 58.604 0.22 8.02 6.94 10.6
5/19/2022 5:15:00 PM 14.84 58.712 0.221 7.98 6.44 10.51
5/19/2022 5:30:00 PM 14.89 58.802 0.22 7.98 7.75 10.44
5/19/2022 5:45:00 PM 14.97 58.946 0.22 8 6.27 10.41
5/19/2022 6:00:00 PM 15.02 59.036 0.219 7.96 8.31 10.36
5/19/2022 6:15:00 PM 15.07 59.126 0.218 7.98 8.23 10.3
5/19/2022 6:30:00 PM 15.12 59.216 0.218 7.96 7.15 10.25
5/19/2022 6:45:00 PM 15.11 59.198 0.218 7.94 10.15 10.15
5/19/2022 7:00:00 PM 15.13 59.234 0.22 7.91 9.28 10.08
5/19/2022 7:15:00 PM 15.16 59.288 0.222 7.9 7.39 10.05
5/19/2022 7:30:00 PM 15.13 59.234 0.223 7.88 5.09 9.94
5/19/2022 7:45:00 PM 15.12 59.216 0.223 7.85 7.25 9.88
5/19/2022 8:00:00 PM 15.11 59.198 0.223 7.8 9.87 9.81
5/19/2022 8:15:00 PM 15.1 59.18 0.223 7.81 7.45 9.75
5/19/2022 8:30:00 PM 15.08 59.144 0.221 7.79 8.35 9.7
5/19/2022 8:45:00 PM 15.04 59.072 0.22 7.76 9.87 9.65
5/19/2022 9:00:00 PM 15.01 59.018 0.219 7.74 10.04 9.62
5/19/2022 9:15:00 PM 14.96 58.928 0.219 7.72 8.34 9.58
5/19/2022 9:30:00 PM 14.92 58.856 0.219 7.68 8.07 9.55
5/19/2022 9:45:00 PM 14.86 58.748 0.22 7.67 6.45 9.53
5/19/2022 10:00:00 PM 14.81 58.658 0.222 7.68 8.98 9.5
5/19/2022 10:15:00 PM 14.76 58.568 0.223 7.67 8.81 9.49
5/19/2022 10:30:00 PM 14.71 58.478 0.224 7.66 9.89 9.48
5/19/2022 10:45:00 PM 14.66 58.388 0.224 7.65 5.54 9.47
5/19/2022 11:00:00 PM 14.61 58.298 0.223 7.65 7 9.46
5/19/2022 11:15:00 PM 14.56 58.208 0.222 7.6 8.04 9.46
5/19/2022 11:30:00 PM 14.5 58.1 0.22 7.63 11.22 9.47
5/19/2022 11:45:00 PM 14.44 57.992 0.22 7.63 10.53 9.47
5/20/2022 12:00:00 AM 14.38 57.884 0.219 7.62 8.41 9.49
5/20/2022 12:15:00 AM 14.32 57.776 0.219 7.61 9.09 9.49
5/20/2022 12:30:00 AM 14.26 57.668 0.221 7.61 12.44 9.5
5/20/2022 12:45:00 AM 14.2 57.56 0.223 7.61 9.63 9.5
5/20/2022 1:00:00 AM 14.14 57.452 0.224 7.61 7.37 9.51
5/20/2022 1:15:00 AM 14.08 57.344 0.224 7.57 5.84 9.51
5/20/2022 1:30:00 AM 14.02 57.236 0.224 7.61 9.23 9.53
5/20/2022 1:45:00 AM 13.96 57.128 0.223 7.61 9.26 9.54
5/20/2022 2:00:00 AM 13.9 57.02 0.222 7.61 8.68 9.55
5/20/2022 2:15:00 AM 13.84 56.912 0.221 7.6 11.27 9.56
5/20/2022 2:30:00 AM 13.78 56.804 0.22 7.59 6 9.57
5/20/2022 2:45:00 AM 13.72 56.696 0.22 7.6 6.12 9.59
5/20/2022 3:00:00 AM 13.67 56.606 0.22 7.59 5.66 9.6
5/20/2022 3:15:00 AM 13.61 56.498 0.222 7.59 6.45 9.6
5/20/2022 3:30:00 AM 13.55 56.39 0.223 7.59 8.84 9.62
5/20/2022 3:45:00 AM 13.5 56.3 0.224 7.55 11.27 9.62
5/20/2022 4:00:00 AM 13.45 56.21 0.224 7.59 7.41 9.63
5/20/2022 4:15:00 AM 13.41 56.138 0.224 7.58 9.02 9.65
5/20/2022 4:30:00 AM 13.37 56.066 0.223 7.59 14.01 9.66
5/20/2022 4:45:00 AM 13.32 55.976 0.222 7.58 5.92 9.68
5/20/2022 5:00:00 AM 13.28 55.904 0.221 7.59 10.23 9.69
5/20/2022 5:15:00 AM 13.24 55.832 0.22 7.59 5.69 9.7
5/20/2022 5:30:00 AM 13.2 55.76 0.22 7.58 5.53 9.71
5/20/2022 5:45:00 AM 13.16 55.688 0.218 7.58 5.84 9.73
5/20/2022 6:00:00 AM 13.14 55.652 0.219 7.58 6.16 9.73
5/20/2022 6:15:00 AM 13.12 55.616 0.22 7.58 6.02 9.73
5/20/2022 6:30:00 AM 13.1 55.58 0.221 7.57 12.7 9.74
5/20/2022 6:45:00 AM 13.08 55.544 0.222 7.56 24.57 9.76
5/20/2022 7:00:00 AM 13.08 55.544 0.221 7.6 8.31 9.78
5/20/2022 7:15:00 AM 13.07 55.526 0.219 7.6 11.4 9.8
5/20/2022 7:30:00 AM 13.07 55.526 0.217 7.6 22.39 9.85
5/20/2022 7:45:00 AM 13.07 55.526 0.216 7.62 8.37 9.94
5/20/2022 8:00:00 AM 13.05 55.49 0.214 7.62 8.27 9.94
5/20/2022 8:15:00 AM 13.04 55.472 0.213 7.6 12.04 9.92
5/20/2022 8:30:00 AM 13.04 55.472 0.213 7.62 11.47 9.94
5/20/2022 8:45:00 AM 13.05 55.49 0.214 7.62 10.73 10.02
5/20/2022 9:00:00 AM 13.06 55.508 0.215 7.65 11.92 10.06
5/20/2022 9:15:00 AM 13.08 55.544 0.216 7.66 10.12 10.11
5/20/2022 9:30:00 AM 13.15 55.67 0.216 7.66 7.32 10.23
5/20/2022 9:45:00 AM 13.21 55.778 0.214 7.71 12.73 10.31
5/20/2022 10:00:00 AM 13.24 55.832 0.213 7.73 9.15 10.38
5/20/2022 10:15:00 AM 13.29 55.922 0.211 7.71 7.73 10.46
5/20/2022 10:30:00 AM 13.35 56.03 0.21 7.77 8.13 10.51
5/20/2022 10:45:00 AM 13.37 56.066 0.21 7.74 9.35 10.5
5/20/2022 11:00:00 AM 13.41 56.138 0.212 7.77 9.13 10.54
5/20/2022 11:15:00 AM 13.46 56.228 0.213 7.81 8.54 10.56
5/20/2022 11:30:00 AM 13.47 56.246 0.215 7.81 8.52 10.51
5/20/2022 11:45:00 AM 13.49 56.282 0.215 7.8 9.62 10.42
5/20/2022 12:00:00 PM 13.57 56.426 0.215 7.82 9.05 10.51
5/20/2022 12:15:00 PM 13.66 56.588 0.214 7.81 8.99 10.56
5/20/2022 12:30:00 PM 13.69 56.642 0.214 7.82 9.03 10.53
5/20/2022 12:45:00 PM 13.73 56.714 0.213 7.83 9.77 10.43
5/20/2022 1:00:00 PM 13.85 56.93 0.21 7.78 13.59 10.25
5/20/2022 1:15:00 PM 13.93 57.074 0.208 7.74 15.21 10.18
5/20/2022 1:30:00 PM 13.99 57.182 0.207 7.77 20.56 10.19
5/20/2022 1:45:00 PM 14.06 57.308 0.208 7.79 27.39 10.26
5/20/2022 2:00:00 PM 14.06 57.308 0.209 7.76 22.55 10.24
5/20/2022 2:15:00 PM 14.03 57.254 0.209 7.79 21.03 10.18
5/20/2022 2:30:00 PM 14.03 57.254 0.209 7.78 21.13 10.16
5/20/2022 2:45:00 PM 14.06 57.308 0.21 7.74 18.22 10.18
5/20/2022 3:00:00 PM 14.15 57.47 0.211 7.8 18.95 10.26
5/20/2022 3:15:00 PM 14.19 57.542 0.212 7.81 18.62 10.26
5/20/2022 3:30:00 PM 14.21 57.578 0.213 7.81 18.1 10.25
5/20/2022 3:45:00 PM 14.24 57.632 0.213 7.81 14.37 10.23
5/20/2022 4:00:00 PM 14.26 57.668 0.212 7.81 16.88 10.22
5/20/2022 4:15:00 PM 14.33 57.794 0.212 7.79 17.21 10.29
5/20/2022 4:30:00 PM 14.45 58.01 0.211 7.85 15.57 10.35
5/20/2022 4:45:00 PM 14.5 58.1 0.21 7.85 12.93 10.34
5/20/2022 5:00:00 PM 14.59 58.262 0.209 7.86 16.1 10.32
5/20/2022 5:15:00 PM 14.66 58.388 0.21 7.83 16.02 10.29
5/20/2022 5:30:00 PM 14.74 58.532 0.21 7.86 14.63 10.24
5/20/2022 5:45:00 PM 14.83 58.694 0.21 7.86 14.69 10.18
5/20/2022 6:00:00 PM 14.89 58.802 0.211 7.85 14.62 10.15
5/20/2022 6:15:00 PM 14.96 58.928 0.213 7.85 14.74 10.12
5/20/2022 6:30:00 PM 15.01 59.018 0.217 7.84 18.02 10.09
5/20/2022 6:45:00 PM 15.06 59.108 0.221 7.82 13.85 10.06
5/20/2022 7:00:00 PM 15.12 59.216 0.224 7.83 13.93 10.02
5/20/2022 7:15:00 PM 15.13 59.234 0.226 7.82 13.34 9.95
5/20/2022 7:30:00 PM 15.15 59.27 0.226 7.79 13.36 9.9
5/20/2022 7:45:00 PM 15.15 59.27 0.227 7.79 13.13 9.85
5/20/2022 8:00:00 PM 15.16 59.288 0.227 7.77 13.82 9.78
5/20/2022 8:15:00 PM 15.13 59.234 0.227 7.72 13.77 9.73
5/20/2022 8:30:00 PM 15.12 59.216 0.227 7.73 9.35 9.67
5/20/2022 8:45:00 PM 15.09 59.162 0.227 7.71 11.91 9.62
5/20/2022 9:00:00 PM 15.06 59.108 0.229 7.66 9.54 9.58
5/20/2022 9:15:00 PM 15.04 59.072 0.232 7.68 10.15 9.54
5/20/2022 9:30:00 PM 15.02 59.036 0.235 7.62 13.37 9.49
5/20/2022 9:45:00 PM 15 59 0.238 7.64 20.46 9.45
5/20/2022 10:00:00 PM 14.97 58.946 0.239 7.63 22.66 9.42
5/20/2022 10:15:00 PM 14.95 58.91 0.239 7.59 29.31 9.4
5/20/2022 10:30:00 PM 14.93 58.874 0.239 7.6 29.75 9.38
5/20/2022 10:45:00 PM 14.9 58.82 0.238 7.59 32.49 9.38
5/20/2022 11:00:00 PM 14.88 58.784 0.237 7.58 37.13 9.37
5/20/2022 11:15:00 PM 14.84 58.712 0.235 7.57 30.97 9.37
5/20/2022 11:30:00 PM 14.81 58.658 0.234 7.56 27.08 9.37
5/20/2022 11:45:00 PM 14.78 58.604 0.233 7.56 23.54 9.38
5/21/2022 12:00:00 AM 14.75 58.55 0.232 7.56 22.14 9.38
5/21/2022 12:15:00 AM 14.72 58.496 0.233 7.55 17.72 9.38
5/21/2022 12:30:00 AM 14.68 58.424 0.234 7.55 17.56 9.39
5/21/2022 12:45:00 AM 14.65 58.37 0.234 7.55 138.48 9.4
5/21/2022 1:00:00 AM 14.63 58.334 0.233 7.5 13.18 9.4
5/21/2022 1:15:00 AM 14.6 58.28 0.233 7.52 13.66 9.41
5/21/2022 1:30:00 AM 14.57 58.226 0.232 7.54 13.12 9.41
5/21/2022 1:45:00 AM 14.54 58.172 0.231 7.53 10.69 9.42
5/21/2022 2:00:00 AM 14.51 58.118 0.23 7.53 10.76 9.43
5/21/2022 2:15:00 AM 14.48 58.064 0.229 7.53 14.08 9.43
5/21/2022 2:30:00 AM 14.45 58.01 0.228 7.53 9.15 9.44
5/21/2022 2:45:00 AM 14.42 57.956 0.229 7.53 10.84 9.45
5/21/2022 3:00:00 AM 14.4 57.92 0.23 7.52 12.45 9.45
5/21/2022 3:15:00 AM 14.37 57.866 0.232 7.53 13.15 9.46
5/21/2022 3:30:00 AM 14.34 57.812 0.233 7.53 8.6 9.46
5/21/2022 3:45:00 AM 14.31 57.758 0.234 7.54 8.21 9.47
5/21/2022 4:00:00 AM 14.27 57.686 0.234 7.56 12.48 9.48
5/21/2022 4:15:00 AM 14.24 57.632 0.233 7.56 7.99 9.49
5/21/2022 4:30:00 AM 14.21 57.578 0.232 7.52 12.48 9.49
5/21/2022 4:45:00 AM 14.18 57.524 0.231 7.57 8.83 9.5
5/21/2022 5:00:00 AM 14.15 57.47 0.23 7.57 10.4 9.51
5/21/2022 5:15:00 AM 14.12 57.416 0.229 7.57 7.59 9.52
5/21/2022 5:30:00 AM 14.09 57.362 0.229 7.56 17.55 9.53
5/21/2022 5:45:00 AM 14.05 57.29 0.23 7.56 29.99 9.54
5/21/2022 6:00:00 AM 14.02 57.236 0.232 7.58 12.88 9.55
5/21/2022 6:15:00 AM 13.99 57.182 0.232 7.55 14.65 9.57
5/21/2022 6:30:00 AM 13.96 57.128 0.233 7.59 10.5 9.59
5/21/2022 6:45:00 AM 13.94 57.092 0.233 7.59 9.38 9.63
5/21/2022 7:00:00 AM 13.92 57.056 0.232 7.59 10.86 9.66
5/21/2022 7:15:00 AM 13.9 57.02 0.231 7.56 9.04 9.7
5/21/2022 7:30:00 AM 13.89 57.002 0.229 7.61 9.21 9.74
5/21/2022 7:45:00 AM 13.9 57.02 0.228 7.61 8.67 9.79
5/21/2022 8:00:00 AM 13.91 57.038 0.227 7.62 8.91 9.84
5/21/2022 8:15:00 AM 13.96 57.128 0.227 7.64 8.54 9.9
5/21/2022 8:30:00 AM 14.03 57.254 0.228 7.62 8.33 9.96
5/21/2022 8:45:00 AM 14.1 57.38 0.23 7.68 8.38 10.01
5/21/2022 9:00:00 AM 14.2 57.56 0.23 7.69 8.37 10.07
5/21/2022 9:15:00 AM 14.3 57.74 0.231 7.72 8.02 10.13
5/21/2022 9:30:00 AM 14.41 57.938 0.231 7.74 7.27 10.18
5/21/2022 9:45:00 AM 14.54 58.172 0.23 7.73 8.02 10.23
5/21/2022 10:00:00 AM 14.69 58.442 0.228 7.78 7.56 10.29
5/21/2022 10:15:00 AM 14.84 58.712 0.227 7.8 7.98 10.34
5/21/2022 10:30:00 AM 14.99 58.982 0.226 7.82 7.64 10.38
5/21/2022 10:45:00 AM 15.17 59.306 0.225 7.85 6.77 10.43
5/21/2022 11:00:00 AM 15.37 59.666 0.225 7.87 8.17 10.46
5/21/2022 11:15:00 AM 15.53 59.954 0.226 7.9 7.13 10.49
5/21/2022 11:30:00 AM 15.61 60.098 0.226 7.91 7.94 10.49
5/21/2022 11:45:00 AM 15.82 60.476 0.227 7.94 7.99 10.54
5/21/2022 12:00:00 PM 15.94 60.692 0.227 7.96 5.02 10.53
5/21/2022 12:15:00 PM 16.06 60.908 0.227 7.93 10.68 10.51
5/21/2022 12:30:00 PM 16.16 61.088 0.226 7.97 8.04 10.5
5/21/2022 12:45:00 PM 16.36 61.448 0.225 8.01 7.8 10.51
5/21/2022 1:00:00 PM 16.51 61.718 0.224 8.02 8.06 10.5
5/21/2022 1:15:00 PM 16.74 62.132 0.223 8.05 8.04 10.52
5/21/2022 1:30:00 PM 16.98 62.564 0.222 8.07 6.97 10.49
5/21/2022 1:45:00 PM 17.16 62.888 0.222 8.08 7.75 10.45
5/21/2022 2:00:00 PM 17.29 63.122 0.223 8.08 8.38 10.4
5/21/2022 2:15:00 PM 17.44 63.392 0.225 8.09 5.28 10.39
5/21/2022 2:30:00 PM 17.66 63.788 0.225 8.11 7.62 10.4
5/21/2022 2:45:00 PM 17.84 64.112 0.226 8.13 14.36 10.37
5/21/2022 3:00:00 PM 17.97 64.346 0.226 8.13 7.87 10.32
5/21/2022 3:15:00 PM 18.07 64.526 0.225 8.12 6.3 10.27
5/21/2022 3:30:00 PM 18.21 64.778 0.224 8.14 12.22 10.24
5/21/2022 3:45:00 PM 18.35 65.03 0.223 8.14 14.29 10.2
5/21/2022 4:00:00 PM 18.45 65.21 0.223 8.12 6.71 10.13
5/21/2022 4:15:00 PM 18.52 65.336 0.222 8.13 14.81 10.06
5/21/2022 4:30:00 PM 18.6 65.48 0.223 8.12 8.05 10
5/21/2022 4:45:00 PM 18.64 65.552 0.225 8.11 4.93 9.95
5/21/2022 5:00:00 PM 18.67 65.606 0.226 8.07 5.2 9.89
5/21/2022 5:15:00 PM 18.69 65.642 0.227 8.08 5.3 9.84
5/21/2022 5:30:00 PM 18.71 65.67799 0.228 8.07 5.02 9.79
5/21/2022 5:45:00 PM 18.7 65.66 0.228 8.05 7.23 9.7
5/21/2022 6:00:00 PM 18.69 65.642 0.227 8.03 9.79 9.62
5/21/2022 6:15:00 PM 18.69 65.642 0.226 8.01 8.42 9.57
5/21/2022 6:30:00 PM 18.67 65.606 0.226 7.99 5.16 9.5
5/21/2022 6:45:00 PM 18.66 65.588 0.225 7.96 7.27 9.42
5/21/2022 7:00:00 PM 18.62 65.516 0.225 7.93 8.01 9.35
5/21/2022 7:15:00 PM 18.58 65.444 0.226 7.91 7.1 9.28
5/21/2022 7:30:00 PM 18.52 65.336 0.228 7.87 9.48 9.21
5/21/2022 7:45:00 PM 18.45 65.21 0.23 7.84 8.33 9.12
5/21/2022 8:00:00 PM 18.37 65.066 0.232 7.8 5.27 9.07
5/21/2022 8:15:00 PM 18.3 64.94 0.233 7.77 7.05 9.01
5/21/2022 8:30:00 PM 18.24 64.832 0.233 7.76 11.34 8.95
5/21/2022 8:45:00 PM 18.16 64.688 0.232 7.74 5.57 8.92
5/21/2022 9:00:00 PM 18.07 64.526 0.231 7.71 5.63 8.89
5/21/2022 9:15:00 PM 17.98 64.364 0.23 7.7 6.03 8.86
5/21/2022 9:30:00 PM 17.89 64.202 0.229 7.64 7.77 8.85
5/21/2022 9:45:00 PM 17.81 64.058 0.229 7.66 6.05 8.84
5/21/2022 10:00:00 PM 17.72 63.896 0.229 7.65 6.32 8.82
5/21/2022 10:15:00 PM 17.62 63.716 0.231 7.61 6.24 8.83
5/21/2022 10:30:00 PM 17.52 63.536 0.232 7.64 9.65 8.82
5/21/2022 10:45:00 PM 17.45 63.41 0.234 7.63 12.52 8.82
5/21/2022 11:00:00 PM 17.38 63.284 0.235 7.64 5.97 8.82
5/21/2022 11:15:00 PM 17.3 63.14 0.234 7.64 9.77 8.83
5/21/2022 11:30:00 PM 17.22 62.996 0.233 7.64 8.33 8.84
5/21/2022 11:45:00 PM 17.14 62.852 0.231 7.63 6.14 8.86
5/22/2022 12:00:00 AM 17.06 62.708 0.23 7.63 6.13 8.86
5/22/2022 12:15:00 AM 16.97 62.546 0.229 7.63 6.26 8.89
5/22/2022 12:30:00 AM 16.89 62.402 0.228 7.62 6.34 8.9
5/22/2022 12:45:00 AM 16.81 62.258 0.228 7.62 8.22 8.9
5/22/2022 1:00:00 AM 16.72 62.096 0.229 7.62 8.29 8.92
5/22/2022 1:15:00 AM 16.63 61.934 0.231 7.62 7.52 8.95
5/22/2022 1:30:00 AM 16.54 61.772 0.232 7.62 6.43 8.96
5/22/2022 1:45:00 AM 16.45 61.61 0.233 7.62 6.19 8.97
5/22/2022 2:00:00 AM 16.37 61.466 0.233 7.62 6.38 8.99
5/22/2022 2:15:00 AM 16.28 61.304 0.232 7.62 8.37 9.02
5/22/2022 2:30:00 AM 16.19 61.142 0.23 7.62 6.31 9.03
5/22/2022 2:45:00 AM 16.11 60.998 0.229 7.62 6.37 9.05
5/22/2022 3:00:00 AM 16.03 60.854 0.228 7.61 6.52 9.07
5/22/2022 3:15:00 AM 15.95 60.71 0.228 7.61 11.73 9.08
5/22/2022 3:30:00 AM 15.86 60.548 0.229 7.61 7.07 9.1
5/22/2022 3:45:00 AM 15.78 60.404 0.23 7.61 8.86 9.12
5/22/2022 4:00:00 AM 15.7 60.26 0.232 7.61 8.72 9.13
5/22/2022 4:15:00 AM 15.63 60.134 0.234 7.61 5.94 9.15
5/22/2022 4:30:00 AM 15.56 60.008 0.234 7.58 7.45 9.15
5/22/2022 4:45:00 AM 15.49 59.882 0.233 7.61 6.16 9.18
5/22/2022 5:00:00 AM 15.42 59.756 0.232 7.57 6.4 9.2
5/22/2022 5:15:00 AM 15.35 59.63 0.231 7.61 6.16 9.22
5/22/2022 5:30:00 AM 15.29 59.522 0.229 7.6 26.16 9.23
5/22/2022 5:45:00 AM 15.22 59.396 0.229 7.61 9.36 9.26
5/22/2022 6:00:00 AM 15.16 59.288 0.229 7.58 9.07 9.28
5/22/2022 6:15:00 AM 15.1 59.18 0.229 7.59 14.75 9.29
5/22/2022 6:30:00 AM 15.06 59.108 0.23 7.61 10.83 9.32
5/22/2022 6:45:00 AM 15.01 59.018 0.232 7.62 8.95 9.37
5/22/2022 7:00:00 AM 14.96 58.928 0.233 7.59 8.68 9.41
5/22/2022 7:15:00 AM 14.92 58.856 0.233 7.63 8.25 9.44
5/22/2022 7:30:00 AM 14.89 58.802 0.232 7.6 8.14 9.5
5/22/2022 7:45:00 AM 14.87 58.766 0.23 7.65 8.98 9.55
5/22/2022 8:00:00 AM 14.85 58.73 0.229 7.62 12.19 9.6
5/22/2022 8:15:00 AM 14.86 58.748 0.227 7.66 6.63 9.68
5/22/2022 8:30:00 AM 14.88 58.784 0.227 7.67 8.13 9.75
5/22/2022 8:45:00 AM 14.92 58.856 0.226 7.7 8.54 9.83
5/22/2022 9:00:00 AM 14.97 58.946 0.227 7.72 8.45 9.9
5/22/2022 9:15:00 AM 14.99 58.982 0.228 7.74 8.04 9.97
5/22/2022 9:30:00 AM 15.03 59.054 0.23 7.76 8.36 10.03
5/22/2022 9:45:00 AM 15.13 59.234 0.23 7.77 6.88 10.08
5/22/2022 10:00:00 AM 15.25 59.45 0.23 7.77 8.21 10.15
5/22/2022 10:15:00 AM 15.38 59.684 0.229 7.81 7.87 10.19
5/22/2022 10:30:00 AM 15.52 59.936 0.227 7.8 6.82 10.25
5/22/2022 10:45:00 AM 15.69 60.242 0.226 7.86 4.73 10.29
5/22/2022 11:00:00 AM 15.84 60.512 0.224 7.87 7.97 10.34
5/22/2022 11:15:00 AM 15.97 60.746 0.224 7.88 7.33 10.36
5/22/2022 11:30:00 AM 16.02 60.836 0.224 7.92 8.33 10.33
5/22/2022 11:45:00 AM 16.04 60.872 0.224 7.92 15.41 10.29
5/22/2022 12:00:00 PM 16.23 61.214 0.225 7.94 6.56 10.31
5/22/2022 12:15:00 PM 16.44 61.592 0.226 7.97 9.55 10.38
5/22/2022 12:30:00 PM 16.57 61.826 0.226 7.99 9.96 10.39
5/22/2022 12:45:00 PM 16.78 62.204 0.225 8.01 6.93 10.41
5/22/2022 1:00:00 PM 16.92 62.456 0.224 8.01 7.46 10.39
5/22/2022 1:15:00 PM 17.06 62.708 0.223 8.03 5.04 10.38
5/22/2022 1:30:00 PM 17.24 63.032 0.222 8.07 7.44 10.36
5/22/2022 1:45:00 PM 17.42 63.356 0.221 8.07 6.54 10.36
5/22/2022 2:00:00 PM 17.59 63.662 0.221 8.1 7.65 10.34
5/22/2022 2:15:00 PM 17.77 63.986 0.221 8.12 7.41 10.33
5/22/2022 2:30:00 PM 17.84 64.112 0.222 8.09 5.13 10.27
5/22/2022 2:45:00 PM 17.84 64.112 0.224 8.12 7.9 10.24
5/22/2022 3:00:00 PM 17.89 64.202 0.225 8.12 7.99 10.18
5/22/2022 3:15:00 PM 17.89 64.202 0.225 8.07 7.79 10.12
5/22/2022 3:30:00 PM 17.89 64.202 0.224 8.11 7.25 10.1
5/22/2022 3:45:00 PM 17.92 64.256 0.223 8.11 7.64 10.08
5/22/2022 4:00:00 PM 18.01 64.418 0.222 8.12 8.33 10.06
5/22/2022 4:15:00 PM 18.09 64.562 0.221 8.12 8.76 10
5/22/2022 4:30:00 PM 18.18 64.724 0.22 8.11 16.41 9.97
5/22/2022 4:45:00 PM 18.24 64.832 0.221 8.11 4.61 9.92
5/22/2022 5:00:00 PM 18.22 64.796 0.221 8.09 6.79 9.83
5/22/2022 5:15:00 PM 18.18 64.724 0.223 8.02 4.66 9.72
5/22/2022 5:30:00 PM 18.16 64.688 0.225 8.01 13.37 9.66
5/22/2022 5:45:00 PM 18.15 64.67 0.226 8.01 11.4 9.61
5/22/2022 6:00:00 PM 18.13 64.634 0.226 7.98 4.67 9.49
5/22/2022 6:15:00 PM 18.1 64.58 0.226 7.96 6.7 9.43
5/22/2022 6:30:00 PM 18.06 64.508 0.225 7.93 8.82 9.37
5/22/2022 6:45:00 PM 18.03 64.454 0.223 7.91 5.06 9.32
5/22/2022 7:00:00 PM 17.99 64.382 0.222 7.9 5.05 9.31
5/22/2022 7:15:00 PM 17.94 64.292 0.222 7.88 4.82 9.26
5/22/2022 7:30:00 PM 17.88 64.184 0.223 7.84 4.9 9.19
5/22/2022 7:45:00 PM 17.82 64.076 0.224 7.84 10.92 9.16
5/22/2022 8:00:00 PM 17.77 63.986 0.226 7.82 22.36 9.09
5/22/2022 8:15:00 PM 17.71 63.878 0.228 7.8 6.72 9.07
5/22/2022 8:30:00 PM 17.65 63.77 0.23 7.79 4.81 9.03
5/22/2022 8:45:00 PM 17.59 63.662 0.231 7.77 5.16 8.99
5/22/2022 9:00:00 PM 17.52 63.536 0.23 7.76 5.13 8.98
5/22/2022 9:15:00 PM 17.43 63.374 0.229 7.72 5.82 8.96
5/22/2022 9:30:00 PM 17.34 63.212 0.227 7.73 5.49 8.96
5/22/2022 9:45:00 PM 17.25 63.05 0.226 7.73 5.64 8.98
5/22/2022 10:00:00 PM 17.15 62.87 0.226 7.69 5.74 8.97
5/22/2022 10:15:00 PM 17.04 62.672 0.226 7.71 6.38 8.97
5/22/2022 10:30:00 PM 16.94 62.492 0.227 7.71 7.09 8.96
5/22/2022 10:45:00 PM 16.83 62.294 0.23 7.7 6.26 8.99
5/22/2022 11:00:00 PM 16.74 62.132 0.232 7.7 5.61 8.99
5/22/2022 11:15:00 PM 16.64 61.952 0.234 7.67 5.64 9.02
5/22/2022 11:30:00 PM 16.53 61.754 0.234 7.69 8.55 9.02
5/22/2022 11:45:00 PM 16.42 61.556 0.233 7.68 5.75 9.04
5/23/2022 12:00:00 AM 16.32 61.376 0.231 7.67 5.67 9.06
5/23/2022 12:15:00 AM 16.21 61.178 0.229 7.68 5.72 9.08
5/23/2022 12:30:00 AM 16.11 60.998 0.228 7.64 6.33 9.09
5/23/2022 12:45:00 AM 16 60.8 0.228 7.67 6.21 9.12
5/23/2022 1:00:00 AM 15.9 60.62 0.228 7.67 7.03 9.15
5/23/2022 1:15:00 AM 15.79 60.422 0.23 7.67 5.8 9.17
5/23/2022 1:30:00 AM 15.69 60.242 0.231 7.64 5.88 9.19
5/23/2022 1:45:00 AM 15.59 60.062 0.234 7.67 5.65 9.2
5/23/2022 2:00:00 AM 15.48 59.864 0.235 7.67 6.8 9.22
5/23/2022 2:15:00 AM 15.38 59.684 0.235 7.67 5.81 9.26
5/23/2022 2:30:00 AM 15.27 59.486 0.233 7.66 5.7 9.28
5/23/2022 2:45:00 AM 15.17 59.306 0.232 7.67 6.05 9.31
5/23/2022 3:00:00 AM 15.06 59.108 0.23 7.66 5.93 9.34
5/23/2022 3:15:00 AM 14.97 58.946 0.229 7.66 5.56 9.36
5/23/2022 3:30:00 AM 14.87 58.766 0.229 7.66 5.62 9.37
5/23/2022 3:45:00 AM 14.77 58.586 0.229 7.66 5.96 9.4
5/23/2022 4:00:00 AM 14.69 58.442 0.231 7.63 6.17 9.43
5/23/2022 4:15:00 AM 14.63 58.334 0.232 7.66 5.91 9.44
5/23/2022 4:30:00 AM 14.56 58.208 0.234 7.66 5.7 9.46
5/23/2022 4:45:00 AM 14.49 58.082 0.235 7.66 6.69 9.45
5/23/2022 5:00:00 AM 14.42 57.956 0.235 7.66 9.19 9.48
5/23/2022 5:15:00 AM 14.34 57.812 0.233 7.66 6.32 9.51
5/23/2022 5:30:00 AM 14.27 57.686 0.231 7.65 8.92 9.52
5/23/2022 5:45:00 AM 14.2 57.56 0.23 7.66 7.06 9.54
5/23/2022 6:00:00 AM 14.13 57.434 0.229 7.66 7.23 9.56
5/23/2022 6:15:00 AM 14.07 57.326 0.228 7.66 8.36 9.58
5/23/2022 6:30:00 AM 14 57.2 0.229 7.66 14.21 9.62
5/23/2022 6:45:00 AM 13.94 57.092 0.23 7.66 14.28 9.66
5/23/2022 7:00:00 AM 13.89 57.002 0.231 7.67 75.17 9.7
5/23/2022 7:15:00 AM 13.84 56.912 0.233 7.67 9.27 9.73
5/23/2022 7:30:00 AM 13.8 56.84 0.233 7.69 8.56 9.78
5/23/2022 7:45:00 AM 13.77 56.786 0.232 7.69 8.64 9.81
5/23/2022 8:00:00 AM 13.75 56.75 0.231 7.71 10.49 9.89
5/23/2022 8:15:00 AM 13.75 56.75 0.229 7.71 24.64 9.95
5/23/2022 8:30:00 AM 13.77 56.786 0.228 7.73 9.89 10.03
5/23/2022 8:45:00 AM 13.79 56.822 0.227 7.75 9.34 10.1
5/23/2022 9:00:00 AM 13.82 56.876 0.227 7.73 6.75 10.17
5/23/2022 9:15:00 AM 13.86 56.948 0.227 7.75 10.09 10.25
5/23/2022 9:30:00 AM 13.91 57.038 0.228 7.8 7.22 10.32
5/23/2022 9:45:00 AM 13.96 57.128 0.23 7.82 6.97 10.38
5/23/2022 10:00:00 AM 14 57.2 0.231 7.85 7.03 10.46
5/23/2022 10:15:00 AM 14.06 57.308 0.231 7.87 6.55 10.52
5/23/2022 10:30:00 AM 14.12 57.416 0.23 7.86 6.35 10.58
5/23/2022 10:45:00 AM 14.19 57.542 0.228 7.92 5.53 10.64
5/23/2022 11:00:00 AM 14.29 57.722 0.226 7.9 7.56 10.69
5/23/2022 11:15:00 AM 14.39 57.902 0.225 7.94 6.79 10.75
5/23/2022 11:30:00 AM 14.58 58.244 0.224 7.98 8.98 10.78
5/23/2022 11:45:00 AM 14.66 58.388 0.224 8 7.21 10.8
5/23/2022 12:00:00 PM 14.79 58.622 0.223 8.03 7.03 10.84
5/23/2022 12:15:00 PM 14.86 58.748 0.224 8.06 11.26 10.85
5/23/2022 12:30:00 PM 14.93 58.874 0.225 8.08 6.93 10.85
5/23/2022 12:45:00 PM 15.03 59.054 0.225 8.1 7.02 10.87
5/23/2022 1:00:00 PM 15.08 59.144 0.225 8.12 5.36 10.86
5/23/2022 1:15:00 PM 15.12 59.216 0.224 8.13 4.62 10.84
5/23/2022 1:30:00 PM 15.2 59.36 0.222 8.14 4.38 10.84
5/23/2022 1:45:00 PM 15.29 59.522 0.221 8.13 7.63 10.83
5/23/2022 2:00:00 PM 15.36 59.648 0.22 8.18 6.82 10.82
5/23/2022 2:15:00 PM 15.39 59.702 0.22 8.15 7.46 10.79
5/23/2022 2:30:00 PM 15.42 59.756 0.22 8.16 6.68 10.76
5/23/2022 2:45:00 PM 15.44 59.792 0.221 8.19 6.94 10.73
5/23/2022 3:00:00 PM 15.44 59.792 0.222 8.19 10.99 10.7
5/23/2022 3:15:00 PM 15.45 59.81 0.223 8.17 8.35 10.65
5/23/2022 3:30:00 PM 15.44 59.792 0.224 8.18 7.66 10.62
5/23/2022 3:45:00 PM 15.44 59.792 0.223 8.16 8.15 10.6
5/23/2022 4:00:00 PM 15.43 59.774 0.222 8.15 4.98 10.59
5/23/2022 4:15:00 PM 15.41 59.738 0.221 8.16 6.71 10.55
5/23/2022 4:30:00 PM 15.39 59.702 0.22 8.15 22.03 10.52
5/23/2022 4:45:00 PM 15.37 59.666 0.22 8.09 7.15 10.47
5/23/2022 5:00:00 PM 15.36 59.648 0.22 8.09 6.8 10.43
5/23/2022 5:15:00 PM 15.34 59.612 0.221 8.1 6.02 10.4
5/23/2022 5:30:00 PM 15.33 59.594 0.222 8.08 5.98 10.35
5/23/2022 5:45:00 PM 15.31 59.558 0.224 8.06 6.52 10.27
5/23/2022 6:00:00 PM 15.29 59.522 0.226 8.04 7.89 10.22
5/23/2022 6:15:00 PM 15.27 59.486 0.226 8.01 9.74 10.15
5/23/2022 6:30:00 PM 15.25 59.45 0.226 7.98 7.58 10.07
5/23/2022 6:45:00 PM 15.23 59.414 0.224 7.96 7.54 10.02
5/23/2022 7:00:00 PM 15.21 59.378 0.223 7.9 9.27 9.97
5/23/2022 7:15:00 PM 15.19 59.342 0.222 7.91 7.45 9.93
5/23/2022 7:30:00 PM 15.17 59.306 0.222 7.89 7.15 9.87
5/23/2022 7:45:00 PM 15.14 59.252 0.223 7.87 8.34 9.82
5/23/2022 8:00:00 PM 15.1 59.18 0.224 7.85 10.97 9.78
5/23/2022 8:15:00 PM 15.06 59.108 0.226 7.82 7.97 9.74
5/23/2022 8:30:00 PM 15.02 59.036 0.228 7.79 12.83 9.7
5/23/2022 8:45:00 PM 14.99 58.982 0.23 7.8 4.87 9.66
5/23/2022 9:00:00 PM 14.95 58.91 0.231 7.78 4.83 9.63
5/23/2022 9:15:00 PM 14.91 58.838 0.23 7.77 8.68 9.6
5/23/2022 9:30:00 PM 14.87 58.766 0.228 7.75 5.87 9.58
5/23/2022 9:45:00 PM 14.82 58.676 0.227 7.74 5.43 9.58
5/23/2022 10:00:00 PM 14.78 58.604 0.226 7.73 5.51 9.56
5/23/2022 10:15:00 PM 14.73 58.514 0.226 7.72 8.79 9.56
5/23/2022 10:30:00 PM 14.69 58.442 0.226 7.71 5.08 9.55
5/23/2022 10:45:00 PM 14.65 58.37 0.227 7.71 5.28 9.55
5/23/2022 11:00:00 PM 14.61 58.298 0.229 7.67 7.5 9.54
5/23/2022 11:15:00 PM 14.57 58.226 0.231 7.7 8.49 9.54
5/23/2022 11:30:00 PM 14.54 58.172 0.233 7.69 8.01 9.54
5/23/2022 11:45:00 PM 14.5 58.1 0.233 7.69 5.16 9.55
5/24/2022 12:00:00 AM 14.45 58.01 0.232 7.68 7.17 9.54
5/24/2022 12:15:00 AM 14.42 57.956 0.23 7.68 5.35 9.55
5/24/2022 12:30:00 AM 14.37 57.866 0.229 7.68 5.26 9.57
5/24/2022 12:45:00 AM 14.33 57.794 0.228 7.64 5.28 9.57
5/24/2022 1:00:00 AM 14.29 57.722 0.227 7.67 5.01 9.57
5/24/2022 1:15:00 AM 14.25 57.65 0.227 7.67 5.17 9.59
5/24/2022 1:30:00 AM 14.21 57.578 0.228 7.67 9.2 9.59
5/24/2022 1:45:00 AM 14.16 57.488 0.229 7.66 5.19 9.59
5/24/2022 2:00:00 AM 14.12 57.416 0.231 7.66 5.17 9.61
5/24/2022 2:15:00 AM 14.07 57.326 0.231 7.66 5.07 9.6
5/24/2022 2:30:00 AM 14.02 57.236 0.231 7.67 9.56 9.62
5/24/2022 2:45:00 AM 13.97 57.146 0.229 7.67 7.26 9.63
5/24/2022 3:00:00 AM 13.92 57.056 0.228 7.62 5.21 9.64
5/24/2022 3:15:00 AM 13.87 56.966 0.227 7.66 8.13 9.65
5/24/2022 3:30:00 AM 13.82 56.876 0.226 7.62 5.41 9.65
5/24/2022 3:45:00 AM 13.76 56.768 0.226 7.66 5.86 9.68
5/24/2022 4:00:00 AM 13.72 56.696 0.226 7.66 5.35 9.68
5/24/2022 4:15:00 AM 13.67 56.606 0.227 7.66 5.95 9.69
5/24/2022 4:30:00 AM 13.63 56.534 0.229 7.66 9.57 9.69
5/24/2022 4:45:00 AM 13.59 56.462 0.231 7.66 18.79 9.71
5/24/2022 5:00:00 AM 13.57 56.426 0.232 7.65 11.71 9.72
5/24/2022 5:15:00 AM 13.54 56.372 0.231 7.64 5.32 9.72
5/24/2022 5:30:00 AM 13.51 56.318 0.23 7.66 245.67 9.74
5/24/2022 5:45:00 AM 13.48 56.264 0.229 7.66 9.27 9.74
5/24/2022 6:00:00 AM 13.45 56.21 0.228 7.66 7.12 9.75
5/24/2022 6:15:00 AM 13.42 56.156 0.227 7.64 7.56 9.77
5/24/2022 6:30:00 AM 13.4 56.12 0.227 7.66 7.55 9.79
5/24/2022 6:45:00 AM 13.38 56.084 0.227 7.67 7.32 9.82
5/24/2022 7:00:00 AM 13.37 56.066 0.228 7.64 5.46 9.84
5/24/2022 7:15:00 AM 13.36 56.048 0.23 7.68 13.9 9.89
5/24/2022 7:30:00 AM 13.35 56.03 0.232 7.69 8.39 9.92
5/24/2022 7:45:00 AM 13.34 56.012 0.232 7.7 11.64 9.96
5/24/2022 8:00:00 AM 13.36 56.048 0.231 7.71 16.6 10.05
5/24/2022 8:15:00 AM 13.37 56.066 0.229 7.73 9.18 10.13
5/24/2022 8:30:00 AM 13.39 56.102 0.228 7.71 7.5 10.2
5/24/2022 8:45:00 AM 13.41 56.138 0.227 7.76 8.18 10.26
5/24/2022 9:00:00 AM 13.45 56.21 0.226 7.78 6.9 10.33
5/24/2022 9:15:00 AM 13.52 56.336 0.226 7.77 6.81 10.42
5/24/2022 9:30:00 AM 13.58 56.444 0.226 7.82 6.94 10.49
5/24/2022 9:45:00 AM 13.65 56.57 0.227 7.82 7.38 10.55
5/24/2022 10:00:00 AM 13.68 56.624 0.229 7.86 7.26 10.58
5/24/2022 10:15:00 AM 13.68 56.624 0.23 7.87 6.58 10.57
5/24/2022 10:30:00 AM 13.68 56.624 0.23 7.85 7 10.54
5/24/2022 10:45:00 AM 13.69 56.642 0.229 7.86 6.83 10.53
5/24/2022 11:00:00 AM 13.71 56.678 0.227 7.89 6.76 10.56
5/24/2022 11:15:00 AM 13.76 56.768 0.226 7.91 6.91 10.6
5/24/2022 11:30:00 AM 13.8 56.84 0.225 7.91 6.38 10.62
5/24/2022 11:45:00 AM 13.84 56.912 0.224 7.94 6.88 10.64
5/24/2022 12:00:00 PM 13.85 56.93 0.223 7.91 7.7 10.63
5/24/2022 12:15:00 PM 13.86 56.948 0.224 7.92 4.11 10.58
5/24/2022 12:30:00 PM 13.88 56.984 0.225 7.94 6.33 10.57
5/24/2022 12:45:00 PM 13.9 57.02 0.226 7.94 6.17 10.53
5/24/2022 1:00:00 PM 13.95 57.11 0.226 7.95 5.89 10.57
5/24/2022 1:15:00 PM 14.01 57.218 0.226 7.97 6.54 10.63
5/24/2022 1:30:00 PM 14.04 57.272 0.225 7.98 6 10.63
5/24/2022 1:45:00 PM 14.06 57.308 0.223 7.96 6.23 10.62
5/24/2022 2:00:00 PM 14.09 57.362 0.222 7.98 6.61 10.6
5/24/2022 2:15:00 PM 14.13 57.434 0.222 8 5.59 10.63
5/24/2022 2:30:00 PM 14.17 57.506 0.221 8.01 5.98 10.64
5/24/2022 2:45:00 PM 14.17 57.506 0.221 7.98 5.91 10.6
5/24/2022 3:00:00 PM 14.22 57.596 0.222 8.01 5.7 10.64
5/24/2022 3:15:00 PM 14.29 57.722 0.224 8.02 4.34 10.65
5/24/2022 3:30:00 PM 14.28 57.704 0.225 8.03 7.02 10.6
5/24/2022 3:45:00 PM 14.3 57.74 0.225 8.03 6.05 10.59
5/24/2022 4:00:00 PM 14.35 57.83 0.224 8.03 6.3 10.61
5/24/2022 4:15:00 PM 14.34 57.812 0.223 8.03 6.23 10.55
5/24/2022 4:30:00 PM 14.34 57.812 0.222 8.01 6.3 10.5
5/24/2022 4:45:00 PM 14.33 57.794 0.221 7.96 5.34 10.43
5/24/2022 5:00:00 PM 14.34 57.812 0.22 7.98 4.58 10.38
5/24/2022 5:15:00 PM 14.35 57.83 0.22 7.96 8.43 10.34
5/24/2022 5:30:00 PM 14.34 57.812 0.221 7.94 5.82 10.28
5/24/2022 5:45:00 PM 14.34 57.812 0.222 7.93 11.98 10.25
5/24/2022 6:00:00 PM 14.35 57.83 0.224 7.91 4.15 10.2
5/24/2022 6:15:00 PM 14.35 57.83 0.226 7.89 10.8 10.16
5/24/2022 6:30:00 PM 14.34 57.812 0.226 7.89 7.96 10.11
5/24/2022 6:45:00 PM 14.32 57.776 0.225 7.87 6.75 10.06
5/24/2022 7:00:00 PM 14.31 57.758 0.224 7.85 4.51 10.03
5/24/2022 7:15:00 PM 14.3 57.74 0.223 7.84 7.16 9.98
5/24/2022 7:30:00 PM 14.29 57.722 0.223 7.79 8.74 9.95
5/24/2022 7:45:00 PM 14.28 57.704 0.223 7.81 8.31 9.9
5/24/2022 8:00:00 PM 14.27 57.686 0.223 7.79 10.95 9.87
5/24/2022 8:15:00 PM 14.26 57.668 0.224 7.78 9.31 9.84
5/24/2022 8:30:00 PM 14.25 57.65 0.226 7.73 4.53 9.81
5/24/2022 8:45:00 PM 14.24 57.632 0.228 7.76 5.27 9.79
5/24/2022 9:00:00 PM 14.23 57.614 0.229 7.72 4.65 9.77
5/24/2022 9:15:00 PM 14.21 57.578 0.229 7.72 4.96 9.75
5/24/2022 9:30:00 PM 14.2 57.56 0.229 7.74 8.51 9.72
5/24/2022 9:45:00 PM 14.19 57.542 0.228 7.72 5.07 9.71
5/24/2022 10:00:00 PM 14.17 57.506 0.227 7.7 5.72 9.71
5/24/2022 10:15:00 PM 14.16 57.488 0.226 7.71 6.29 9.7
5/24/2022 10:30:00 PM 14.14 57.452 0.226 7.7 7.28 9.7
5/24/2022 10:45:00 PM 14.12 57.416 0.226 7.69 33.77 9.68
5/24/2022 11:00:00 PM 14.11 57.398 0.227 7.69 10.6 9.69
5/24/2022 11:15:00 PM 14.09 57.362 0.229 7.7 8.11 9.69
5/24/2022 11:30:00 PM 14.08 57.344 0.23 7.67 6.31 9.69
5/24/2022 11:45:00 PM 14.06 57.308 0.231 7.68 43.01 9.69
5/25/2022 12:00:00 AM 14.04 57.272 0.231 7.68 15.27 9.69
5/25/2022 12:15:00 AM 14.02 57.236 0.23 7.68 8.36 9.7
5/25/2022 12:30:00 AM 14.01 57.218 0.228 7.68 5.37 9.71
5/25/2022 12:45:00 AM 13.99 57.182 0.227 7.67 6.89 9.71
5/25/2022 1:00:00 AM 13.97 57.146 0.227 7.69 8.06 9.71
5/25/2022 1:15:00 AM 13.95 57.11 0.227 7.68 11.6 9.71
5/25/2022 1:30:00 AM 13.91 57.038 0.227 7.65 4.99 9.71
5/25/2022 1:45:00 AM 13.88 56.984 0.228 7.67 5.68 9.73
5/25/2022 2:00:00 AM 13.85 56.93 0.23 7.66 5.75 9.72
5/25/2022 2:15:00 AM 13.83 56.894 0.231 7.66 5.22 9.73
5/25/2022 2:30:00 AM 13.8 56.84 0.232 7.68 5.19 9.73
5/25/2022 2:45:00 AM 13.77 56.786 0.231 7.68 5.66 9.73
5/25/2022 3:00:00 AM 13.74 56.732 0.23 7.66 4.99 9.75
5/25/2022 3:15:00 AM 13.72 56.696 0.229 7.66 5.01 9.75
5/25/2022 3:30:00 AM 13.68 56.624 0.228 7.66 5.28 9.76
5/25/2022 3:45:00 AM 13.65 56.57 0.228 7.66 5.1 9.76
5/25/2022 4:00:00 AM 13.61 56.498 0.227 7.66 5.3 9.76
5/25/2022 4:15:00 AM 13.58 56.444 0.228 7.64 5.25 9.77
5/25/2022 4:30:00 AM 13.54 56.372 0.229 7.67 5.19 9.78
5/25/2022 4:45:00 AM 13.5 56.3 0.231 7.66 5.33 9.79
5/25/2022 5:00:00 AM 13.46 56.228 0.233 7.67 5.17 9.79
5/25/2022 5:15:00 AM 13.43 56.174 0.233 7.64 5.17 9.8
5/25/2022 5:30:00 AM 13.39 56.102 0.232 7.67 5.1 9.81
5/25/2022 5:45:00 AM 13.35 56.03 0.23 7.65 5.25 9.82
5/25/2022 6:00:00 AM 13.31 55.958 0.229 7.65 5.01 9.84
5/25/2022 6:15:00 AM 13.27 55.886 0.228 7.65 5.01 9.86
5/25/2022 6:30:00 AM 13.24 55.832 0.228 7.68 4.82 9.9
5/25/2022 6:45:00 AM 13.22 55.796 0.228 7.66 5.37 9.95
5/25/2022 7:00:00 AM 13.21 55.778 0.228 7.7 4.9 10
5/25/2022 7:15:00 AM 13.21 55.778 0.229 7.7 5.2 10.03
5/25/2022 7:30:00 AM 13.2 55.76 0.231 7.71 4.94 10.06
5/25/2022 7:45:00 AM 13.2 55.76 0.232 7.7 4.66 10.09
5/25/2022 8:00:00 AM 13.22 55.796 0.231 7.72 4.75 10.15
5/25/2022 8:15:00 AM 13.25 55.85 0.23 7.74 4.55 10.19
5/25/2022 8:30:00 AM 13.27 55.886 0.229 7.72 4.63 10.25
5/25/2022 8:45:00 AM 13.28 55.904 0.228 7.75 4.49 10.3
5/25/2022 9:00:00 AM 13.36 56.048 0.226 7.78 4.39 10.38
5/25/2022 9:15:00 AM 13.43 56.174 0.226 7.79 4.35 10.44
5/25/2022 9:30:00 AM 13.46 56.228 0.225 7.82 4.27 10.5
5/25/2022 9:45:00 AM 13.51 56.318 0.226 7.84 4.33 10.55
5/25/2022 10:00:00 AM 13.53 56.354 0.227 7.84 4.32 10.57
5/25/2022 10:15:00 AM 13.54 56.372 0.229 7.87 4.34 10.57
5/25/2022 10:30:00 AM 13.55 56.39 0.229 7.88 4.4 10.6
5/25/2022 10:45:00 AM 13.59 56.462 0.229 7.9 4.3 10.62
5/25/2022 11:00:00 AM 13.67 56.606 0.228 7.92 4.26 10.69
5/25/2022 11:15:00 AM 13.76 56.768 0.226 7.94 4.25 10.75
5/25/2022 11:30:00 AM 13.87 56.966 0.225 7.94 4.1 10.8
5/25/2022 11:45:00 AM 13.96 57.128 0.224 7.99 4.13 10.81
5/25/2022 12:00:00 PM 14.04 57.272 0.224 8.01 4.28 10.82
5/25/2022 12:15:00 PM 14.12 57.416 0.224 8.03 4.24 10.86
5/25/2022 12:30:00 PM 14.2 57.56 0.224 8.05 4.16 10.86
5/25/2022 12:45:00 PM 14.28 57.704 0.225 8.06 4.14 10.88
5/25/2022 1:00:00 PM 14.44 57.992 0.226 8.09 4.51 10.92
5/25/2022 1:15:00 PM 14.54 58.172 0.226 8.09 4.33 10.92
5/25/2022 1:30:00 PM 14.63 58.334 0.225 8.11 4.2 10.93
5/25/2022 1:45:00 PM 14.75 58.55 0.224 8.14 4.38 10.92
5/25/2022 2:00:00 PM 14.84 58.712 0.223 8.15 4.23 10.92
5/25/2022 2:15:00 PM 14.9 58.82 0.222 8.18 4.24 10.9
5/25/2022 2:30:00 PM 14.97 58.946 0.222 8.17 4.24 10.89
5/25/2022 2:45:00 PM 15.1 59.18 0.222 8.18 4.32 10.87
5/25/2022 3:00:00 PM 15.21 59.378 0.222 8.21 4.47 10.87
5/25/2022 3:15:00 PM 15.29 59.522 0.223 8.19 4.38 10.84
5/25/2022 3:30:00 PM 15.36 59.648 0.224 8.22 4.41 10.8
5/25/2022 3:45:00 PM 15.45 59.81 0.225 8.2 4.74 10.74
5/25/2022 4:00:00 PM 15.58 60.044 0.225 8.2 4.2 10.7
5/25/2022 4:15:00 PM 15.63 60.134 0.224 8.2 4.34 10.67
5/25/2022 4:30:00 PM 15.66 60.188 0.223 8.19 4.26 10.61
5/25/2022 4:45:00 PM 15.72 60.296 0.223 8.2 4.22 10.6
5/25/2022 5:00:00 PM 15.74 60.332 0.222 8.21 4.44 10.56
5/25/2022 5:15:00 PM 15.73 60.314 0.222 8.17 4.41 10.5
5/25/2022 5:30:00 PM 15.72 60.296 0.222 8.15 4.33 10.43
5/25/2022 5:45:00 PM 15.71 60.278 0.223 8.13 4.35 10.35
5/25/2022 6:00:00 PM 15.69 60.242 0.224 8.13 4.41 10.29
5/25/2022 6:15:00 PM 15.66 60.188 0.226 8.1 4.51 10.24
5/25/2022 6:30:00 PM 15.63 60.134 0.227 8.08 4.57 10.17
5/25/2022 6:45:00 PM 15.61 60.098 0.226 8.02 4.25 10.1
5/25/2022 7:00:00 PM 15.58 60.044 0.226 8.01 4.39 10.01
5/25/2022 7:15:00 PM 15.57 60.026 0.225 7.99 4.51 9.95
5/25/2022 7:30:00 PM 15.56 60.008 0.224 7.95 4.31 9.89
5/25/2022 7:45:00 PM 15.55 59.99 0.224 7.92 4.61 9.84
5/25/2022 8:00:00 PM 15.53 59.954 0.224 7.92 4.55 9.77
5/25/2022 8:15:00 PM 15.5 59.9 0.224 7.89 4.65 9.73
5/25/2022 8:30:00 PM 15.47 59.846 0.225 7.87 4.72 9.66
5/25/2022 8:45:00 PM 15.43 59.774 0.227 7.81 5.58 9.61
5/25/2022 9:00:00 PM 15.4 59.72 0.229 7.83 4.88 9.57
5/25/2022 9:15:00 PM 15.37 59.666 0.23 7.81 4.93 9.55
5/25/2022 9:30:00 PM 15.34 59.612 0.23 7.8 5.15 9.51
5/25/2022 9:45:00 PM 15.32 59.576 0.23 7.77 5.5 9.49
5/25/2022 10:00:00 PM 15.29 59.522 0.229 7.75 5.36 9.48
5/25/2022 10:15:00 PM 15.26 59.468 0.228 7.76 5.29 9.46
5/25/2022 10:30:00 PM 15.23 59.414 0.228 7.74 5.19 9.45
5/25/2022 10:45:00 PM 15.19 59.342 0.228 7.72 5.18 9.44
5/25/2022 11:00:00 PM 15.16 59.288 0.228 7.72 5.06 9.44
5/25/2022 11:15:00 PM 15.12 59.216 0.229 7.73 5.14 9.43
5/25/2022 11:30:00 PM 15.08 59.144 0.23 7.72 5.12 9.44
5/25/2022 11:45:00 PM 15.04 59.072 0.232 7.71 5.17 9.44
5/26/2022 12:00:00 AM 15 59 0.232 7.71 5.18 9.43
5/26/2022 12:15:00 AM 14.96 58.928 0.232 7.71 5.29 9.44
5/26/2022 12:30:00 AM 14.92 58.856 0.231 7.72 5.42 9.45
5/26/2022 12:45:00 AM 14.88 58.784 0.23 7.7 5.48 9.44
5/26/2022 1:00:00 AM 14.85 58.73 0.229 7.68 5.42 9.44
5/26/2022 1:15:00 AM 14.81 58.658 0.228 7.7 5.27 9.46
5/26/2022 1:30:00 AM 14.77 58.586 0.227 7.7 5.12 9.47
5/26/2022 1:45:00 AM 14.74 58.532 0.227 7.67 5.4 9.47
5/26/2022 2:00:00 AM 14.71 58.478 0.228 7.7 5.2 9.48
5/26/2022 2:15:00 AM 14.67 58.406 0.229 7.67 5.34 9.48
5/26/2022 2:30:00 AM 14.64 58.352 0.231 7.69 5.3 9.49
5/26/2022 2:45:00 AM 14.6 58.28 0.231 7.68 5.14 9.49
5/26/2022 3:00:00 AM 14.57 58.226 0.23 7.69 5.68 9.5
5/26/2022 3:15:00 AM 14.54 58.172 0.229 7.67 5.27 9.51
5/26/2022 3:30:00 AM 14.51 58.118 0.228 7.68 5.23 9.51
5/26/2022 3:45:00 AM 14.47 58.046 0.227 7.68 5.46 9.51
5/26/2022 4:00:00 AM 14.44 57.992 0.226 7.66 5.2 9.52
5/26/2022 4:15:00 AM 14.4 57.92 0.226 7.68 5.32 9.54
5/26/2022 4:30:00 AM 14.38 57.884 0.226 7.69 5.12 9.54
5/26/2022 4:45:00 AM 14.35 57.83 0.228 7.69 5.18 9.55
5/26/2022 5:00:00 AM 14.32 57.776 0.229 7.65 5.24 9.55
5/26/2022 5:15:00 AM 14.3 57.74 0.23 7.67 6.79 9.55
5/26/2022 5:30:00 AM 14.27 57.686 0.23 7.69 5.24 9.57
5/26/2022 5:45:00 AM 14.24 57.632 0.229 7.65 5.11 9.57
5/26/2022 6:00:00 AM 14.21 57.578 0.228 7.68 5.23 9.57
5/26/2022 6:15:00 AM 14.18 57.524 0.227 7.69 5.16 9.59
5/26/2022 6:30:00 AM 14.16 57.488 0.226 7.66 4.99 9.61
5/26/2022 6:45:00 AM 14.15 57.47 0.226 7.69 5.05 9.63
5/26/2022 7:00:00 AM 14.13 57.434 0.226 7.68 5.79 9.66
5/26/2022 7:15:00 AM 14.12 57.416 0.227 7.71 4.97 9.69
5/26/2022 7:30:00 AM 14.12 57.416 0.228 7.71 5 9.73
5/26/2022 7:45:00 AM 14.12 57.416 0.23 7.72 4.97 9.77
5/26/2022 8:00:00 AM 14.12 57.416 0.23 7.73 4.93 9.82
5/26/2022 8:15:00 AM 14.13 57.434 0.23 7.74 4.96 9.86
5/26/2022 8:30:00 AM 14.14 57.452 0.229 7.74 4.81 9.91
5/26/2022 8:45:00 AM 14.15 57.47 0.228 7.74 4.85 9.96
5/26/2022 9:00:00 AM 14.17 57.506 0.227 7.78 4.63 10.02
5/26/2022 9:15:00 AM 14.2 57.56 0.226 7.79 4.56 10.07
5/26/2022 9:30:00 AM 14.24 57.632 0.225 7.81 4.55 10.13
5/26/2022 9:45:00 AM 14.29 57.722 0.225 7.79 4.65 10.21
5/26/2022 10:00:00 AM 14.37 57.866 0.226 7.84 4.48 10.27
5/26/2022 10:15:00 AM 14.46 58.028 0.227 7.87 4.38 10.32
5/26/2022 10:30:00 AM 14.7 58.46 0.228 7.89 4.43 10.38
5/26/2022 10:45:00 AM 14.86 58.748 0.228 7.92 4.55 10.43
5/26/2022 11:00:00 AM 14.94 58.892 0.228 7.9 4.55 10.46
5/26/2022 11:15:00 AM 15.03 59.054 0.227 7.94 4.52 10.51
5/26/2022 11:30:00 AM 15.29 59.522 0.226 7.98 4.48 10.54
5/26/2022 11:45:00 AM 15.39 59.702 0.226 7.99 4.53 10.55
5/26/2022 12:00:00 PM 15.51 59.918 0.225 8.03 4.48 10.57
5/26/2022 12:15:00 PM 15.62 60.116 0.224 8.05 4.3 10.58
5/26/2022 12:30:00 PM 15.82 60.476 0.225 8.06 4.48 10.59
5/26/2022 12:45:00 PM 15.95 60.71 0.225 8.09 4.45 10.6
5/26/2022 1:00:00 PM 16.04 60.872 0.226 8.11 4.42 10.58
5/26/2022 1:15:00 PM 16.14 61.052 0.226 8.1 4.52 10.58
5/26/2022 1:30:00 PM 16.22 61.196 0.226 8.13 4.32 10.57
5/26/2022 1:45:00 PM 16.39 61.502 0.225 8.16 4.32 10.57
5/26/2022 2:00:00 PM 16.57 61.826 0.224 8.14 4.48 10.54
5/26/2022 2:15:00 PM 16.65 61.97 0.224 8.18 4.31 10.49
5/26/2022 2:30:00 PM 16.74 62.132 0.223 8.19 4.28 10.46
5/26/2022 2:45:00 PM 16.75 62.15 0.223 8.17 4.57 10.38
5/26/2022 3:00:00 PM 16.8 62.24 0.222 8.19 4.55 10.36
5/26/2022 3:15:00 PM 16.84 62.312 0.223 8.18 4.38 10.3
5/26/2022 3:30:00 PM 16.86 62.348 0.224 8.18 4.48 10.26
5/26/2022 3:45:00 PM 16.86 62.348 0.226 8.14 4.43 10.19
5/26/2022 4:00:00 PM 16.86 62.348 0.226 8.14 4.5 10.16
5/26/2022 4:15:00 PM 16.87 62.366 0.226 8.16 4.62 10.15
5/26/2022 4:30:00 PM 16.84 62.312 0.225 8.12 4.56 10.14
5/26/2022 4:45:00 PM 16.81 62.258 0.225 8.13 4.64 10.11
5/26/2022 5:00:00 PM 16.76 62.168 0.224 8.13 4.66 10.05
5/26/2022 5:15:00 PM 16.73 62.114 0.224 8.11 4.56 10.01
5/26/2022 5:30:00 PM 16.7 62.06 0.225 8.09 4.79 9.94
5/26/2022 5:45:00 PM 16.68 62.024 0.227 8.04 4.67 9.88
5/26/2022 6:00:00 PM 16.66 61.988 0.229 8.04 4.51 9.79
5/26/2022 6:15:00 PM 16.65 61.97 0.233 8.02 4.47 9.74
5/26/2022 6:30:00 PM 16.64 61.952 0.237 8 4.72 9.67
5/26/2022 6:45:00 PM 16.65 61.97 0.239 7.97 4.65 9.61
5/26/2022 7:00:00 PM 16.65 61.97 0.241 7.94 4.72 9.56
5/26/2022 7:15:00 PM 16.67 62.006 0.24 7.94 5.05 9.53
5/26/2022 7:30:00 PM 16.68 62.024 0.239 7.93 4.54 9.49
5/26/2022 7:45:00 PM 16.68 62.024 0.238 7.92 4.56 9.43
5/26/2022 8:00:00 PM 16.68 62.024 0.238 7.86 4.98 9.36
5/26/2022 8:15:00 PM 16.68 62.024 0.237 7.88 4.74 9.32
5/26/2022 8:30:00 PM 16.67 62.006 0.237 7.86 4.61 9.27
5/26/2022 8:45:00 PM 16.66 61.988 0.238 7.81 4.55 9.23
5/26/2022 9:00:00 PM 16.65 61.97 0.24 7.83 4.82 9.18
5/26/2022 9:15:00 PM 16.63 61.934 0.242 7.82 5.47 9.14
5/26/2022 9:30:00 PM 16.61 61.898 0.244 7.8 5.46 9.1
5/26/2022 9:45:00 PM 16.58 61.844 0.245 7.77 5.3 9.09
5/26/2022 10:00:00 PM 16.55 61.79 0.244 7.75 5.4 9.07
5/26/2022 10:15:00 PM 16.52 61.736 0.243 7.74 5.64 9.03
5/26/2022 10:30:00 PM 16.49 61.682 0.242 7.75 5.41 9.03
5/26/2022 10:45:00 PM 16.46 61.628 0.241 7.74 5.19 9.03
5/26/2022 11:00:00 PM 16.42 61.556 0.24 7.7 5.28 9.01
5/26/2022 11:15:00 PM 16.38 61.484 0.24 7.73 5.01 9
5/26/2022 11:30:00 PM 16.34 61.412 0.241 7.73 5.32 9.03
5/26/2022 11:45:00 PM 16.31 61.358 0.243 7.72 5.2 9.03
5/27/2022 12:00:00 AM 16.27 61.286 0.245 7.69 5.25 9.02
5/27/2022 12:15:00 AM 16.23 61.214 0.248 7.7 5.17 9.02
5/27/2022 12:30:00 AM 16.18 61.124 0.249 7.71 5.15 9.04
5/27/2022 12:45:00 AM 16.14 61.052 0.249 7.71 5.54 9.02
5/27/2022 1:00:00 AM 16.1 60.98 0.249 7.7 5.38 9.01
5/27/2022 1:15:00 AM 16.07 60.926 0.248 7.69 5.15 9.03
5/27/2022 1:30:00 AM 16.03 60.854 0.246 7.69 5.64 9.04
5/27/2022 1:45:00 AM 15.99 60.782 0.245 7.69 5.34 9.03
5/27/2022 2:00:00 AM 15.96 60.728 0.244 7.66 5.5 9.04
5/27/2022 2:15:00 AM 15.93 60.674 0.244 7.68 5.3 9.06
5/27/2022 2:30:00 AM 15.9 60.62 0.245 7.68 5.43 9.08
5/27/2022 2:45:00 AM 15.87 60.566 0.246 7.68 5.42 9.08
5/27/2022 3:00:00 AM 15.84 60.512 0.246 7.68 5.52 9.08
5/27/2022 3:15:00 AM 15.8 60.44 0.245 7.65 5.51 9.08
5/27/2022 3:30:00 AM 15.76 60.368 0.245 7.68 5.27 9.1
5/27/2022 3:45:00 AM 15.73 60.314 0.244 7.65 5.3 9.11
5/27/2022 4:00:00 AM 15.69 60.242 0.243 7.68 5.44 9.11
5/27/2022 4:15:00 AM 15.66 60.188 0.243 7.67 5.33 9.11
5/27/2022 4:30:00 AM 15.62 60.116 0.242 7.64 5.13 9.12
5/27/2022 4:45:00 AM 15.59 60.062 0.242 7.67 5.45 9.13
5/27/2022 5:00:00 AM 15.56 60.008 0.243 7.67 5.27 9.14
5/27/2022 5:15:00 AM 15.52 59.936 0.245 7.64 5.44 9.16
5/27/2022 5:30:00 AM 15.49 59.882 0.246 7.66 5.53 9.13
5/27/2022 5:45:00 AM 15.47 59.846 0.246 7.64 5.32 9.14
5/27/2022 6:00:00 AM 15.44 59.792 0.246 7.63 5.14 9.15
5/27/2022 6:15:00 AM 15.41 59.738 0.245 7.66 5.2 9.15
5/27/2022 6:30:00 AM 15.38 59.684 0.245 7.65 5.41 9.17
5/27/2022 6:45:00 AM 15.36 59.648 0.244 7.64 5.46 9.19
5/27/2022 7:00:00 AM 15.34 59.612 0.243 7.66 5.08 9.21
5/27/2022 7:15:00 AM 15.32 59.576 0.242 7.66 5.01 9.23
5/27/2022 7:30:00 AM 15.3 59.54 0.243 7.67 5.07 9.25
5/27/2022 7:45:00 AM 15.29 59.522 0.244 7.63 5.66 9.25
5/27/2022 8:00:00 AM 15.28 59.504 0.245 7.67 5.68 9.29
5/27/2022 8:15:00 AM 15.28 59.504 0.245 7.66 5.39 9.34
5/27/2022 8:30:00 AM 15.27 59.486 0.245 7.7 5.02 9.34
5/27/2022 8:45:00 AM 15.29 59.522 0.244 7.71 5.01 9.43
5/27/2022 9:00:00 AM 15.3 59.54 0.243 7.72 5.12 9.46
5/27/2022 9:15:00 AM 15.3 59.54 0.243 7.72 4.83 9.47
5/27/2022 9:30:00 AM 15.3 59.54 0.242 7.69 4.76 9.47
5/27/2022 9:45:00 AM 15.29 59.522 0.241 7.71 4.62 9.48
5/27/2022 10:00:00 AM 15.3 59.54 0.241 7.74 4.59 9.51
5/27/2022 10:15:00 AM 15.29 59.522 0.241 7.71 4.6 9.5
5/27/2022 10:30:00 AM 15.33 59.594 0.239 7.74 5.2 9.5
5/27/2022 10:45:00 AM 15.37 59.666 0.24 7.76 5.59 9.57
5/27/2022 11:00:00 AM 15.41 59.738 0.24 7.75 5.57 9.63
5/27/2022 11:15:00 AM 15.45 59.81 0.24 7.79 5.62 9.68
5/27/2022 11:30:00 AM 15.5 59.9 0.239 7.81 5.91 9.73
5/27/2022 11:45:00 AM 15.56 60.008 0.238 7.83 6.42 9.78
5/27/2022 12:00:00 PM 15.75 60.35 0.235 7.81 15.77 9.67
5/27/2022 12:15:00 PM 15.78 60.404 0.233 7.8 14.91 9.72
5/27/2022 12:30:00 PM 15.85 60.53 0.231 7.85 15.16 9.78
5/27/2022 12:45:00 PM 15.88 60.584 0.231 7.84 17.29 9.79
5/27/2022 1:00:00 PM 15.92 60.656 0.233 7.87 18.83 9.83
5/27/2022 1:15:00 PM 16.01 60.818 0.235 7.89 20.78 9.86
5/27/2022 1:30:00 PM 16.05 60.89 0.237 7.86 21.1 9.87
5/27/2022 1:45:00 PM 16.07 60.926 0.237 7.89 18.51 9.88
5/27/2022 2:00:00 PM 16.1 60.98 0.234 7.9 16.77 9.88
5/27/2022 2:15:00 PM 16.16 61.088 0.231 7.92 15.43 9.89
5/27/2022 2:30:00 PM 16.21 61.178 0.23 7.94 16.22 9.92
5/27/2022 2:45:00 PM 16.22 61.196 0.23 7.91 16.75 9.95
5/27/2022 3:00:00 PM 16.25 61.25 0.228 7.95 15.83 9.96
5/27/2022 3:15:00 PM 16.28 61.304 0.231 7.95 15.69 9.93
5/27/2022 3:30:00 PM 16.34 61.412 0.234 7.93 15.11 9.92
5/27/2022 3:45:00 PM 16.38 61.484 0.239 7.93 14.64 9.88
5/27/2022 4:00:00 PM 16.45 61.61 0.249 7.94 14.72 9.85
5/27/2022 4:15:00 PM 16.52 61.736 0.262 7.96 13.92 9.81
5/27/2022 4:30:00 PM 16.55 61.79 0.272 7.92 13.45 9.77
5/27/2022 4:45:00 PM 16.64 61.952 0.278 7.96 13.23 9.72
5/27/2022 5:00:00 PM 16.65 61.97 0.281 7.95 13.41 9.64
5/27/2022 5:15:00 PM 16.7 62.06 0.283 7.95 12.69 9.66
5/27/2022 5:30:00 PM 16.8 62.24 0.286 7.94 12.29 9.65
5/27/2022 5:45:00 PM 16.78 62.204 0.29 7.92 11.94 9.53
5/27/2022 6:00:00 PM 16.8 62.24 0.295 7.91 11.39 9.48
5/27/2022 6:15:00 PM 16.83 62.294 0.299 7.87 11.15 9.42
5/27/2022 6:30:00 PM 16.84 62.312 0.301 7.86 10.79 9.33
5/27/2022 6:45:00 PM 16.85 62.33 0.301 7.87 11.08 9.28
5/27/2022 7:00:00 PM 16.86 62.348 0.299 7.85 11.62 9.21
5/27/2022 7:15:00 PM 16.87 62.366 0.294 7.82 11.43 9.16
5/27/2022 7:30:00 PM 16.87 62.366 0.289 7.8 11.37 9.14
5/27/2022 7:45:00 PM 16.84 62.312 0.283 7.81 11.74 9.09
5/27/2022 8:00:00 PM 16.82 62.276 0.278 7.79 11.52 9
5/27/2022 8:15:00 PM 16.79 62.222 0.272 7.77 12.27 8.98
5/27/2022 8:30:00 PM 16.75 62.15 0.268 7.75 12.27 8.93
5/27/2022 8:45:00 PM 16.73 62.114 0.265 7.74 12.47 8.86
5/27/2022 9:00:00 PM 16.69 62.042 0.262 7.72 13.54 8.85
5/27/2022 9:15:00 PM 16.66 61.988 0.259 7.68 13.8 8.83
5/27/2022 9:30:00 PM 16.64 61.952 0.255 7.7 14.04 8.81
5/27/2022 9:45:00 PM 16.62 61.916 0.252 7.69 13.91 8.76
5/27/2022 10:00:00 PM 16.6 61.88 0.25 7.68 13.93 8.74
5/27/2022 10:15:00 PM 16.57 61.826 0.249 7.64 13.82 8.73
5/27/2022 10:30:00 PM 16.55 61.79 0.25 7.67 13.72 8.72
5/27/2022 10:45:00 PM 16.51 61.718 0.251 7.66 13.65 8.72
5/27/2022 11:00:00 PM 16.49 61.682 0.252 7.66 13.87 8.7
5/27/2022 11:15:00 PM 16.46 61.628 0.252 7.66 13.29 8.71
5/27/2022 11:30:00 PM 16.43 61.574 0.253 7.65 13.84 8.7
5/27/2022 11:45:00 PM 16.4 61.52 0.254 7.62 13.74 8.72
5/28/2022 12:00:00 AM 16.37 61.466 0.255 7.65 13.71 8.73
5/28/2022 12:15:00 AM 16.34 61.412 0.256 7.65 14.29 8.73
5/28/2022 12:30:00 AM 16.3 61.34 0.258 7.65 15.27 8.74
5/28/2022 12:45:00 AM 16.25 61.25 0.26 7.65 15.87 8.76
5/28/2022 1:00:00 AM 16.2 61.16 0.263 7.61 16.77 8.78
5/28/2022 1:15:00 AM 16.14 61.052 0.266 7.66 17.24 8.79
5/28/2022 1:30:00 AM 16.09 60.962 0.269 7.66 17.6 8.8
5/28/2022 1:45:00 AM 16.04 60.872 0.272 7.66 17.5 8.81
5/28/2022 2:00:00 AM 15.98 60.764 0.276 7.63 17.67 8.83
5/28/2022 2:15:00 AM 15.92 60.656 0.279 7.67 17.21 8.83
5/28/2022 2:30:00 AM 15.87 60.566 0.28 7.63 17.13 8.86
5/28/2022 2:45:00 AM 15.82 60.476 0.281 7.66 16.36 8.88
5/28/2022 3:00:00 AM 15.76 60.368 0.28 7.67 15.05 8.9
5/28/2022 3:15:00 AM 15.72 60.296 0.28 7.64 14.13 8.9
5/28/2022 3:30:00 AM 15.67 60.206 0.28 7.66 13.29 8.91
5/28/2022 3:45:00 AM 15.63 60.134 0.281 7.67 12.75 8.94
5/28/2022 4:00:00 AM 15.59 60.062 0.282 7.67 12.11 8.94
5/28/2022 4:15:00 AM 15.54 59.972 0.284 7.67 11.16 8.96
5/28/2022 4:30:00 AM 15.49 59.882 0.286 7.68 12.1 8.96
5/28/2022 4:45:00 AM 15.44 59.792 0.288 7.68 10.5 8.99
5/28/2022 5:00:00 AM 15.4 59.72 0.289 7.69 10.21 9
5/28/2022 5:15:00 AM 15.36 59.648 0.289 7.69 9.73 9
5/28/2022 5:30:00 AM 15.32 59.576 0.288 7.66 9.98 9.03
5/28/2022 5:45:00 AM 15.28 59.504 0.286 7.69 9.24 9.05
5/28/2022 6:00:00 AM 15.24 59.432 0.285 7.69 9.02 9.07
5/28/2022 6:15:00 AM 15.21 59.378 0.286 7.67 8.57 9.09
5/28/2022 6:30:00 AM 15.19 59.342 0.287 7.7 9.88 9.13
5/28/2022 6:45:00 AM 15.17 59.306 0.288 7.71 8.43 9.18
5/28/2022 7:00:00 AM 15.15 59.27 0.291 7.71 8.08 9.19
5/28/2022 7:15:00 AM 15.13 59.234 0.293 7.73 7.76 9.17
5/28/2022 7:30:00 AM 15.12 59.216 0.295 7.73 8.32 9.23
5/28/2022 7:45:00 AM 15.1 59.18 0.297 7.74 7.68 9.27
5/28/2022 8:00:00 AM 15.09 59.162 0.296 7.75 7.54 9.32
5/28/2022 8:15:00 AM 15.1 59.18 0.295 7.74 7.79 9.4
5/28/2022 8:30:00 AM 15.11 59.198 0.293 7.77 7.29 9.45
5/28/2022 8:45:00 AM 15.13 59.234 0.292 7.76 7.1 9.5
5/28/2022 9:00:00 AM 15.17 59.306 0.29 7.79 6.81 9.56
5/28/2022 9:15:00 AM 15.2 59.36 0.289 7.77 6.88 9.61
5/28/2022 9:30:00 AM 15.25 59.45 0.287 7.82 6.95 9.71
5/28/2022 9:45:00 AM 15.25 59.45 0.287 7.84 6.91 9.72
5/28/2022 10:00:00 AM 15.25 59.45 0.286 7.84 6.53 9.74
5/28/2022 10:15:00 AM 15.28 59.504 0.286 7.85 6.37 9.79
5/28/2022 10:30:00 AM 15.26 59.468 0.285 7.86 6.4 9.75
5/28/2022 10:45:00 AM 15.25 59.45 0.284 7.86 6.28 9.75
5/28/2022 11:00:00 AM 15.3 59.54 0.282 7.87 6.22 9.81
5/28/2022 11:15:00 AM 15.34 59.612 0.279 7.88 5.99 9.81
5/28/2022 11:30:00 AM 15.39 59.702 0.277 7.89 5.83 9.88
5/28/2022 11:45:00 AM 15.4 59.72 0.276 7.91 6.09 9.92
5/28/2022 12:00:00 PM 15.4 59.72 0.275 7.88 5.94 9.93
5/28/2022 12:15:00 PM 15.43 59.774 0.274 7.93 6.17 9.94
5/28/2022 12:30:00 PM 15.6 60.08 0.274 7.94 6 9.98
5/28/2022 12:45:00 PM 15.76 60.368 0.274 7.95 6.02 10.03
5/28/2022 1:00:00 PM 15.87 60.566 0.275 7.97 5.99 10.06
5/28/2022 1:15:00 PM 15.97 60.746 0.276 7.96 5.7 10.09
5/28/2022 1:30:00 PM 16.05 60.89 0.275 8 5.94 10.09
5/28/2022 1:45:00 PM 16.26 61.268 0.274 8.01 5.82 10.13
5/28/2022 2:00:00 PM 16.41 61.538 0.272 8 5.77 10.12
5/28/2022 2:15:00 PM 16.56 61.808 0.27 8.05 5.8 10.15
5/28/2022 2:30:00 PM 16.74 62.132 0.268 8.06 5.57 10.15
5/28/2022 2:45:00 PM 16.89 62.402 0.267 8.07 5.59 10.14
5/28/2022 3:00:00 PM 16.88 62.384 0.265 8.07 5.41 10.04
5/28/2022 3:15:00 PM 16.87 62.366 0.265 8.04 5.65 10.02
5/28/2022 3:30:00 PM 16.93 62.474 0.265 8.08 5.64 10.04
5/28/2022 3:45:00 PM 16.97 62.546 0.266 8.08 6.02 10.01
5/28/2022 4:00:00 PM 17 62.6 0.266 8.06 5.81 10.01
5/28/2022 4:15:00 PM 17.06 62.708 0.267 8.08 5.87 9.97
5/28/2022 4:30:00 PM 17.09 62.762 0.266 8.09 5.68 9.94
5/28/2022 4:45:00 PM 17.09 62.762 0.265 8.08 5.86 9.9
5/28/2022 5:00:00 PM 17.1 62.78 0.263 8.06 5.69 9.92
5/28/2022 5:15:00 PM 17.1 62.78 0.262 8.08 5.45 9.89
5/28/2022 5:30:00 PM 17.02 62.636 0.262 8.07 5.48 9.84
5/28/2022 5:45:00 PM 16.97 62.546 0.261 8.03 5.43 9.82
5/28/2022 6:00:00 PM 16.95 62.51 0.261 8.06 5.45 9.77
5/28/2022 6:15:00 PM 16.93 62.474 0.262 8.05 5.39 9.74
5/28/2022 6:30:00 PM 16.89 62.402 0.264 8.03 5.63 9.67
5/28/2022 6:45:00 PM 16.86 62.348 0.265 8.01 5.65 9.61
5/28/2022 7:00:00 PM 16.83 62.294 0.266 8 5.73 9.56
5/28/2022 7:15:00 PM 16.79 62.222 0.265 7.97 5.67 9.49
5/28/2022 7:30:00 PM 16.78 62.204 0.263 7.95 5.66 9.45
5/28/2022 7:45:00 PM 16.76 62.168 0.262 7.91 6.05 9.41
5/28/2022 8:00:00 PM 16.74 62.132 0.261 7.92 5.68 9.34
5/28/2022 8:15:00 PM 16.71 62.078 0.261 7.89 8.88 9.27
5/28/2022 8:30:00 PM 16.68 62.024 0.261 7.87 5.64 9.22
5/28/2022 8:45:00 PM 16.66 61.988 0.263 7.86 5.75 9.16
5/28/2022 9:00:00 PM 16.63 61.934 0.267 7.83 5.9 9.13
5/28/2022 9:15:00 PM 16.61 61.898 0.27 7.83 5.99 9.1
5/28/2022 9:30:00 PM 16.57 61.826 0.273 7.82 6.13 9.06
5/28/2022 9:45:00 PM 16.53 61.754 0.275 7.78 6.3 9.03
5/28/2022 10:00:00 PM 16.48 61.664 0.275 7.8 6.51 9.02
5/28/2022 10:15:00 PM 16.44 61.592 0.273 7.79 6.2 9.02
5/28/2022 10:30:00 PM 16.4 61.52 0.271 7.78 6.11 8.99
5/28/2022 10:45:00 PM 16.36 61.448 0.27 7.77 5.99 8.98
5/28/2022 11:00:00 PM 16.31 61.358 0.269 7.77 5.91 8.99
5/28/2022 11:15:00 PM 16.27 61.286 0.268 7.76 5.77 8.97
5/28/2022 11:30:00 PM 16.22 61.196 0.269 7.75 5.82 8.98
5/28/2022 11:45:00 PM 16.18 61.124 0.27 7.73 5.81 8.97
5/29/2022 12:00:00 AM 16.12 61.016 0.273 7.75 5.92 8.98
5/29/2022 12:15:00 AM 16.07 60.926 0.275 7.75 5.92 8.98
5/29/2022 12:30:00 AM 16.02 60.836 0.276 7.73 5.72 9
5/29/2022 12:45:00 AM 15.97 60.746 0.275 7.75 5.84 9
5/29/2022 1:00:00 AM 15.91 60.638 0.274 7.74 6.04 9.02
5/29/2022 1:15:00 AM 15.85 60.53 0.273 7.74 5.97 9.02
5/29/2022 1:30:00 AM 15.79 60.422 0.272 7.74 6.15 9.05
5/29/2022 1:45:00 AM 15.72 60.296 0.271 7.74 6.31 9.05
5/29/2022 2:00:00 AM 15.66 60.188 0.271 7.7 6.62 9.07
5/29/2022 2:15:00 AM 15.59 60.062 0.272 7.74 6.34 9.09
5/29/2022 2:30:00 AM 15.52 59.936 0.274 7.73 6.11 9.09
5/29/2022 2:45:00 AM 15.44 59.792 0.277 7.73 6.2 9.11
5/29/2022 3:00:00 AM 15.37 59.666 0.279 7.71 5.83 9.13
5/29/2022 3:15:00 AM 15.3 59.54 0.28 7.73 5.81 9.15
5/29/2022 3:30:00 AM 15.22 59.396 0.281 7.73 5.81 9.15
5/29/2022 3:45:00 AM 15.14 59.252 0.28 7.73 6.1 9.18
5/29/2022 4:00:00 AM 15.07 59.126 0.279 7.72 6.38 9.21
5/29/2022 4:15:00 AM 14.99 58.982 0.278 7.72 5.98 9.22
5/29/2022 4:30:00 AM 14.91 58.838 0.277 7.7 5.88 9.24
5/29/2022 4:45:00 AM 14.84 58.712 0.276 7.73 5.91 9.26
5/29/2022 5:00:00 AM 14.77 58.586 0.276 7.72 5.79 9.27
5/29/2022 5:15:00 AM 14.71 58.478 0.276 7.72 5.76 9.29
5/29/2022 5:30:00 AM 14.65 58.37 0.277 7.69 5.66 9.32
5/29/2022 5:45:00 AM 14.57 58.226 0.277 7.72 5.68 9.34
5/29/2022 6:00:00 AM 14.5 58.1 0.277 7.72 5.68 9.36
5/29/2022 6:15:00 AM 14.43 57.974 0.276 7.72 5.63 9.39
5/29/2022 6:30:00 AM 14.37 57.866 0.275 7.73 5.45 9.43
5/29/2022 6:45:00 AM 14.31 57.758 0.273 7.73 5.62 9.49
5/29/2022 7:00:00 AM 14.26 57.668 0.272 7.71 5.38 9.53
5/29/2022 7:15:00 AM 14.22 57.596 0.271 7.75 5.32 9.57
5/29/2022 7:30:00 AM 14.18 57.524 0.27 7.75 5.12 9.61
5/29/2022 7:45:00 AM 14.15 57.47 0.271 7.76 5.13 9.66
5/29/2022 8:00:00 AM 14.15 57.47 0.271 7.77 5.13 9.72
5/29/2022 8:15:00 AM 14.16 57.488 0.272 7.78 5.21 9.73
5/29/2022 8:30:00 AM 14.2 57.56 0.273 7.8 5.16 9.84
5/29/2022 8:45:00 AM 14.24 57.632 0.273 7.81 5.05 9.88
5/29/2022 9:00:00 AM 14.31 57.758 0.272 7.79 5.66 9.93
5/29/2022 9:15:00 AM 14.36 57.848 0.271 7.83 4.97 10.01
5/29/2022 9:30:00 AM 14.38 57.884 0.27 7.86 4.9 10.07
5/29/2022 9:45:00 AM 14.47 58.046 0.269 7.84 4.95 10.13
5/29/2022 10:00:00 AM 14.64 58.352 0.268 7.89 4.86 10.18
5/29/2022 10:15:00 AM 14.79 58.622 0.268 7.87 4.79 10.19
5/29/2022 10:30:00 AM 14.92 58.856 0.268 7.91 4.82 10.24
5/29/2022 10:45:00 AM 15.07 59.126 0.268 7.92 4.77 10.26
5/29/2022 11:00:00 AM 15.24 59.432 0.269 7.95 4.62 10.3
5/29/2022 11:15:00 AM 15.43 59.774 0.27 7.94 4.88 10.31
5/29/2022 11:30:00 AM 15.61 60.098 0.27 7.99 4.76 10.34
5/29/2022 11:45:00 AM 15.79 60.422 0.269 7.97 4.73 10.35
5/29/2022 12:00:00 PM 15.96 60.728 0.268 8.02 4.68 10.36
5/29/2022 12:15:00 PM 16.15 61.07 0.268 8.03 4.72 10.37
5/29/2022 12:30:00 PM 16.34 61.412 0.267 8.05 4.63 10.37
5/29/2022 12:45:00 PM 16.47 61.646 0.266 8.07 4.72 10.34
5/29/2022 1:00:00 PM 16.62 61.916 0.265 8.08 4.71 10.34
5/29/2022 1:15:00 PM 16.78 62.204 0.265 8.09 4.8 10.32
5/29/2022 1:30:00 PM 16.91 62.438 0.266 8.1 4.7 10.29
5/29/2022 1:45:00 PM 17 62.6 0.266 8.11 6.2 10.25
5/29/2022 2:00:00 PM 17.11 62.798 0.266 8.12 4.72 10.22
5/29/2022 2:15:00 PM 17.35 63.23 0.265 8.12 4.71 10.2
5/29/2022 2:30:00 PM 17.56 63.608 0.264 8.14 4.63 10.18
5/29/2022 2:45:00 PM 17.78 64.004 0.263 8.15 4.52 10.14
5/29/2022 3:00:00 PM 17.96 64.328 0.262 8.16 4.6 10.1
5/29/2022 3:15:00 PM 18.04 64.472 0.262 8.16 4.75 10.02
5/29/2022 3:30:00 PM 18.05 64.49 0.261 8.15 4.6 9.96
5/29/2022 3:45:00 PM 18.11 64.598 0.261 8.15 4.77 9.9
5/29/2022 4:00:00 PM 18.2 64.76 0.261 8.13 4.7 9.89
5/29/2022 4:15:00 PM 18.18 64.724 0.262 8.15 4.69 9.84
5/29/2022 4:30:00 PM 18.09 64.562 0.262 8.14 4.91 9.8
5/29/2022 4:45:00 PM 17.96 64.328 0.263 8.13 5 9.76
5/29/2022 5:00:00 PM 17.91 64.238 0.263 8.09 4.76 9.75
5/29/2022 5:15:00 PM 17.89 64.202 0.262 8.09 4.65 9.72
5/29/2022 5:30:00 PM 17.88 64.184 0.262 8.1 4.81 9.67
5/29/2022 5:45:00 PM 17.89 64.202 0.262 8.08 4.65 9.63
5/29/2022 6:00:00 PM 17.96 64.328 0.261 8.07 4.83 9.6
5/29/2022 6:15:00 PM 18.01 64.418 0.26 8.06 4.77 9.52
5/29/2022 6:30:00 PM 18.03 64.454 0.26 8.05 4.78 9.47
5/29/2022 6:45:00 PM 18.04 64.472 0.261 8.03 5.28 9.39
5/29/2022 7:00:00 PM 18.04 64.472 0.262 8 4.82 9.32
5/29/2022 7:15:00 PM 18.02 64.436 0.263 7.99 4.76 9.23
5/29/2022 7:30:00 PM 17.99 64.382 0.264 7.93 4.91 9.21
5/29/2022 7:45:00 PM 17.96 64.328 0.264 7.94 5.11 9.15
5/29/2022 8:00:00 PM 17.92 64.256 0.263 7.93 4.91 9.11
5/29/2022 8:15:00 PM 17.87 64.166 0.263 7.89 4.95 9.06
5/29/2022 8:30:00 PM 17.83 64.094 0.262 7.89 4.85 9.02
5/29/2022 8:45:00 PM 17.79 64.022 0.261 7.87 4.99 8.97
5/29/2022 9:00:00 PM 17.75 63.95 0.26 7.85 5.51 8.92
5/29/2022 9:15:00 PM 17.7 63.86 0.26 7.83 5.78 8.9
5/29/2022 9:30:00 PM 17.66 63.788 0.26 7.82 5.82 8.86
5/29/2022 9:45:00 PM 17.62 63.716 0.261 7.81 10.12 8.84
5/29/2022 10:00:00 PM 17.58 63.644 0.262 7.8 5.79 8.83
5/29/2022 10:15:00 PM 17.54 63.572 0.263 7.79 5.65 8.82
5/29/2022 10:30:00 PM 17.49 63.482 0.263 7.78 6.21 8.8
5/29/2022 10:45:00 PM 17.44 63.392 0.263 7.77 5.96 8.8
5/29/2022 11:00:00 PM 17.38 63.284 0.263 7.76 5.84 8.79
5/29/2022 11:15:00 PM 17.33 63.194 0.262 7.76 5.48 8.79
5/29/2022 11:30:00 PM 17.27 63.086 0.262 7.75 5.69 8.79
5/29/2022 11:45:00 PM 17.22 62.996 0.262 7.71 5.68 8.79
5/30/2022 12:00:00 AM 17.16 62.888 0.262 7.74 5.54 8.79
5/30/2022 12:15:00 AM 17.11 62.798 0.264 7.73 5.63 8.8
5/30/2022 12:30:00 AM 17.05 62.69 0.266 7.73 5.79 8.8
5/30/2022 12:45:00 AM 16.99 62.582 0.267 7.72 5.61 8.81
5/30/2022 1:00:00 AM 16.93 62.474 0.268 7.72 5.78 8.81
5/30/2022 1:15:00 AM 16.87 62.366 0.268 7.72 5.69 8.82
5/30/2022 1:30:00 AM 16.8 62.24 0.268 7.71 5.82 8.84
5/30/2022 1:45:00 AM 16.73 62.114 0.268 7.71 5.97 8.86
5/30/2022 2:00:00 AM 16.67 62.006 0.267 7.71 6.05 8.86
5/30/2022 2:15:00 AM 16.6 61.88 0.266 7.71 5.65 8.88
5/30/2022 2:30:00 AM 16.53 61.754 0.266 7.71 5.75 8.88
5/30/2022 2:45:00 AM 16.46 61.628 0.267 7.71 5.77 8.91
5/30/2022 3:00:00 AM 16.39 61.502 0.268 7.7 5.49 8.92
5/30/2022 3:15:00 AM 16.33 61.394 0.269 7.7 5.59 8.91
5/30/2022 3:30:00 AM 16.25 61.25 0.27 7.7 5.77 8.96
5/30/2022 3:45:00 AM 16.18 61.124 0.27 7.67 5.82 8.99
5/30/2022 4:00:00 AM 16.11 60.998 0.27 7.7 5.85 9
5/30/2022 4:15:00 AM 16.03 60.854 0.269 7.7 5.76 9.02
5/30/2022 4:30:00 AM 15.95 60.71 0.269 7.7 5.8 9.04
5/30/2022 4:45:00 AM 15.88 60.584 0.269 7.66 5.8 9.06
5/30/2022 5:00:00 AM 15.8 60.44 0.268 7.7 6.24 9.07
5/30/2022 5:15:00 AM 15.72 60.296 0.268 7.69 5.71 9.09
5/30/2022 5:30:00 AM 15.65 60.17 0.269 7.7 5.83 9.1
5/30/2022 5:45:00 AM 15.58 60.044 0.271 7.69 5.65 9.12
5/30/2022 6:00:00 AM 15.51 59.918 0.272 7.7 6.01 9.14
5/30/2022 6:15:00 AM 15.45 59.81 0.273 7.69 5.58 9.14
5/30/2022 6:30:00 AM 15.39 59.702 0.273 7.7 5.69 9.16
5/30/2022 6:45:00 AM 15.33 59.594 0.273 7.7 5.58 9.22
5/30/2022 7:00:00 AM 15.28 59.504 0.273 7.71 5.49 9.21
5/30/2022 7:15:00 AM 15.23 59.414 0.273 7.72 5.41 9.34
5/30/2022 7:30:00 AM 15.19 59.342 0.272 7.7 5.72 9.38
5/30/2022 7:45:00 AM 15.17 59.306 0.272 7.73 5.49 9.42
5/30/2022 8:00:00 AM 15.16 59.288 0.272 7.73 5.36 9.48
5/30/2022 8:15:00 AM 15.17 59.306 0.272 7.75 5.31 9.55
5/30/2022 8:30:00 AM 15.21 59.378 0.273 7.76 5.19 9.6
5/30/2022 8:45:00 AM 15.25 59.45 0.273 7.75 5.07 9.66
5/30/2022 9:00:00 AM 15.29 59.522 0.274 7.78 5.29 9.71
5/30/2022 9:15:00 AM 15.36 59.648 0.274 7.81 4.99 9.75
5/30/2022 9:30:00 AM 15.44 59.792 0.273 7.82 5.03 9.81
5/30/2022 9:45:00 AM 15.55 59.99 0.273 7.84 4.99 9.87
5/30/2022 10:00:00 AM 15.69 60.242 0.272 7.86 4.9 9.92
5/30/2022 10:15:00 AM 15.84 60.512 0.271 7.84 4.95 9.95
5/30/2022 10:30:00 AM 15.99 60.782 0.27 7.88 4.82 9.99
5/30/2022 10:45:00 AM 16.16 61.088 0.27 7.91 4.97 10.03
5/30/2022 11:00:00 AM 16.32 61.376 0.271 7.92 4.78 10.05
5/30/2022 11:15:00 AM 16.5 61.7 0.271 7.93 4.79 10.08
5/30/2022 11:30:00 AM 16.68 62.024 0.271 7.95 4.79 10.1
5/30/2022 11:45:00 AM 16.87 62.366 0.271 7.98 4.7 10.1
5/30/2022 12:00:00 PM 17.05 62.69 0.271 7.97 4.71 10.12
5/30/2022 12:15:00 PM 17.2 62.96 0.271 8.01 5.4 10.12
5/30/2022 12:30:00 PM 17.35 63.23 0.27 8.02 4.9 10.11
5/30/2022 12:45:00 PM 17.52 63.536 0.27 8.02 4.74 10.1
5/30/2022 1:00:00 PM 17.69 63.842 0.269 8.05 4.74 10.09
5/30/2022 1:15:00 PM 17.86 64.148 0.268 8.06 4.7 10.06
5/30/2022 1:30:00 PM 18.04 64.472 0.268 8.06 4.91 10.02
5/30/2022 1:45:00 PM 18.24 64.832 0.268 8.07 5.15 10
5/30/2022 2:00:00 PM 18.45 65.21 0.268 8.1 5.12 9.97
5/30/2022 2:15:00 PM 18.65 65.57 0.268 8.1 4.66 9.92
5/30/2022 2:30:00 PM 18.85 65.93 0.268 8.12 4.68 9.9
5/30/2022 2:45:00 PM 19.04 66.272 0.268 8.13 4.78 9.86
5/30/2022 3:00:00 PM 19.21 66.578 0.268 8.12 4.77 9.8
5/30/2022 3:15:00 PM 19.34 66.812 0.267 8.13 4.69 9.7
5/30/2022 3:30:00 PM 19.5 67.1 0.267 8.11 4.74 9.71
5/30/2022 3:45:00 PM 19.65 67.37 0.266 8.14 5.07 9.66
5/30/2022 4:00:00 PM 19.78 67.604 0.266 8.14 5.3 9.61
5/30/2022 4:15:00 PM 19.86 67.748 0.266 8.14 5.2 9.56
5/30/2022 4:30:00 PM 19.92 67.856 0.267 8.12 5.05 9.5
5/30/2022 4:45:00 PM 19.96 67.92799 0.267 8.13 5.07 9.44
5/30/2022 5:00:00 PM 19.97 67.946 0.267 8.12 4.8 9.39
5/30/2022 5:15:00 PM 19.97 67.946 0.267 8.09 4.75 9.32
5/30/2022 5:30:00 PM 19.95 67.91 0.268 8.08 4.95 9.25
5/30/2022 5:45:00 PM 19.92 67.856 0.268 8.04 5.01 9.19
5/30/2022 6:00:00 PM 19.88 67.784 0.267 8.04 6.4 9.13
5/30/2022 6:15:00 PM 19.83 67.694 0.267 8.03 5.28 9.08
5/30/2022 6:30:00 PM 19.79 67.622 0.267 8 5.55 9.01
5/30/2022 6:45:00 PM 19.74 67.532 0.267 7.99 5.41 8.96
5/30/2022 7:00:00 PM 19.69 67.442 0.268 7.96 5.19 8.91
5/30/2022 7:15:00 PM 19.64 67.352 0.269 7.92 5.14 8.86
5/30/2022 7:30:00 PM 19.58 67.244 0.269 7.91 5.05 8.82
5/30/2022 7:45:00 PM 19.52 67.136 0.27 7.91 5.19 8.78
5/30/2022 8:00:00 PM 19.46 67.028 0.27 7.89 6.17 8.73
5/30/2022 8:15:00 PM 19.39 66.902 0.27 7.87 5.12 8.69
5/30/2022 8:30:00 PM 19.34 66.812 0.269 7.85 5.09 8.66
5/30/2022 8:45:00 PM 19.29 66.722 0.269 7.83 5.39 8.62
5/30/2022 9:00:00 PM 19.24 66.632 0.269 7.81 5.52 8.58
5/30/2022 9:15:00 PM 19.2 66.56 0.269 7.8 6.25 8.54
5/30/2022 9:30:00 PM 19.16 66.488 0.269 7.78 5.88 8.52
5/30/2022 9:45:00 PM 19.12 66.416 0.27 7.75 5.91 8.5
5/30/2022 10:00:00 PM 19.07 66.326 0.271 7.76 5.93 8.48
5/30/2022 10:15:00 PM 19.03 66.254 0.272 7.76 5.89 8.49
5/30/2022 10:30:00 PM 18.98 66.164 0.272 7.74 5.79 8.46
5/30/2022 10:45:00 PM 18.92 66.056 0.272 7.74 6.23 8.46
5/30/2022 11:00:00 PM 18.87 65.966 0.272 7.69 5.81 8.44
5/30/2022 11:15:00 PM 18.81 65.858 0.272 7.72 5.9 8.46
5/30/2022 11:30:00 PM 18.76 65.768 0.271 7.7 5.77 8.45
5/30/2022 11:45:00 PM 18.71 65.67799 0.271 7.68 5.58 8.45
5/31/2022 12:00:00 AM 18.65 65.57 0.271 7.71 5.57 8.46
5/31/2022 12:15:00 AM 18.59 65.462 0.271 7.67 5.62 8.46
5/31/2022 12:30:00 AM 18.54 65.372 0.272 7.7 5.77 8.46
5/31/2022 12:45:00 AM 18.48 65.264 0.273 7.67 5.48 8.48
5/31/2022 1:00:00 AM 18.42 65.156 0.274 7.68 5.96 8.49
5/31/2022 1:15:00 AM 18.35 65.03 0.275 7.69 5.64 8.51
5/31/2022 1:30:00 AM 18.28 64.904 0.275 7.68 6 8.52
5/31/2022 1:45:00 AM 18.21 64.778 0.275 7.69 5.7 8.54
5/31/2022 2:00:00 AM 18.13 64.634 0.275 7.68 5.83 8.55
5/31/2022 2:15:00 AM 18.05 64.49 0.275 7.65 5.51 8.56
5/31/2022 2:30:00 AM 17.97 64.346 0.274 7.68 5.4 8.59
5/31/2022 2:45:00 AM 17.89 64.202 0.274 7.68 5.61 8.6
5/31/2022 3:00:00 AM 17.81 64.058 0.275 7.68 5.6 8.62
5/31/2022 3:15:00 AM 17.74 63.932 0.275 7.68 5.63 8.64
5/31/2022 3:30:00 AM 17.66 63.788 0.276 7.68 5.54 8.65
5/31/2022 3:45:00 AM 17.58 63.644 0.276 7.68 5.74 8.68
5/31/2022 4:00:00 AM 17.5 63.5 0.277 7.66 5.71 8.68
5/31/2022 4:15:00 AM 17.42 63.356 0.277 7.68 5.42 8.71
5/31/2022 4:30:00 AM 17.33 63.194 0.276 7.68 5.42 8.73
5/31/2022 4:45:00 AM 17.24 63.032 0.276 7.68 5.53 8.75
5/31/2022 5:00:00 AM 17.16 62.888 0.276 7.68 5.44 8.77
5/31/2022 5:15:00 AM 17.07 62.726 0.276 7.68 5.58 8.8
5/31/2022 5:30:00 AM 16.99 62.582 0.276 7.64 5.72 8.81
5/31/2022 5:45:00 AM 16.91 62.438 0.276 7.68 5.49 8.83
5/31/2022 6:00:00 AM 16.83 62.294 0.277 7.65 5.75 8.86
5/31/2022 6:15:00 AM 16.76 62.168 0.277 7.69 5.65 8.88
5/31/2022 6:30:00 AM 16.69 62.042 0.277 7.69 5.76 8.92
5/31/2022 6:45:00 AM 16.62 61.916 0.278 7.69 5.96 8.97
5/31/2022 7:00:00 AM 16.55 61.79 0.277 7.69 5.41 9.01
5/31/2022 7:15:00 AM 16.5 61.7 0.277 7.7 5.48 9.05
5/31/2022 7:30:00 AM 16.44 61.592 0.276 7.71 5.4 9.11
5/31/2022 7:45:00 AM 16.41 61.538 0.276 7.72 5.26 9.16
5/31/2022 8:00:00 AM 16.39 61.502 0.275 7.73 5.37 9.21
5/31/2022 8:15:00 AM 16.39 61.502 0.275 7.74 5.28 9.27
5/31/2022 8:30:00 AM 16.42 61.556 0.276 7.75 5.28 9.33
5/31/2022 8:45:00 AM 16.47 61.646 0.276 7.77 5.25 9.39
5/31/2022 9:00:00 AM 16.5 61.7 0.276 7.78 5.04 9.43
5/31/2022 9:15:00 AM 16.57 61.826 0.276 7.79 5.01 9.49
5/31/2022 9:30:00 AM 16.65 61.97 0.276 7.81 4.97 9.53
5/31/2022 9:45:00 AM 16.77 62.186 0.275 7.83 4.91 9.58
5/31/2022 10:00:00 AM 16.93 62.474 0.275 7.84 4.91 9.64
5/31/2022 10:15:00 AM 17.09 62.762 0.274 7.86 4.92 9.69
5/31/2022 10:30:00 AM 17.25 63.05 0.274 7.88 4.85 9.72
5/31/2022 10:45:00 AM 17.41 63.338 0.273 7.9 4.67 9.76
5/31/2022 11:00:00 AM 17.58 63.644 0.273 7.92 4.92 9.8
5/31/2022 11:15:00 AM 17.76 63.968 0.273 7.94 4.86 9.82
5/31/2022 11:30:00 AM 17.94 64.292 0.273 7.96 4.82 9.84
5/31/2022 11:45:00 AM 18.09 64.562 0.273 7.98 4.74 9.86
5/31/2022 12:00:00 PM 18.25 64.85 0.273 8 4.81 9.87
5/31/2022 12:15:00 PM 18.36 65.048 0.273 8.01 5.3 9.85
5/31/2022 12:30:00 PM 18.5 65.3 0.272 8.03 4.91 9.85
5/31/2022 12:45:00 PM 18.62 65.516 0.272 8.04 4.86 9.84
5/31/2022 1:00:00 PM 18.76 65.768 0.271 8.05 4.93 9.84
5/31/2022 1:15:00 PM 18.93 66.074 0.27 8.07 4.82 9.84
5/31/2022 1:30:00 PM 19.08 66.344 0.27 8.08 4.82 9.82
5/31/2022 1:45:00 PM 19.19 66.542 0.269 8.09 4.99 9.78
5/31/2022 2:00:00 PM 19.36 66.848 0.269 8.1 4.76 9.75
5/31/2022 2:15:00 PM 19.5 67.1 0.269 8.12 4.77 9.73
5/31/2022 2:30:00 PM 19.57 67.226 0.269 8.13 4.76 9.7
5/31/2022 2:45:00 PM 19.65 67.37 0.269 8.14 4.65 9.67
5/31/2022 3:00:00 PM 19.78 67.604 0.269 8.14 4.59 9.62
5/31/2022 3:15:00 PM 19.93 67.874 0.269 8.14 4.7 9.56
5/31/2022 3:30:00 PM 20.04 68.07201 0.269 8.11 4.8 9.54
5/31/2022 3:45:00 PM 20.12 68.216 0.27 8.15 4.71 9.52
5/31/2022 4:00:00 PM 20.18 68.324 0.271 8.15 4.6 9.48
5/31/2022 4:15:00 PM 20.25 68.45 0.272 8.12 4.95 9.44
5/31/2022 4:30:00 PM 20.31 68.558 0.272 8.15 5.32 9.41
5/31/2022 4:45:00 PM 20.36 68.648 0.272 8.15 4.78 9.37
5/31/2022 5:00:00 PM 20.39 68.702 0.271 8.14 4.73 9.31
5/31/2022 5:15:00 PM 20.4 68.72 0.271 8.1 4.69 9.24
5/31/2022 5:30:00 PM 20.39 68.702 0.27 8.1 4.96 9.19
5/31/2022 5:45:00 PM 20.36 68.648 0.27 8.09 4.96 9.12
5/31/2022 6:00:00 PM 20.31 68.558 0.269 8.06 5.08 9.06
5/31/2022 6:15:00 PM 20.26 68.468 0.268 8.06 4.74 9.01
5/31/2022 6:30:00 PM 20.2 68.36 0.267 8.04 4.88 8.95
5/31/2022 6:45:00 PM 20.15 68.27 0.267 8.02 4.89 8.9
5/31/2022 7:00:00 PM 20.1 68.18 0.267 8 4.87 8.85
5/31/2022 7:15:00 PM 20.05 68.09 0.268 7.98 4.9 8.8
5/31/2022 7:30:00 PM 20 68 0.268 7.93 4.95 8.77
5/31/2022 7:45:00 PM 19.96 67.92799 0.269 7.94 4.9 8.72
5/31/2022 8:00:00 PM 19.9 67.82 0.269 7.92 4.91 8.67
5/31/2022 8:15:00 PM 19.84 67.712 0.269 7.89 4.89 8.63
5/31/2022 8:30:00 PM 19.78 67.604 0.268 7.88 4.95 8.58
5/31/2022 8:45:00 PM 19.73 67.514 0.268 7.82 5.29 8.54
5/31/2022 9:00:00 PM 19.67 67.406 0.267 7.82 5.33 8.5
5/31/2022 9:15:00 PM 19.62 67.316 0.266 7.79 5.85 8.48
5/31/2022 9:30:00 PM 19.56 67.208 0.266 7.8 24.94 8.44
5/31/2022 9:45:00 PM 19.51 67.118 0.266 7.78 13.9 8.43
5/31/2022 10:00:00 PM 19.46 67.028 0.267 7.74 7.25 8.4
5/31/2022 10:15:00 PM 19.41 66.938 0.267 7.76 12.77 8.4
5/31/2022 10:30:00 PM 19.35 66.83 0.268 7.72 9.05 8.38
5/31/2022 10:45:00 PM 19.3 66.74 0.269 7.72 34.19 8.39
5/31/2022 11:00:00 PM 19.24 66.632 0.27 7.73 10.2 8.38
5/31/2022 11:15:00 PM 19.18 66.524 0.271 7.72 6.19 8.37
5/31/2022 11:30:00 PM 19.11 66.398 0.271 7.69 6.66 8.37
5/31/2022 11:45:00 PM 19.04 66.272 0.272 7.69 6.62 8.39
6/1/2022 12:00:00 AM 18.98 66.164 0.271 7.68 13.46 8.39
6/1/2022 12:15:00 AM 18.92 66.056 0.271 7.68 12.7 8.39
6/1/2022 12:30:00 AM 18.85 65.93 0.271 7.69 7.73 8.4
6/1/2022 12:45:00 AM 18.79 65.82201 0.271 7.69 9.77 8.4
6/1/2022 1:00:00 AM 18.73 65.714 0.271 7.69 9.23 8.41
6/1/2022 1:15:00 AM 18.67 65.606 0.271 7.66 8.34 8.43
6/1/2022 1:30:00 AM 18.61 65.498 0.271 7.67 8.2 8.43
6/1/2022 1:45:00 AM 18.55 65.39 0.271 7.69 12.9 8.44
6/1/2022 2:00:00 AM 18.47 65.246 0.271 7.68 9.48 8.46
6/1/2022 2:15:00 AM 18.4 65.12 0.271 7.68 36.78 8.47
6/1/2022 2:30:00 AM 18.33 64.994 0.27 7.67 12.8 8.49
6/1/2022 2:45:00 AM 18.27 64.886 0.27 7.68 7.47 8.5
6/1/2022 3:00:00 AM 18.2 64.76 0.269 7.66 6.69 8.52
6/1/2022 3:15:00 AM 18.14 64.652 0.269 7.68 9.42 8.52
6/1/2022 3:30:00 AM 18.09 64.562 0.27 7.68 8.03 8.55
6/1/2022 3:45:00 AM 18.03 64.454 0.27 7.65 57.56 8.56
6/1/2022 4:00:00 AM 17.97 64.346 0.27 7.66 8.14 8.58
6/1/2022 4:15:00 AM 17.91 64.238 0.27 7.68 18.79 8.59
6/1/2022 4:30:00 AM 17.85 64.13 0.27 7.69 13.46 8.61
6/1/2022 4:45:00 AM 17.79 64.022 0.27 7.68 31.18 8.62
6/1/2022 5:00:00 AM 17.73 63.914 0.27 7.66 5.23 8.64
6/1/2022 5:15:00 AM 17.67 63.806 0.269 7.69 13.17 8.65
6/1/2022 5:30:00 AM 17.6 63.68 0.269 7.69 8.54 8.67
6/1/2022 5:45:00 AM 17.55 63.59 0.27 7.66 8.48 8.68
6/1/2022 6:00:00 AM 17.49 63.482 0.27 7.68 8.41 8.7
6/1/2022 6:15:00 AM 17.45 63.41 0.27 7.67 8.1 8.73
6/1/2022 6:30:00 AM 17.41 63.338 0.27 7.7 8.73 8.76
6/1/2022 6:45:00 AM 17.37 63.266 0.27 7.71 5.64 8.79
6/1/2022 7:00:00 AM 17.32 63.176 0.271 7.68 8.69 8.83
6/1/2022 7:15:00 AM 17.28 63.104 0.271 7.71 9.14 8.88
6/1/2022 7:30:00 AM 17.25 63.05 0.271 7.71 5.78 8.93
6/1/2022 7:45:00 AM 17.23 63.014 0.271 7.73 6.01 8.97
6/1/2022 8:00:00 AM 17.22 62.996 0.27 7.74 6.28 9.03
6/1/2022 8:15:00 AM 17.24 63.032 0.27 7.76 5.01 9.09
6/1/2022 8:30:00 AM 17.27 63.086 0.271 7.77 5.02 9.15
6/1/2022 8:45:00 AM 17.31 63.158 0.271 7.79 6.62 9.2
6/1/2022 9:00:00 AM 17.35 63.23 0.271 7.78 4.75 9.24
6/1/2022 9:15:00 AM 17.42 63.356 0.271 7.82 4.77 9.29
6/1/2022 9:30:00 AM 17.49 63.482 0.271 7.8 5.02 9.34
6/1/2022 9:45:00 AM 17.6 63.68 0.271 7.85 4.98 9.39
6/1/2022 10:00:00 AM 17.75 63.95 0.271 7.87 5.04 9.46
6/1/2022 10:15:00 AM 17.9 64.22 0.271 7.86 8.23 9.52
6/1/2022 10:30:00 AM 18.01 64.418 0.27 7.92 6.65 9.56
6/1/2022 10:45:00 AM 18.11 64.598 0.27 7.94 10.5 9.6
6/1/2022 11:00:00 AM 18.17 64.706 0.27 7.95 8.65 9.62
6/1/2022 11:15:00 AM 18.33 64.994 0.27 7.97 8.93 9.65
6/1/2022 11:30:00 AM 18.43 65.174 0.27 7.96 6.83 9.65
6/1/2022 11:45:00 AM 18.35 65.03 0.269 7.99 4.91 9.6
6/1/2022 12:00:00 PM 18.39 65.102 0.269 7.99 9.14 9.59
6/1/2022 12:15:00 PM 18.59 65.462 0.269 8.01 10.56 9.63
6/1/2022 12:30:00 PM 18.75 65.75 0.269 8.03 5.18 9.63
6/1/2022 12:45:00 PM 19 66.2 0.269 8.05 5.18 9.68
6/1/2022 1:00:00 PM 19.27 66.686 0.269 8.05 5.42 9.71
6/1/2022 1:15:00 PM 19.48 67.064 0.268 8.1 4.37 9.7
6/1/2022 1:30:00 PM 19.66 67.388 0.268 8.12 8.17 9.68
6/1/2022 1:45:00 PM 19.85 67.73 0.268 8.13 6.77 9.64
6/1/2022 2:00:00 PM 20.01 68.018 0.268 8.13 6.17 9.6
6/1/2022 2:15:00 PM 20.2 68.36 0.267 8.15 4.5 9.59
6/1/2022 2:30:00 PM 20.32 68.576 0.267 8.16 5.01 9.54
6/1/2022 2:45:00 PM 20.4 68.72 0.266 8.16 6.15 9.52
6/1/2022 3:00:00 PM 20.45 68.81 0.266 8.16 8.99 9.48
6/1/2022 3:15:00 PM 20.56 69.008 0.266 8.18 5.5 9.47
6/1/2022 3:30:00 PM 20.62 69.116 0.266 8.19 4.45 9.45
6/1/2022 3:45:00 PM 20.63 69.134 0.266 8.19 5.43 9.4
6/1/2022 4:00:00 PM 20.67 69.206 0.266 8.2 6.45 9.4
6/1/2022 4:15:00 PM 20.74 69.332 0.266 8.19 33.93 9.39
6/1/2022 4:30:00 PM 20.81 69.458 0.267 8.21 5.68 9.34
6/1/2022 4:45:00 PM 20.87 69.566 0.267 8.2 5.13 9.29
6/1/2022 5:00:00 PM 20.88 69.584 0.267 8.17 9.08 9.23
6/1/2022 5:15:00 PM 20.9 69.62 0.267 8.17 15.1 9.17
6/1/2022 5:30:00 PM 20.91 69.638 0.267 8.16 5.91 9.11
6/1/2022 5:45:00 PM 20.92 69.656 0.266 8.13 6.47 9.06
6/1/2022 6:00:00 PM 20.89 69.602 0.266 8.14 8.39 9
6/1/2022 6:15:00 PM 20.86 69.548 0.266 8.11 5.81 8.93
6/1/2022 6:30:00 PM 20.81 69.458 0.265 8.07 8.54 8.88
6/1/2022 6:45:00 PM 20.77 69.386 0.265 8.07 35.03 8.81
6/1/2022 7:00:00 PM 20.72 69.296 0.265 8.04 6.49 8.77
6/1/2022 7:15:00 PM 20.66 69.188 0.265 8.02 5.34 8.72
6/1/2022 7:30:00 PM 20.59 69.062 0.265 7.99 4.89 8.68
6/1/2022 7:45:00 PM 20.52 68.936 0.266 7.98 6.21 8.61
6/1/2022 8:00:00 PM 20.46 68.828 0.266 7.94 7.71 8.53
6/1/2022 8:15:00 PM 20.4 68.72 0.265 7.92 4.78 8.47
6/1/2022 8:30:00 PM 20.32 68.576 0.266 7.9 4.73 8.42
6/1/2022 8:45:00 PM 20.25 68.45 0.266 7.86 6.33 8.37
6/1/2022 9:00:00 PM 20.17 68.306 0.265 7.87 6.31 8.34
6/1/2022 9:15:00 PM 20.1 68.18 0.265 7.85 11.1 8.31
6/1/2022 9:30:00 PM 20.05 68.09 0.265 7.83 9.68 8.29
6/1/2022 9:45:00 PM 19.99 67.982 0.265 7.82 9.82 8.28
6/1/2022 10:00:00 PM 19.94 67.892 0.265 7.81 22.21 8.27
6/1/2022 10:15:00 PM 19.89 67.802 0.265 7.81 7.81 8.26
6/1/2022 10:30:00 PM 19.84 67.712 0.265 7.78 13.36 8.24
6/1/2022 10:45:00 PM 19.78 67.604 0.265 7.79 7.11 8.23
6/1/2022 11:00:00 PM 19.73 67.514 0.266 7.79 6.89 8.22
6/1/2022 11:15:00 PM 19.68 67.424 0.266 7.78 17.76 8.23
6/1/2022 11:30:00 PM 19.63 67.334 0.266 7.77 14.27 8.21
6/1/2022 11:45:00 PM 19.58 67.244 0.266 7.76 9.93 8.21
6/2/2022 12:00:00 AM 19.53 67.154 0.266 7.77 7.56 8.21
6/2/2022 12:15:00 AM 19.48 67.064 0.267 7.74 5.39 8.21
6/2/2022 12:30:00 AM 19.43 66.974 0.267 7.76 10.08 8.22
6/2/2022 12:45:00 AM 19.39 66.902 0.267 7.73 7.53 8.22
6/2/2022 1:00:00 AM 19.35 66.83 0.267 7.76 10.24 8.23
6/2/2022 1:15:00 AM 19.3 66.74 0.267 7.76 6.31 8.24
6/2/2022 1:30:00 AM 19.26 66.668 0.267 7.72 7.86 8.24
6/2/2022 1:45:00 AM 19.2 66.56 0.267 7.73 13.01 8.25
6/2/2022 2:00:00 AM 19.15 66.47 0.267 7.73 9.11 8.26
6/2/2022 2:15:00 AM 19.08 66.344 0.268 7.73 9.08 8.28
6/2/2022 2:30:00 AM 19.02 66.236 0.268 7.75 9.49 8.3
6/2/2022 2:45:00 AM 18.96 66.128 0.268 7.74 8.12 8.31
6/2/2022 3:00:00 AM 18.9 66.02 0.268 7.74 9.47 8.33
6/2/2022 3:15:00 AM 18.84 65.912 0.268 7.72 7.31 8.34
6/2/2022 3:30:00 AM 18.79 65.82201 0.268 7.74 5.97 8.35
6/2/2022 3:45:00 AM 18.73 65.714 0.268 7.73 9.53 8.37
6/2/2022 4:00:00 AM 18.68 65.624 0.268 7.74 9.02 8.37
6/2/2022 4:15:00 AM 18.63 65.534 0.268 7.74 9.05 8.38
6/2/2022 4:30:00 AM 18.57 65.426 0.268 7.74 9.37 8.39
6/2/2022 4:45:00 AM 18.5 65.3 0.268 7.71 7.98 8.41
6/2/2022 5:00:00 AM 18.45 65.21 0.268 7.74 9.28 8.41
6/2/2022 5:15:00 AM 18.39 65.102 0.268 7.74 8.47 8.43
6/2/2022 5:30:00 AM 18.32 64.976 0.268 7.74 11.19 8.43
6/2/2022 5:45:00 AM 18.27 64.886 0.269 7.71 9.19 8.46
6/2/2022 6:00:00 AM 18.22 64.796 0.269 7.74 10.41 8.46
6/2/2022 6:15:00 AM 18.17 64.706 0.27 7.72 9.46 8.49
6/2/2022 6:30:00 AM 18.13 64.634 0.27 7.75 14.67 8.51
6/2/2022 6:45:00 AM 18.09 64.562 0.27 7.75 12.86 8.52
6/2/2022 7:00:00 AM 18.04 64.472 0.271 7.75 9.51 8.56
6/2/2022 7:15:00 AM 18 64.4 0.271 7.73 10.68 8.58
6/2/2022 7:30:00 AM 17.96 64.328 0.272 7.74 5.68 8.62
6/2/2022 7:45:00 AM 17.91 64.238 0.272 7.74 14.82 8.65
6/2/2022 8:00:00 AM 17.87 64.166 0.272 7.76 6.34 8.67
6/2/2022 8:15:00 AM 17.83 64.094 0.273 7.76 23.73 8.71
6/2/2022 8:30:00 AM 17.81 64.058 0.273 7.74 13.87 8.76
6/2/2022 8:45:00 AM 17.79 64.022 0.273 7.77 8.3 8.79
6/2/2022 9:00:00 AM 17.78 64.004 0.273 7.77 6.67 8.86
6/2/2022 9:15:00 AM 17.79 64.022 0.273 7.79 6.97 8.93
6/2/2022 9:30:00 AM 17.8 64.04 0.273 7.82 7.29 9.02
6/2/2022 9:45:00 AM 17.85 64.13 0.273 7.83 7.1 9.12
6/2/2022 10:00:00 AM 17.89 64.202 0.273 7.87 6.92 9.19
6/2/2022 10:15:00 AM 17.89 64.202 0.272 7.88 5.34 9.22
6/2/2022 10:30:00 AM 17.95 64.31 0.272 7.9 7.13 9.31
6/2/2022 10:45:00 AM 18.01 64.418 0.271 7.9 5.58 9.36
6/2/2022 11:00:00 AM 18.02 64.436 0.271 7.93 9.02 9.37
6/2/2022 11:15:00 AM 17.97 64.346 0.271 7.93 5.04 9.34
6/2/2022 11:30:00 AM 17.97 64.346 0.271 7.94 7.56 9.36
6/2/2022 11:45:00 AM 17.99 64.382 0.271 7.95 7.85 9.36
6/2/2022 12:00:00 PM 17.98 64.364 0.271 7.95 8.25 9.34
6/2/2022 12:15:00 PM 17.97 64.346 0.272 7.93 9.46 9.33
6/2/2022 12:30:00 PM 17.97 64.346 0.272 7.95 6.46 9.32
6/2/2022 12:45:00 PM 17.99 64.382 0.272 7.95 15.57 9.32
6/2/2022 1:00:00 PM 18 64.4 0.272 7.95 7.31 9.31
6/2/2022 1:15:00 PM 18 64.4 0.272 7.96 7.31 9.31
6/2/2022 1:30:00 PM 18 64.4 0.273 7.94 7.32 9.27
6/2/2022 1:45:00 PM 17.98 64.364 0.273 7.94 4.63 9.2
6/2/2022 2:00:00 PM 17.99 64.382 0.273 7.94 11.92 9.25
6/2/2022 2:15:00 PM 18.02 64.436 0.273 7.96 6.24 9.29
6/2/2022 2:30:00 PM 18.04 64.472 0.273 7.97 6.48 9.31
6/2/2022 2:45:00 PM 18.06 64.508 0.274 7.99 12.72 9.37
6/2/2022 3:00:00 PM 18.14 64.652 0.274 7.99 5.79 9.43
6/2/2022 3:15:00 PM 18.24 64.832 0.275 8.03 4.38 9.5
6/2/2022 3:30:00 PM 18.38 65.084 0.275 8.04 6.13 9.54
6/2/2022 3:45:00 PM 18.45 65.21 0.274 8.06 5.42 9.52
6/2/2022 4:00:00 PM 18.43 65.174 0.274 8.06 7.43 9.49
6/2/2022 4:15:00 PM 18.37 65.066 0.274 8.03 5.37 9.42
6/2/2022 4:30:00 PM 18.34 65.012 0.274 8.02 7.05 9.34
6/2/2022 4:45:00 PM 18.31 64.958 0.274 8.01 4.95 9.3
6/2/2022 5:00:00 PM 18.32 64.976 0.274 8.02 4.38 9.32
6/2/2022 5:15:00 PM 18.35 65.03 0.273 8.01 4.6 9.32
6/2/2022 5:30:00 PM 18.35 65.03 0.273 8.02 4.49 9.28
6/2/2022 5:45:00 PM 18.36 65.048 0.272 8.02 8.1 9.25
6/2/2022 6:00:00 PM 18.37 65.066 0.27 8.01 24.04 9.22
6/2/2022 6:15:00 PM 18.37 65.066 0.269 8 4.76 9.22
6/2/2022 6:30:00 PM 18.37 65.066 0.268 8 17.3 9.19
6/2/2022 6:45:00 PM 18.36 65.048 0.268 7.99 5.93 9.15
6/2/2022 7:00:00 PM 18.34 65.012 0.268 7.95 9.62 9.11
6/2/2022 7:15:00 PM 18.32 64.976 0.268 7.94 4.49 9.05
6/2/2022 7:30:00 PM 18.3 64.94 0.268 7.95 4.73 8.99
6/2/2022 7:45:00 PM 18.27 64.886 0.269 7.93 4.7 8.94
6/2/2022 8:00:00 PM 18.24 64.832 0.269 7.88 4.72 8.89
6/2/2022 8:15:00 PM 18.21 64.778 0.269 7.89 4.59 8.84
6/2/2022 8:30:00 PM 18.18 64.724 0.269 7.87 4.8 8.8
6/2/2022 8:45:00 PM 18.14 64.652 0.269 7.86 7.86 8.77
6/2/2022 9:00:00 PM 18.11 64.598 0.269 7.85 5.9 8.75
6/2/2022 9:15:00 PM 18.08 64.544 0.269 7.84 7.15 8.73
6/2/2022 9:30:00 PM 18.05 64.49 0.269 7.8 8.64 8.71
6/2/2022 9:45:00 PM 18.02 64.436 0.27 7.83 23.12 8.7
6/2/2022 10:00:00 PM 17.99 64.382 0.271 7.81 6.19 8.68
6/2/2022 10:15:00 PM 17.96 64.328 0.272 7.8 11.81 8.67
6/2/2022 10:30:00 PM 17.92 64.256 0.272 7.81 10.83 8.68
6/2/2022 10:45:00 PM 17.88 64.184 0.273 7.8 6.02 8.67
6/2/2022 11:00:00 PM 17.84 64.112 0.274 7.81 7.13 8.66
6/2/2022 11:15:00 PM 17.8 64.04 0.276 7.8 26.4 8.66
6/2/2022 11:30:00 PM 17.76 63.968 0.276 7.8 5.85 8.67
6/2/2022 11:45:00 PM 17.71 63.878 0.277 7.79 12.91 8.66
6/3/2022 12:00:00 AM 17.67 63.806 0.277 7.8 9.79 8.66
6/3/2022 12:15:00 AM 17.63 63.734 0.278 7.79 18.21 8.66
6/3/2022 12:30:00 AM 17.59 63.662 0.279 7.8 8.75 8.67
6/3/2022 12:45:00 AM 17.55 63.59 0.279 7.79 6.9 8.67
6/3/2022 1:00:00 AM 17.51 63.518 0.28 7.79 9.9 8.68
6/3/2022 1:15:00 AM 17.46 63.428 0.279 7.79 9.02 8.69
6/3/2022 1:30:00 AM 17.41 63.338 0.279 7.78 14.96 8.69
6/3/2022 1:45:00 AM 17.34 63.212 0.278 7.79 11.91 8.7
6/3/2022 2:00:00 AM 17.27 63.086 0.278 7.79 14.13 8.72
6/3/2022 2:15:00 AM 17.21 62.978 0.277 7.79 9.8 8.72
6/3/2022 2:30:00 AM 17.15 62.87 0.275 7.77 16.03 8.75
6/3/2022 2:45:00 AM 17.08 62.744 0.274 7.79 16.67 8.75
6/3/2022 3:00:00 AM 17.01 62.618 0.274 7.77 6.65 8.77
6/3/2022 3:15:00 AM 16.94 62.492 0.274 7.79 6.76 8.79
6/3/2022 3:30:00 AM 16.87 62.366 0.274 7.79 7.89 8.81
6/3/2022 3:45:00 AM 16.8 62.24 0.274 7.76 12.63 8.81
6/3/2022 4:00:00 AM 16.73 62.114 0.274 7.77 8.76 8.83
6/3/2022 4:15:00 AM 16.65 61.97 0.274 7.78 5.15 8.85
6/3/2022 4:30:00 AM 16.58 61.844 0.274 7.79 5.94 8.86
6/3/2022 4:45:00 AM 16.5 61.7 0.274 7.78 10.26 8.88
6/3/2022 5:00:00 AM 16.42 61.556 0.274 7.78 13.57 8.9
6/3/2022 5:15:00 AM 16.34 61.412 0.274 7.78 7.36 8.91
6/3/2022 5:30:00 AM 16.26 61.268 0.274 7.78 15.47 8.93
6/3/2022 5:45:00 AM 16.18 61.124 0.275 7.78 9.32 8.95
6/3/2022 6:00:00 AM 16.11 60.998 0.276 7.75 21.88 8.98
6/3/2022 6:15:00 AM 16.05 60.89 0.276 7.79 14 9
6/3/2022 6:30:00 AM 15.98 60.764 0.277 7.79 7.3 9.04
6/3/2022 6:45:00 AM 15.92 60.656 0.277 7.78 53.56 9.07
6/3/2022 7:00:00 AM 15.85 60.53 0.277 7.78 9.05 9.11
6/3/2022 7:15:00 AM 15.8 60.44 0.278 7.81 8.2 9.15
6/3/2022 7:30:00 AM 15.74 60.332 0.278 7.78 7.7 9.19
6/3/2022 7:45:00 AM 15.7 60.26 0.278 7.82 6.53 9.23
6/3/2022 8:00:00 AM 15.68 60.224 0.278 7.81 81.49 9.27
6/3/2022 8:15:00 AM 15.68 60.224 0.278 7.81 11.02 9.33
6/3/2022 8:30:00 AM 15.7 60.26 0.278 7.84 11.62 9.38
6/3/2022 8:45:00 AM 15.73 60.314 0.279 7.85 11.9 9.44
6/3/2022 9:00:00 AM 15.75 60.35 0.279 7.85 11.99 9.48
6/3/2022 9:15:00 AM 15.8 60.44 0.278 7.88 9.29 9.53
6/3/2022 9:30:00 AM 15.87 60.566 0.278 7.86 6.34 9.57
6/3/2022 9:45:00 AM 15.97 60.746 0.278 7.89 4.73 9.62
6/3/2022 10:00:00 AM 16.12 61.016 0.277 7.91 4.15 9.66
6/3/2022 10:15:00 AM 16.26 61.268 0.276 7.93 4.4 9.71
6/3/2022 10:30:00 AM 16.41 61.538 0.275 7.95 4.45 9.75
6/3/2022 10:45:00 AM 16.56 61.808 0.274 7.96 4.71 9.78
6/3/2022 11:00:00 AM 16.71 62.078 0.273 7.98 4.25 9.81
6/3/2022 11:15:00 AM 16.86 62.348 0.273 7.99 7.62 9.83
6/3/2022 11:30:00 AM 17.03 62.654 0.272 8.01 10.89 9.85
6/3/2022 11:45:00 AM 17.19 62.942 0.272 8.02 5.82 9.85
6/3/2022 12:00:00 PM 17.27 63.086 0.271 8.01 7.83 9.84
6/3/2022 12:15:00 PM 17.34 63.212 0.27 8.04 13.47 9.83
6/3/2022 12:30:00 PM 17.44 63.392 0.27 8.03 7.24 9.83
6/3/2022 12:45:00 PM 17.52 63.536 0.269 8.06 4.08 9.82
6/3/2022 1:00:00 PM 17.53 63.554 0.269 8.05 6.26 9.8
6/3/2022 1:15:00 PM 17.65 63.77 0.268 8.07 13.99 9.81
6/3/2022 1:30:00 PM 17.85 64.13 0.268 8.07 4.17 9.82
6/3/2022 1:45:00 PM 18.02 64.436 0.267 8.11 5.48 9.79
6/3/2022 2:00:00 PM 18.23 64.814 0.267 8.1 3.92 9.78
6/3/2022 2:15:00 PM 18.4 65.12 0.267 8.12 7.65 9.74
6/3/2022 2:30:00 PM 18.51 65.318 0.266 8.1 4.04 9.69
6/3/2022 2:45:00 PM 18.62 65.516 0.265 8.14 4.6 9.68
6/3/2022 3:00:00 PM 18.74 65.732 0.265 8.12 4.06 9.68
6/3/2022 3:15:00 PM 18.78 65.804 0.265 8.15 4.18 9.58
6/3/2022 3:30:00 PM 18.67 65.606 0.265 8.1 4.66 9.44
6/3/2022 3:45:00 PM 18.63 65.534 0.265 8.09 4.41 9.39
6/3/2022 4:00:00 PM 18.69 65.642 0.265 8.1 4.89 9.44
6/3/2022 4:15:00 PM 18.7 65.66 0.265 8.11 5.22 9.43
6/3/2022 4:30:00 PM 18.72 65.696 0.265 8.1 4.1 9.42
6/3/2022 4:45:00 PM 18.72 65.696 0.265 8.12 3.95 9.39
6/3/2022 5:00:00 PM 18.72 65.696 0.266 8.11 4.8 9.36
6/3/2022 5:15:00 PM 18.74 65.732 0.266 8.11 4.1 9.36
6/3/2022 5:30:00 PM 18.79 65.82201 0.266 8.09 4.08 9.35
6/3/2022 5:45:00 PM 18.78 65.804 0.266 8.11 7.11 9.31
6/3/2022 6:00:00 PM 18.71 65.67799 0.266 8.09 6.37 9.25
6/3/2022 6:15:00 PM 18.64 65.552 0.266 8.07 8.14 9.19
6/3/2022 6:30:00 PM 18.57 65.426 0.266 8.02 5.1 9.13
6/3/2022 6:45:00 PM 18.51 65.318 0.266 8.04 5.49 9.1
6/3/2022 7:00:00 PM 18.44 65.192 0.266 8.01 27.15 9.07
6/3/2022 7:15:00 PM 18.36 65.048 0.267 8 8.84 9.04
6/3/2022 7:30:00 PM 18.28 64.904 0.268 7.99 9.78 9
6/3/2022 7:45:00 PM 18.22 64.796 0.269 7.96 7.06 8.97
6/3/2022 8:00:00 PM 18.15 64.67 0.27 7.95 6.04 8.95
6/3/2022 8:15:00 PM 18.08 64.544 0.271 7.94 6.44 8.92
6/3/2022 8:30:00 PM 18.01 64.418 0.272 7.93 9.99 8.89
6/3/2022 8:45:00 PM 17.94 64.292 0.272 7.89 5.95 8.87
6/3/2022 9:00:00 PM 17.86 64.148 0.272 7.9 9.04 8.83
6/3/2022 9:15:00 PM 17.79 64.022 0.272 7.89 8.72 8.83
6/3/2022 9:30:00 PM 17.72 63.896 0.272 7.84 6.04 8.81
6/3/2022 9:45:00 PM 17.66 63.788 0.271 7.87 8.33 8.8
6/3/2022 10:00:00 PM 17.61 63.698 0.271 7.86 6.48 8.79
6/3/2022 10:15:00 PM 17.56 63.608 0.271 7.85 5.9 8.78
6/3/2022 10:30:00 PM 17.51 63.518 0.271 7.84 7.45 8.78
6/3/2022 10:45:00 PM 17.45 63.41 0.271 7.84 9.24 8.77
6/3/2022 11:00:00 PM 17.4 63.32 0.27 7.83 5.44 8.77
6/3/2022 11:15:00 PM 17.34 63.212 0.27 7.83 9.99 8.77
6/3/2022 11:30:00 PM 17.28 63.104 0.27 7.82 7.9 8.77
6/3/2022 11:45:00 PM 17.21 62.978 0.27 7.81 16.39 8.78
6/4/2022 12:00:00 AM 17.14 62.852 0.27 7.8 35.32 8.78
6/4/2022 12:15:00 AM 17.06 62.708 0.27 7.77 11.66 8.8
6/4/2022 12:30:00 AM 16.99 62.582 0.269 7.79 7.73 8.8
6/4/2022 12:45:00 AM 16.91 62.438 0.269 7.79 20.69 8.82
6/4/2022 1:00:00 AM 16.83 62.294 0.269 7.79 26.27 8.82
6/4/2022 1:15:00 AM 16.76 62.168 0.269 7.78 7.53 8.84
6/4/2022 1:30:00 AM 16.69 62.042 0.269 7.78 10.61 8.86
6/4/2022 1:45:00 AM 16.61 61.898 0.269 7.77 7.34 8.87
6/4/2022 2:00:00 AM 16.54 61.772 0.269 7.78 8.45 8.89
6/4/2022 2:15:00 AM 16.46 61.628 0.27 7.78 11.89 8.9
6/4/2022 2:30:00 AM 16.39 61.502 0.27 7.77 14.9 8.91
6/4/2022 2:45:00 AM 16.31 61.358 0.271 7.74 15.4 8.94
6/4/2022 3:00:00 AM 16.23 61.214 0.272 7.77 4.99 8.96
6/4/2022 3:15:00 AM 16.16 61.088 0.273 7.77 5.64 8.97
6/4/2022 3:30:00 AM 16.08 60.944 0.273 7.77 13.52 8.99
6/4/2022 3:45:00 AM 16.01 60.818 0.274 7.77 14.33 9
6/4/2022 4:00:00 AM 15.94 60.692 0.275 7.76 5.77 9.02
6/4/2022 4:15:00 AM 15.87 60.566 0.275 7.76 5.64 9.04
6/4/2022 4:30:00 AM 15.79 60.422 0.275 7.76 8.15 9.05
6/4/2022 4:45:00 AM 15.72 60.296 0.276 7.78 6.32 9.08
6/4/2022 5:00:00 AM 15.65 60.17 0.276 7.77 4.76 9.09
6/4/2022 5:15:00 AM 15.57 60.026 0.276 7.78 7.34 9.1
6/4/2022 5:30:00 AM 15.49 59.882 0.276 7.77 7.37 9.12
6/4/2022 5:45:00 AM 15.42 59.756 0.277 7.74 9.13 9.14
6/4/2022 6:00:00 AM 15.34 59.612 0.277 7.76 6.9 9.17
6/4/2022 6:15:00 AM 15.26 59.468 0.278 7.78 6.59 9.21
6/4/2022 6:30:00 AM 15.2 59.36 0.278 7.78 51.43 9.25
6/4/2022 6:45:00 AM 15.14 59.252 0.278 7.79 8.54 9.29
6/4/2022 7:00:00 AM 15.08 59.144 0.278 7.78 8.33 9.32
6/4/2022 7:15:00 AM 15.03 59.054 0.278 7.8 4.37 9.36
6/4/2022 7:30:00 AM 14.99 58.982 0.277 7.81 4.22 9.4
6/4/2022 7:45:00 AM 14.97 58.946 0.277 7.81 5.87 9.44
6/4/2022 8:00:00 AM 14.96 58.928 0.277 7.82 5.89 9.49
6/4/2022 8:15:00 AM 14.97 58.946 0.277 7.81 5.69 9.54
6/4/2022 8:30:00 AM 15.01 59.018 0.277 7.84 5.98 9.59
6/4/2022 8:45:00 AM 15.07 59.126 0.277 7.85 4.95 9.65
6/4/2022 9:00:00 AM 15.12 59.216 0.277 7.84 5.49 9.68
6/4/2022 9:15:00 AM 15.19 59.342 0.277 7.85 8.57 9.73
6/4/2022 9:30:00 AM 15.28 59.504 0.277 7.89 7.82 9.76
6/4/2022 9:45:00 AM 15.41 59.738 0.276 7.9 7.52 9.81
6/4/2022 10:00:00 AM 15.57 60.026 0.275 7.91 5.47 9.85
6/4/2022 10:15:00 AM 15.74 60.332 0.275 7.93 5.18 9.88
6/4/2022 10:30:00 AM 15.92 60.656 0.274 7.94 5.07 9.91
6/4/2022 10:45:00 AM 16.08 60.944 0.274 7.96 5.04 9.94
6/4/2022 11:00:00 AM 16.25 61.25 0.273 7.95 7.3 9.96
6/4/2022 11:15:00 AM 16.42 61.556 0.273 7.99 4.6 9.98
6/4/2022 11:30:00 AM 16.59 61.862 0.273 8 8.01 10
6/4/2022 11:45:00 AM 16.77 62.186 0.273 8.02 7.84 9.99
6/4/2022 12:00:00 PM 16.93 62.474 0.273 8.04 5.42 10
6/4/2022 12:15:00 PM 17.09 62.762 0.272 8.05 6.59 9.99
6/4/2022 12:30:00 PM 17.22 62.996 0.272 8.05 7.15 9.97
6/4/2022 12:45:00 PM 17.36 63.248 0.272 8.07 3.89 9.96
6/4/2022 1:00:00 PM 17.5 63.5 0.271 8.07 6.31 9.94
6/4/2022 1:15:00 PM 17.66 63.788 0.271 8.09 4.29 9.91
6/4/2022 1:30:00 PM 17.82 64.076 0.271 8.1 6.02 9.89
6/4/2022 1:45:00 PM 18 64.4 0.271 8.07 4.93 9.85
6/4/2022 2:00:00 PM 18.16 64.688 0.271 8.11 5.47 9.81
6/4/2022 2:15:00 PM 18.34 65.012 0.271 8.12 9.98 9.78
6/4/2022 2:30:00 PM 18.51 65.318 0.271 8.13 8.81 9.74
6/4/2022 2:45:00 PM 18.68 65.624 0.271 8.14 4.83 9.7
6/4/2022 3:00:00 PM 18.83 65.894 0.27 8.1 4.39 9.65
6/4/2022 3:15:00 PM 18.97 66.146 0.27 8.12 6.59 9.6
6/4/2022 3:30:00 PM 19.11 66.398 0.27 8.14 8.18 9.57
6/4/2022 3:45:00 PM 19.23 66.614 0.269 8.14 4.51 9.51
6/4/2022 4:00:00 PM 19.31 66.758 0.269 8.14 4.84 9.46
6/4/2022 4:15:00 PM 19.37 66.866 0.269 8.14 4.14 9.43
6/4/2022 4:30:00 PM 19.41 66.938 0.27 8.13 3.88 9.37
6/4/2022 4:45:00 PM 19.42 66.956 0.27 8.12 3.96 9.32
6/4/2022 5:00:00 PM 19.41 66.938 0.27 8.11 5.31 9.26
6/4/2022 5:15:00 PM 19.4 66.92 0.27 8.1 5.29 9.21
6/4/2022 5:30:00 PM 19.35 66.83 0.27 8.09 4.77 9.16
6/4/2022 5:45:00 PM 19.31 66.758 0.27 8.08 4.11 9.11
6/4/2022 6:00:00 PM 19.27 66.686 0.27 8.06 5.33 9.06
6/4/2022 6:15:00 PM 19.21 66.578 0.27 8.04 4.65 9.01
6/4/2022 6:30:00 PM 19.16 66.488 0.27 8.03 4.95 8.98
6/4/2022 6:45:00 PM 19.1 66.38 0.269 8.01 4.67 8.94
6/4/2022 7:00:00 PM 19.03 66.254 0.269 8 5.96 8.92
6/4/2022 7:15:00 PM 18.96 66.128 0.269 7.99 4.45 8.88
6/4/2022 7:30:00 PM 18.88 65.984 0.269 7.98 4.79 8.86
6/4/2022 7:45:00 PM 18.79 65.82201 0.27 7.96 5.31 8.84
6/4/2022 8:00:00 PM 18.7 65.66 0.27 7.94 8.14 8.8
6/4/2022 8:15:00 PM 18.6 65.48 0.27 7.94 5.27 8.8
6/4/2022 8:30:00 PM 18.49 65.282 0.269 7.92 5.47 8.79
6/4/2022 8:45:00 PM 18.39 65.102 0.269 7.91 5.24 8.76
6/4/2022 9:00:00 PM 18.27 64.886 0.269 7.89 4.92 8.75
6/4/2022 9:15:00 PM 18.16 64.688 0.269 7.89 16.61 8.74
6/4/2022 9:30:00 PM 18.06 64.508 0.268 7.88 12.18 8.73
6/4/2022 9:45:00 PM 17.96 64.328 0.268 7.87 5.55 8.72
6/4/2022 10:00:00 PM 17.87 64.166 0.268 7.84 17.41 8.72
6/4/2022 10:15:00 PM 17.78 64.004 0.268 7.85 5.55 8.72
6/4/2022 10:30:00 PM 17.69 63.842 0.269 7.85 6.88 8.73
6/4/2022 10:45:00 PM 17.61 63.698 0.269 7.83 8.16 8.72
6/4/2022 11:00:00 PM 17.53 63.554 0.269 7.82 5.02 8.74
6/4/2022 11:15:00 PM 17.45 63.41 0.268 7.83 11.58 8.74
6/4/2022 11:30:00 PM 17.36 63.248 0.268 7.82 11.33 8.74
6/4/2022 11:45:00 PM 17.28 63.104 0.267 7.82 6.25 8.76
6/5/2022 12:00:00 AM 17.2 62.96 0.267 7.8 7.81 8.76
6/5/2022 12:15:00 AM 17.11 62.798 0.267 7.81 6.73 8.77
6/5/2022 12:30:00 AM 17.02 62.636 0.267 7.8 6.15 8.79
6/5/2022 12:45:00 AM 16.94 62.492 0.267 7.8 13.76 8.8
6/5/2022 1:00:00 AM 16.86 62.348 0.268 7.8 9.63 8.82
6/5/2022 1:15:00 AM 16.79 62.222 0.268 7.8 4.62 8.82
6/5/2022 1:30:00 AM 16.73 62.114 0.268 7.79 10.15 8.82
6/5/2022 1:45:00 AM 16.67 62.006 0.268 7.76 12.39 8.85
6/5/2022 2:00:00 AM 16.6 61.88 0.268 7.79 7.21 8.88
6/5/2022 2:15:00 AM 16.54 61.772 0.268 7.78 7.23 8.9
6/5/2022 2:30:00 AM 16.48 61.664 0.268 7.79 7.5 8.9
6/5/2022 2:45:00 AM 16.41 61.538 0.268 7.79 6.1 8.93
6/5/2022 3:00:00 AM 16.34 61.412 0.269 7.79 6.63 8.94
6/5/2022 3:15:00 AM 16.27 61.286 0.27 7.77 6.91 8.97
6/5/2022 3:30:00 AM 16.19 61.142 0.271 7.78 5.42 8.97
6/5/2022 3:45:00 AM 16.12 61.016 0.272 7.77 10.01 8.99
6/5/2022 4:00:00 AM 16.05 60.89 0.273 7.78 10.17 9.01
6/5/2022 4:15:00 AM 15.98 60.764 0.273 7.76 11.67 9.03
6/5/2022 4:30:00 AM 15.9 60.62 0.273 7.76 11.87 9.05
6/5/2022 4:45:00 AM 15.81 60.458 0.273 7.79 9.22 9.08
6/5/2022 5:00:00 AM 15.72 60.296 0.273 7.78 4.83 9.1
6/5/2022 5:15:00 AM 15.63 60.134 0.272 7.76 12.41 9.12
6/5/2022 5:30:00 AM 15.55 59.99 0.272 7.77 7.4 9.13
6/5/2022 5:45:00 AM 15.46 59.828 0.272 7.78 8.11 9.14
6/5/2022 6:00:00 AM 15.38 59.684 0.272 7.75 23.61 9.19
6/5/2022 6:15:00 AM 15.3 59.54 0.273 7.78 19.82 9.22
6/5/2022 6:30:00 AM 15.23 59.414 0.273 7.77 10.9 9.25
6/5/2022 6:45:00 AM 15.15 59.27 0.273 7.79 10.73 9.28
6/5/2022 7:00:00 AM 15.08 59.144 0.274 7.79 8.46 9.33
6/5/2022 7:15:00 AM 15.02 59.036 0.273 7.77 8.58 9.38
6/5/2022 7:30:00 AM 14.97 58.946 0.273 7.81 8.63 9.43
6/5/2022 7:45:00 AM 14.93 58.874 0.273 7.82 9.4 9.49
6/5/2022 8:00:00 AM 14.9 58.82 0.272 7.81 4.99 9.53
6/5/2022 8:15:00 AM 14.93 58.874 0.272 7.85 5.42 9.62
6/5/2022 8:30:00 AM 14.95 58.91 0.272 7.87 18.87 9.71
6/5/2022 8:45:00 AM 14.97 58.946 0.273 7.88 6.95 9.78
6/5/2022 9:00:00 AM 14.99 58.982 0.273 7.9 4.97 9.85
6/5/2022 9:15:00 AM 14.99 58.982 0.274 7.91 5.86 9.89
6/5/2022 9:30:00 AM 15.02 59.036 0.274 7.91 11.41 9.96
6/5/2022 9:45:00 AM 15.06 59.108 0.273 7.94 7.21 10.02
6/5/2022 10:00:00 AM 15.09 59.162 0.273 7.95 5.54 10.03
6/5/2022 10:15:00 AM 15.1 59.18 0.272 7.98 7.04 10.08
6/5/2022 10:30:00 AM 15.25 59.45 0.271 8 4.49 10.14
6/5/2022 10:45:00 AM 15.47 59.846 0.271 8.02 5.26 10.18
6/5/2022 11:00:00 AM 15.62 60.116 0.27 8.02 4.74 10.23
6/5/2022 11:15:00 AM 15.76 60.368 0.27 8.06 5.28 10.25
6/5/2022 11:30:00 AM 15.95 60.71 0.27 8.08 5.19 10.27
6/5/2022 11:45:00 AM 16.13 61.034 0.27 8.08 5.68 10.26
6/5/2022 12:00:00 PM 16.26 61.268 0.27 8.08 3.79 10.27
6/5/2022 12:15:00 PM 16.37 61.466 0.27 8.12 3.85 10.26
6/5/2022 12:30:00 PM 16.54 61.772 0.27 8.14 3.82 10.27
6/5/2022 12:45:00 PM 16.66 61.988 0.27 8.15 3.86 10.25
6/5/2022 1:00:00 PM 16.75 62.15 0.269 8.16 4.29 10.25
6/5/2022 1:15:00 PM 16.84 62.312 0.269 8.16 3.92 10.23
6/5/2022 1:30:00 PM 16.97 62.546 0.269 8.18 4.08 10.22
6/5/2022 1:45:00 PM 17.06 62.708 0.268 8.2 4.13 10.2
6/5/2022 2:00:00 PM 17.19 62.942 0.268 8.21 4.08 10.18
6/5/2022 2:15:00 PM 17.33 63.194 0.268 8.22 4.75 10.15
6/5/2022 2:30:00 PM 17.44 63.392 0.269 8.22 4.14 10.1
6/5/2022 2:45:00 PM 17.58 63.644 0.269 8.23 4.33 10.09
6/5/2022 3:00:00 PM 17.71 63.878 0.268 8.2 4.57 10.04
6/5/2022 3:15:00 PM 17.85 64.13 0.268 8.24 4.62 10
6/5/2022 3:30:00 PM 17.95 64.31 0.267 8.24 4.85 9.95
6/5/2022 3:45:00 PM 18.06 64.508 0.267 8.22 4.59 9.89
6/5/2022 4:00:00 PM 18.14 64.652 0.267 8.22 4.66 9.82
6/5/2022 4:15:00 PM 18.25 64.85 0.267 8.2 4.75 9.74
6/5/2022 4:30:00 PM 18.31 64.958 0.266 8.2 4.62 9.68
6/5/2022 4:45:00 PM 18.36 65.048 0.267 8.18 6.36 9.61
6/5/2022 5:00:00 PM 18.36 65.048 0.267 8.16 5.81 9.55
6/5/2022 5:15:00 PM 18.38 65.084 0.268 8.16 8.24 9.48
6/5/2022 5:30:00 PM 18.38 65.084 0.268 8.14 13.29 9.43
6/5/2022 5:45:00 PM 18.38 65.084 0.268 8.12 4.65 9.37
6/5/2022 6:00:00 PM 18.36 65.048 0.268 8.1 5.69 9.31
6/5/2022 6:15:00 PM 18.35 65.03 0.268 8.08 6.6 9.26
6/5/2022 6:30:00 PM 18.33 64.994 0.267 8.07 8.54 9.21
6/5/2022 6:45:00 PM 18.31 64.958 0.267 8.05 5.5 9.16
6/5/2022 7:00:00 PM 18.28 64.904 0.267 8.03 5.7 9.12
6/5/2022 7:15:00 PM 18.25 64.85 0.268 8.02 5.65 9.09
6/5/2022 7:30:00 PM 18.21 64.778 0.268 7.99 5.96 9.04
6/5/2022 7:45:00 PM 18.16 64.688 0.268 7.99 7.98 9
6/5/2022 8:00:00 PM 18.1 64.58 0.269 7.97 6.64 8.98
6/5/2022 8:15:00 PM 18.03 64.454 0.269 7.93 6.58 8.95
6/5/2022 8:30:00 PM 17.96 64.328 0.269 7.94 6.86 8.92
6/5/2022 8:45:00 PM 17.89 64.202 0.269 7.93 6.75 8.9
6/5/2022 9:00:00 PM 17.81 64.058 0.268 7.88 7.8 8.87
6/5/2022 9:15:00 PM 17.72 63.896 0.268 7.9 4.45 8.86
6/5/2022 9:30:00 PM 17.64 63.752 0.268 7.89 5.3 8.85
6/5/2022 9:45:00 PM 17.56 63.608 0.267 7.88 5.68 8.84
6/5/2022 10:00:00 PM 17.48 63.464 0.267 7.87 5.5 8.83
6/5/2022 10:15:00 PM 17.41 63.338 0.267 7.86 6.09 8.81
6/5/2022 10:30:00 PM 17.33 63.194 0.267 7.86 6.02 8.83
6/5/2022 10:45:00 PM 17.26 63.068 0.268 7.82 9.31 8.83
6/5/2022 11:00:00 PM 17.19 62.942 0.268 7.85 5.17 8.84
6/5/2022 11:15:00 PM 17.12 62.816 0.268 7.8 17.6 8.85
6/5/2022 11:30:00 PM 17.04 62.672 0.268 7.83 7.9 8.85
6/5/2022 11:45:00 PM 16.97 62.546 0.267 7.83 5.48 8.85
6/6/2022 12:00:00 AM 16.9 62.42 0.267 7.78 10.25 8.84
6/6/2022 12:15:00 AM 16.83 62.294 0.267 7.81 9.62 8.86
6/6/2022 12:30:00 AM 16.76 62.168 0.267 7.81 9.26 8.87
6/6/2022 12:45:00 AM 16.69 62.042 0.267 7.81 8.88 8.88
6/6/2022 1:00:00 AM 16.63 61.934 0.267 7.81 10.18 8.89
6/6/2022 1:15:00 AM 16.56 61.808 0.268 7.8 5.76 8.9
6/6/2022 1:30:00 AM 16.5 61.7 0.268 7.8 6.43 8.91
6/6/2022 1:45:00 AM 16.43 61.574 0.268 7.8 7.03 8.92
6/6/2022 2:00:00 AM 16.37 61.466 0.268 7.8 7.11 8.94
6/6/2022 2:15:00 AM 16.3 61.34 0.268 7.79 7.34 8.96
6/6/2022 2:30:00 AM 16.23 61.214 0.268 7.79 7.65 8.97
6/6/2022 2:45:00 AM 16.16 61.088 0.268 7.79 6.8 8.98
6/6/2022 3:00:00 AM 16.09 60.962 0.268 7.76 6.89 9.01
6/6/2022 3:15:00 AM 16.01 60.818 0.268 7.79 6.85 9.02
6/6/2022 3:30:00 AM 15.93 60.674 0.269 7.79 7.04 9.04
6/6/2022 3:45:00 AM 15.85 60.53 0.269 7.79 4.93 9.06
6/6/2022 4:00:00 AM 15.78 60.404 0.27 7.79 6.6 9.08
6/6/2022 4:15:00 AM 15.7 60.26 0.271 7.78 5.39 9.09
6/6/2022 4:30:00 AM 15.62 60.116 0.271 7.79 4.68 9.11
6/6/2022 4:45:00 AM 15.54 59.972 0.272 7.79 5.63 9.14
6/6/2022 5:00:00 AM 15.47 59.846 0.272 7.78 5.31 9.16
6/6/2022 5:15:00 AM 15.39 59.702 0.271 7.78 5.4 9.17
6/6/2022 5:30:00 AM 15.3 59.54 0.271 7.78 5.21 9.19
6/6/2022 5:45:00 AM 15.22 59.396 0.271 7.78 4.95 9.22
6/6/2022 6:00:00 AM 15.14 59.252 0.272 7.76 4.76 9.24
6/6/2022 6:15:00 AM 15.07 59.126 0.272 7.79 4.96 9.28
6/6/2022 6:30:00 AM 15 59 0.273 7.79 4.86 9.31
6/6/2022 6:45:00 AM 14.96 58.928 0.274 7.78 4.82 9.37
6/6/2022 7:00:00 AM 14.92 58.856 0.274 7.8 10.12 9.42
6/6/2022 7:15:00 AM 14.89 58.802 0.275 7.81 5.99 9.48
6/6/2022 7:30:00 AM 14.87 58.766 0.274 7.82 6.76 9.54
6/6/2022 7:45:00 AM 14.83 58.694 0.274 7.83 5.83 9.57
6/6/2022 8:00:00 AM 14.82 58.676 0.274 7.81 5.79 9.61
6/6/2022 8:15:00 AM 14.83 58.694 0.273 7.85 5.21 9.69
6/6/2022 8:30:00 AM 14.86 58.748 0.273 7.86 5.05 9.73
6/6/2022 8:45:00 AM 14.9 58.82 0.273 7.88 5.04 9.77
6/6/2022 9:00:00 AM 14.94 58.892 0.273 7.89 4.65 9.81
6/6/2022 9:15:00 AM 15 59 0.274 7.9 7.57 9.84
6/6/2022 9:30:00 AM 15.11 59.198 0.274 7.88 8.45 9.91
6/6/2022 9:45:00 AM 15.2 59.36 0.274 7.91 7.98 9.95
6/6/2022 10:00:00 AM 15.35 59.63 0.274 7.96 10.59 10.01
6/6/2022 10:15:00 AM 15.42 59.756 0.273 7.96 9.31 10.06
6/6/2022 10:30:00 AM 15.44 59.792 0.272 7.96 8.48 10.1
6/6/2022 10:45:00 AM 15.57 60.026 0.271 7.99 6.6 10.13
6/6/2022 11:00:00 AM 15.77 60.386 0.271 8.02 6.82 10.16
6/6/2022 11:15:00 AM 15.91 60.638 0.27 8.04 8.75 10.18
6/6/2022 11:30:00 AM 15.95 60.71 0.27 8.05 6.52 10.19
6/6/2022 11:45:00 AM 16.27 61.286 0.27 8.07 4.2 10.23
6/6/2022 12:00:00 PM 16.46 61.628 0.27 8.09 4.1 10.21
6/6/2022 12:15:00 PM 16.6 61.88 0.27 8.11 4.14 10.22
6/6/2022 12:30:00 PM 16.68 62.024 0.27 8.12 4.07 10.21
6/6/2022 12:45:00 PM 16.89 62.402 0.27 8.14 4.03 10.2
6/6/2022 1:00:00 PM 17.15 62.87 0.269 8.15 4.31 10.18
6/6/2022 1:15:00 PM 17.33 63.194 0.269 8.15 4.33 10.12
6/6/2022 1:30:00 PM 17.5 63.5 0.268 8.13 4.72 10.09
6/6/2022 1:45:00 PM 17.67 63.806 0.268 8.17 3.91 10.05
6/6/2022 2:00:00 PM 17.89 64.202 0.267 8.18 4.2 10.03
6/6/2022 2:15:00 PM 18.02 64.436 0.268 8.19 3.67 9.98
6/6/2022 2:30:00 PM 18.12 64.616 0.268 8.19 4.35 9.92
6/6/2022 2:45:00 PM 18.21 64.778 0.268 8.18 5.37 9.86
6/6/2022 3:00:00 PM 18.38 65.084 0.269 8.18 4.8 9.83
6/6/2022 3:15:00 PM 18.58 65.444 0.269 8.2 4.74 9.79
6/6/2022 3:30:00 PM 18.7 65.66 0.268 8.2 4.57 9.75
6/6/2022 3:45:00 PM 18.79 65.82201 0.268 8.19 5.23 9.7
6/6/2022 4:00:00 PM 18.87 65.966 0.267 8.21 5.27 9.65
6/6/2022 4:15:00 PM 18.93 66.074 0.267 8.18 4.81 9.58
6/6/2022 4:30:00 PM 18.91 66.038 0.267 8.17 6.03 9.52
6/6/2022 4:45:00 PM 18.9 66.02 0.268 8.18 5.68 9.47
6/6/2022 5:00:00 PM 18.92 66.056 0.268 8.16 6.12 9.42
6/6/2022 5:15:00 PM 18.94 66.092 0.269 8.16 4.62 9.4
6/6/2022 5:30:00 PM 18.93 66.074 0.27 8.15 5.58 9.35
6/6/2022 5:45:00 PM 18.91 66.038 0.27 8.13 5.11 9.29
6/6/2022 6:00:00 PM 18.91 66.038 0.27 8.13 5.97 9.29
6/6/2022 6:15:00 PM 18.91 66.038 0.27 8.13 6.22 9.26
6/6/2022 6:30:00 PM 18.88 65.984 0.27 8.11 5.76 9.23
6/6/2022 6:45:00 PM 18.82 65.876 0.269 8.1 10.26 9.16
6/6/2022 7:00:00 PM 18.76 65.768 0.269 8.07 4.82 9.12
6/6/2022 7:15:00 PM 18.71 65.67799 0.269 8.05 8.44 9.07
6/6/2022 7:30:00 PM 18.66 65.588 0.269 8.04 5.84 9.03
6/6/2022 7:45:00 PM 18.61 65.498 0.269 8 4.36 8.98
6/6/2022 8:00:00 PM 18.55 65.39 0.27 7.99 7.02 8.93
6/6/2022 8:15:00 PM 18.49 65.282 0.27 7.93 6.23 8.85
6/6/2022 8:30:00 PM 18.44 65.192 0.27 7.95 9.14 8.84
6/6/2022 8:45:00 PM 18.38 65.084 0.27 7.94 5.05 8.81
6/6/2022 9:00:00 PM 18.33 64.994 0.27 7.92 5.19 8.78
6/6/2022 9:15:00 PM 18.29 64.922 0.269 7.87 4.54 8.75
6/6/2022 9:30:00 PM 18.25 64.85 0.269 7.89 6.73 8.73
6/6/2022 9:45:00 PM 18.21 64.778 0.269 7.86 7.22 8.71
6/6/2022 10:00:00 PM 18.17 64.706 0.269 7.87 5.77 8.7
6/6/2022 10:15:00 PM 18.14 64.652 0.269 7.86 6.02 8.7
6/6/2022 10:30:00 PM 18.1 64.58 0.27 7.86 6.4 8.69
6/6/2022 10:45:00 PM 18.06 64.508 0.27 7.85 18.68 8.68
6/6/2022 11:00:00 PM 18.02 64.436 0.27 7.84 8.94 8.69
6/6/2022 11:15:00 PM 17.97 64.346 0.27 7.84 8.48 8.68
6/6/2022 11:30:00 PM 17.93 64.274 0.27 7.83 7.16 8.67
6/6/2022 11:45:00 PM 17.9 64.22 0.269 7.82 8.2 8.67
6/7/2022 12:00:00 AM 17.87 64.166 0.269 7.82 5.97 8.67
6/7/2022 12:15:00 AM 17.84 64.112 0.268 7.8 9.31 8.67
6/7/2022 12:30:00 AM 17.8 64.04 0.268 7.81 8.08 8.66
6/7/2022 12:45:00 AM 17.76 63.968 0.268 7.81 8.42 8.66
6/7/2022 1:00:00 AM 17.73 63.914 0.268 7.8 9.01 8.66
6/7/2022 1:15:00 AM 17.7 63.86 0.269 7.8 8.41 8.67
6/7/2022 1:30:00 AM 17.66 63.788 0.269 7.8 8.31 8.67
6/7/2022 1:45:00 AM 17.63 63.734 0.27 7.77 7.59 8.67
6/7/2022 2:00:00 AM 17.6 63.68 0.27 7.77 5.51 8.67
6/7/2022 2:15:00 AM 17.57 63.626 0.27 7.79 7.31 8.68
6/7/2022 2:30:00 AM 17.53 63.554 0.27 7.79 7.64 8.7
6/7/2022 2:45:00 AM 17.48 63.464 0.269 7.79 7.38 8.7
6/7/2022 3:00:00 AM 17.42 63.356 0.269 7.79 5.34 8.71
6/7/2022 3:15:00 AM 17.38 63.284 0.269 7.76 6.06 8.71
6/7/2022 3:30:00 AM 17.33 63.194 0.27 7.78 12.09 8.72
6/7/2022 3:45:00 AM 17.28 63.104 0.27 7.79 7.44 8.74
6/7/2022 4:00:00 AM 17.23 63.014 0.271 7.78 7.82 8.74
6/7/2022 4:15:00 AM 17.19 62.942 0.272 7.75 18.65 8.76
6/7/2022 4:30:00 AM 17.14 62.852 0.272 7.77 9.81 8.76
6/7/2022 4:45:00 AM 17.09 62.762 0.272 7.78 4.98 8.78
6/7/2022 5:00:00 AM 17.04 62.672 0.272 7.78 5.05 8.8
6/7/2022 5:15:00 AM 16.98 62.564 0.272 7.78 4.96 8.8
6/7/2022 5:30:00 AM 16.93 62.474 0.271 7.78 4.98 8.82
6/7/2022 5:45:00 AM 16.88 62.384 0.271 7.76 5.07 8.83
6/7/2022 6:00:00 AM 16.84 62.312 0.271 7.78 9.75 8.84
6/7/2022 6:15:00 AM 16.8 62.24 0.271 7.78 5.43 8.87
6/7/2022 6:30:00 AM 16.77 62.186 0.272 7.77 10.1 8.91
6/7/2022 6:45:00 AM 16.74 62.132 0.273 7.79 9.07 8.95
6/7/2022 7:00:00 AM 16.72 62.096 0.273 7.78 7 8.99
6/7/2022 7:15:00 AM 16.71 62.078 0.273 7.81 8.15 9.02
6/7/2022 7:30:00 AM 16.7 62.06 0.273 7.79 7.36 9.09
6/7/2022 7:45:00 AM 16.7 62.06 0.273 7.83 4.54 9.15
6/7/2022 8:00:00 AM 16.69 62.042 0.272 7.84 4.55 9.18
6/7/2022 8:15:00 AM 16.67 62.006 0.272 7.85 4.73 9.19
6/7/2022 8:30:00 AM 16.67 62.006 0.272 7.84 7.45 9.24
6/7/2022 8:45:00 AM 16.66 61.988 0.272 7.86 7.92 9.27
6/7/2022 9:00:00 AM 16.64 61.952 0.272 7.86 4.7 9.27
6/7/2022 9:15:00 AM 16.61 61.898 0.272 7.87 4.2 9.27
6/7/2022 9:30:00 AM 16.58 61.844 0.273 7.87 17.23 9.27
6/7/2022 9:45:00 AM 16.57 61.826 0.273 7.86 10.07 9.28
6/7/2022 10:00:00 AM 16.58 61.844 0.274 7.89 5.72 9.35
6/7/2022 10:15:00 AM 16.65 61.97 0.273 7.91 6.09 9.46
6/7/2022 10:30:00 AM 16.68 62.024 0.273 7.91 3.65 9.52
6/7/2022 10:45:00 AM 16.71 62.078 0.272 7.95 3.95 9.56
6/7/2022 11:00:00 AM 16.73 62.114 0.271 7.97 3.6 9.61
6/7/2022 11:15:00 AM 16.71 62.078 0.27 7.97 3.71 9.59
6/7/2022 11:30:00 AM 16.67 62.006 0.27 7.96 3.72 9.53
6/7/2022 11:45:00 AM 16.64 61.952 0.27 7.96 3.72 9.5
6/7/2022 12:00:00 PM 16.62 61.916 0.27 7.92 3.72 9.45
6/7/2022 12:15:00 PM 16.6 61.88 0.271 7.94 3.76 9.41
6/7/2022 12:30:00 PM 16.59 61.862 0.271 7.93 3.78 9.4
6/7/2022 12:45:00 PM 16.6 61.88 0.27 7.94 3.72 9.42
6/7/2022 1:00:00 PM 16.62 61.916 0.27 7.94 3.83 9.45
6/7/2022 1:15:00 PM 16.63 61.934 0.268 7.95 4.01 9.46
6/7/2022 1:30:00 PM 16.63 61.934 0.267 7.94 3.95 9.44
6/7/2022 1:45:00 PM 16.63 61.934 0.266 7.94 4.03 9.42
6/7/2022 2:00:00 PM 16.62 61.916 0.266 7.92 3.96 9.39
6/7/2022 2:15:00 PM 16.61 61.898 0.266 7.92 4.31 9.36
6/7/2022 2:30:00 PM 16.62 61.916 0.267 7.91 4.17 9.36
6/7/2022 2:45:00 PM 16.62 61.916 0.267 7.92 4.27 9.35
6/7/2022 3:00:00 PM 16.61 61.898 0.268 7.9 4.2 9.33
6/7/2022 3:15:00 PM 16.6 61.88 0.268 7.91 4.31 9.29
6/7/2022 3:30:00 PM 16.6 61.88 0.268 7.9 4.22 9.28
6/7/2022 3:45:00 PM 16.61 61.898 0.267 7.9 5.55 9.3
6/7/2022 4:00:00 PM 16.63 61.934 0.266 7.91 4.48 9.32
6/7/2022 4:15:00 PM 16.65 61.97 0.266 7.91 4.57 9.33
6/7/2022 4:30:00 PM 16.66 61.988 0.265 7.92 4.94 9.33
6/7/2022 4:45:00 PM 16.68 62.024 0.266 7.92 4.77 9.34
6/7/2022 5:00:00 PM 16.71 62.078 0.267 7.92 4.85 9.36
6/7/2022 5:15:00 PM 16.74 62.132 0.268 7.91 5.02 9.38
6/7/2022 5:30:00 PM 16.77 62.186 0.269 7.93 5.3 9.39
6/7/2022 5:45:00 PM 16.8 62.24 0.268 7.9 5.33 9.4
6/7/2022 6:00:00 PM 16.84 62.312 0.267 7.94 5.71 9.41
6/7/2022 6:15:00 PM 16.89 62.402 0.266 7.95 5.77 9.43
6/7/2022 6:30:00 PM 16.91 62.438 0.265 7.94 5.86 9.4
6/7/2022 6:45:00 PM 16.91 62.438 0.264 7.93 6.54 9.35
6/7/2022 7:00:00 PM 16.91 62.438 0.264 7.93 7.58 9.32
6/7/2022 7:15:00 PM 16.92 62.456 0.265 7.88 9.25 9.26
6/7/2022 7:30:00 PM 16.93 62.474 0.265 7.9 11.06 9.21
6/7/2022 7:45:00 PM 16.93 62.474 0.266 7.88 7.6 9.2
6/7/2022 8:00:00 PM 16.93 62.474 0.269 7.87 7.5 9.17
6/7/2022 8:15:00 PM 16.93 62.474 0.273 7.87 8.79 9.14
6/7/2022 8:30:00 PM 16.9 62.42 0.279 7.87 8.13 9.11
6/7/2022 8:45:00 PM 16.88 62.384 0.287 7.86 8.48 9.08
6/7/2022 9:00:00 PM 16.85 62.33 0.296 7.86 7.91 9.06
6/7/2022 9:15:00 PM 16.82 62.276 0.304 7.83 7.64 9.04
6/7/2022 9:30:00 PM 16.79 62.222 0.312 7.83 7.69 9.03
6/7/2022 9:45:00 PM 16.76 62.168 0.319 7.86 8.15 9.01
6/7/2022 10:00:00 PM 16.75 62.15 0.322 7.86 7.52 9.02
6/7/2022 10:15:00 PM 16.77 62.186 0.321 7.86 8.7 9.02
6/7/2022 10:30:00 PM 16.75 62.15 0.322 7.82 8.87 9.01
6/7/2022 10:45:00 PM 16.75 62.15 0.323 7.85 8.03 8.97
6/7/2022 11:00:00 PM 16.74 62.132 0.324 7.84 8.5 8.95
6/7/2022 11:15:00 PM 16.73 62.114 0.328 7.83 8.27 8.94
6/7/2022 11:30:00 PM 16.72 62.096 0.332 7.8 8.23 8.93
6/7/2022 11:45:00 PM 16.71 62.078 0.336 7.8 8.2 8.93
6/8/2022 12:00:00 AM 16.72 62.096 0.338 7.81 8.83 8.92
6/8/2022 12:15:00 AM 16.73 62.114 0.341 7.8 10.25 8.9
6/8/2022 12:30:00 AM 16.73 62.114 0.345 7.79 11.72 8.89
6/8/2022 12:45:00 AM 16.74 62.132 0.347 7.76 9.89 8.89
6/8/2022 1:00:00 AM 16.74 62.132 0.347 7.77 11.22 8.88
6/8/2022 1:15:00 AM 16.74 62.132 0.345 7.78 11.02 8.87
6/8/2022 1:30:00 AM 16.74 62.132 0.344 7.74 11.1 8.85
6/8/2022 1:45:00 AM 16.73 62.114 0.343 7.77 11.2 8.85
6/8/2022 2:00:00 AM 16.73 62.114 0.341 7.77 11.5 8.84
6/8/2022 2:15:00 AM 16.73 62.114 0.338 7.76 10.76 8.84
6/8/2022 2:30:00 AM 16.71 62.078 0.334 7.73 10.91 8.83
6/8/2022 2:45:00 AM 16.7 62.06 0.331 7.74 11.41 8.83
6/8/2022 3:00:00 AM 16.69 62.042 0.328 7.74 11.06 8.82
6/8/2022 3:15:00 AM 16.67 62.006 0.327 7.76 11.48 8.82
6/8/2022 3:30:00 AM 16.64 61.952 0.326 7.76 10.98 8.83
6/8/2022 3:45:00 AM 16.61 61.898 0.324 7.76 10.63 8.84
6/8/2022 4:00:00 AM 16.58 61.844 0.323 7.75 10.37 8.85
6/8/2022 4:15:00 AM 16.54 61.772 0.32 7.76 10.01 8.87
6/8/2022 4:30:00 AM 16.51 61.718 0.317 7.73 10.63 8.88
6/8/2022 4:45:00 AM 16.47 61.646 0.313 7.76 10.25 8.89
6/8/2022 5:00:00 AM 16.43 61.574 0.31 7.73 10.17 8.9
6/8/2022 5:15:00 AM 16.4 61.52 0.308 7.76 9.7 8.91
6/8/2022 5:30:00 AM 16.36 61.448 0.307 7.76 9.49 8.91
6/8/2022 5:45:00 AM 16.31 61.358 0.307 7.72 10.44 8.93
6/8/2022 6:00:00 AM 16.26 61.268 0.308 7.76 10 8.94
6/8/2022 6:15:00 AM 16.21 61.178 0.31 7.76 10.09 8.97
6/8/2022 6:30:00 AM 16.16 61.088 0.313 7.76 9.38 8.98
6/8/2022 6:45:00 AM 16.11 60.998 0.317 7.76 8.91 8.99
6/8/2022 7:00:00 AM 16.06 60.908 0.32 7.77 8.85 9.02
6/8/2022 7:15:00 AM 16.02 60.836 0.323 7.74 9.43 9.04
6/8/2022 7:30:00 AM 15.99 60.782 0.325 7.76 9.85 9.06
6/8/2022 7:45:00 AM 15.97 60.746 0.326 7.79 8.96 9.09
6/8/2022 8:00:00 AM 15.97 60.746 0.326 7.78 9.33 9.13
6/8/2022 8:15:00 AM 15.99 60.782 0.326 7.8 8.93 9.19
6/8/2022 8:30:00 AM 16.03 60.854 0.325 7.82 9.08 9.25
6/8/2022 8:45:00 AM 16.07 60.926 0.322 7.83 8.19 9.3
6/8/2022 9:00:00 AM 16.11 60.998 0.319 7.85 8.07 9.36
6/8/2022 9:15:00 AM 16.16 61.088 0.316 7.86 8.17 9.42
6/8/2022 9:30:00 AM 16.24 61.232 0.314 7.87 7.9 9.47
6/8/2022 9:45:00 AM 16.35 61.43 0.311 7.89 7.76 9.53
6/8/2022 10:00:00 AM 16.48 61.664 0.31 7.9 7.6 9.59
6/8/2022 10:15:00 AM 16.59 61.862 0.309 7.88 7.36 9.62
6/8/2022 10:30:00 AM 16.73 62.114 0.307 7.93 7.46 9.67
6/8/2022 10:45:00 AM 16.81 62.258 0.306 7.94 7.1 9.68
6/8/2022 11:00:00 AM 17.02 62.636 0.306 7.96 7.17 9.75
6/8/2022 11:15:00 AM 17.26 63.068 0.305 7.98 6.96 9.79
6/8/2022 11:30:00 AM 17.46 63.428 0.305 8 6.99 9.8
6/8/2022 11:45:00 AM 17.64 63.752 0.303 7.97 6.67 9.82
6/8/2022 12:00:00 PM 17.76 63.968 0.301 8.02 6.68 9.81
6/8/2022 12:15:00 PM 17.89 64.202 0.298 8.04 6.45 9.8
6/8/2022 12:30:00 PM 17.97 64.346 0.295 8.04 6.35 9.78
6/8/2022 12:45:00 PM 18.13 64.634 0.292 8.05 6.38 9.78
6/8/2022 1:00:00 PM 18.3 64.94 0.289 8.06 6.45 9.75
6/8/2022 1:15:00 PM 18.49 65.282 0.286 8.03 5.9 9.75
6/8/2022 1:30:00 PM 18.67 65.606 0.284 8.08 6.12 9.7
6/8/2022 1:45:00 PM 18.86 65.948 0.283 8.09 5.79 9.68
6/8/2022 2:00:00 PM 19.04 66.272 0.282 8.1 5.91 9.63
6/8/2022 2:15:00 PM 19.2 66.56 0.281 8.1 5.63 9.62
6/8/2022 2:30:00 PM 19.36 66.848 0.281 8.11 5.79 9.58
6/8/2022 2:45:00 PM 19.51 67.118 0.281 8.07 6 9.54
6/8/2022 3:00:00 PM 19.66 67.388 0.281 8.12 5.62 9.5
6/8/2022 3:15:00 PM 19.77 67.586 0.281 8.11 6.65 9.45
6/8/2022 3:30:00 PM 19.88 67.784 0.281 8.1 5.88 9.4
6/8/2022 3:45:00 PM 20 68 0.281 8.08 6.61 9.35
6/8/2022 4:00:00 PM 20.12 68.216 0.282 8.11 7.04 9.31
6/8/2022 4:15:00 PM 20.21 68.378 0.284 8.11 5.58 9.27
6/8/2022 4:30:00 PM 20.28 68.504 0.286 8.11 5.58 9.21
6/8/2022 4:45:00 PM 20.31 68.558 0.289 8.1 5.65 9.11
6/8/2022 5:00:00 PM 20.32 68.576 0.293 8.11 5.71 9.11
6/8/2022 5:15:00 PM 20.34 68.612 0.297 8.11 14.76 9.09
6/8/2022 5:30:00 PM 20.35 68.63 0.3 8.1 5.8 9.04
6/8/2022 5:45:00 PM 20.34 68.612 0.304 8.09 5.92 8.98
6/8/2022 6:00:00 PM 20.29 68.522 0.306 8.07 6.58 8.9
6/8/2022 6:15:00 PM 20.24 68.432 0.308 8.05 7.12 8.81
6/8/2022 6:30:00 PM 20.21 68.378 0.31 8.04 7.27 8.79
6/8/2022 6:45:00 PM 20.18 68.324 0.31 8.04 7.62 8.75
6/8/2022 7:00:00 PM 20.12 68.216 0.311 8.03 8.03 8.72
6/8/2022 7:15:00 PM 20.06 68.108 0.31 7.99 8.94 8.66
6/8/2022 7:30:00 PM 19.98 67.964 0.309 7.99 9.66 8.61
6/8/2022 7:45:00 PM 19.9 67.82 0.308 7.98 10.34 8.57
6/8/2022 8:00:00 PM 19.83 67.694 0.307 7.96 10.73 8.55
6/8/2022 8:15:00 PM 19.75 67.55 0.305 7.94 11.3 8.51
6/8/2022 8:30:00 PM 19.67 67.406 0.304 7.92 11.92 8.48
6/8/2022 8:45:00 PM 19.59 67.262 0.303 7.92 11.86 8.44
6/8/2022 9:00:00 PM 19.52 67.136 0.302 7.9 12.29 8.41
6/8/2022 9:15:00 PM 19.44 66.992 0.301 7.89 11.71 8.4
6/8/2022 9:30:00 PM 19.37 66.866 0.3 7.88 11.8 8.38
6/8/2022 9:45:00 PM 19.31 66.758 0.297 7.87 11.09 8.37
6/8/2022 10:00:00 PM 19.25 66.65 0.294 7.86 10.47 8.35
6/8/2022 10:15:00 PM 19.19 66.542 0.291 7.82 10.19 8.34
6/8/2022 10:30:00 PM 19.15 66.47 0.287 7.85 9.69 8.35
6/8/2022 10:45:00 PM 19.1 66.38 0.284 7.85 9.19 8.36
6/8/2022 11:00:00 PM 19.03 66.254 0.277 7.84 10.72 8.38
6/8/2022 11:15:00 PM 18.97 66.146 0.272 7.83 9.67 8.39
6/8/2022 11:30:00 PM 18.92 66.056 0.269 7.79 10.28 8.4
6/8/2022 11:45:00 PM 18.84 65.912 0.263 7.82 11.24 8.42
6/9/2022 12:00:00 AM 18.75 65.75 0.257 7.79 15.28 8.41
6/9/2022 12:15:00 AM 18.58 65.444 0.231 7.66 164.77 8.34
6/9/2022 12:30:00 AM 18.45 65.21 0.168 7.58 597.3 8.53
6/9/2022 12:45:00 AM 18.31 64.958 0.154 7.54 583.71 8.64
6/9/2022 1:00:00 AM 18.26 64.868 0.158 7.53 424.11 8.65
6/9/2022 1:15:00 AM 18.39 65.102 0.176 7.6 290.16 8.65
6/9/2022 1:30:00 AM 18.4 65.12 0.18 7.56 220.96 8.63
6/9/2022 1:45:00 AM 18.37 65.066 0.182 7.62 178.5 8.6
6/9/2022 2:00:00 AM 18.33 64.994 0.19 7.58 142.64 8.57
6/9/2022 2:15:00 AM 18.29 64.922 0.199 7.62 118 8.55
6/9/2022 2:30:00 AM 18.32 64.976 0.216 7.65 164.28 8.42
6/9/2022 2:45:00 AM 18.17 64.706 0.229 7.61 179.13 8.42
6/9/2022 3:00:00 AM 17.89 64.202 0.293 7.59 228.21 8.32
6/9/2022 3:15:00 AM 17.97 64.346 0.295 7.57 247.43 8.13
6/9/2022 3:30:00 AM 18.29 64.922 0.246 7.57 226.02 8.01
6/9/2022 3:45:00 AM 18.48 65.264 0.206 7.52 212.93 7.99
6/9/2022 4:00:00 AM 18.52 65.336 0.186 7.57 189.56 8.02
6/9/2022 4:15:00 AM 18.48 65.264 0.177 7.56 174.5 8.04
6/9/2022 4:30:00 AM 18.41 65.138 0.175 7.54 169.6 8.06
6/9/2022 4:45:00 AM 18.33 64.994 0.177 7.52 161.67 8.07
6/9/2022 5:00:00 AM 18.25 64.85 0.18 7.47 158.76 8.11
6/9/2022 5:15:00 AM 18.17 64.706 0.183 7.51 154.99 8.17
6/9/2022 5:30:00 AM 18.09 64.562 0.188 7.52 150.13 8.22
6/9/2022 5:45:00 AM 18.03 64.454 0.192 7.52 142.78 8.25
6/9/2022 6:00:00 AM 17.97 64.346 0.197 7.53 144.31 8.27
6/9/2022 6:15:00 AM 17.92 64.256 0.202 7.53 137.09 8.3
6/9/2022 6:30:00 AM 17.87 64.166 0.206 7.48 135.85 8.29
6/9/2022 6:45:00 AM 17.82 64.076 0.211 7.52 128.81 8.25
6/9/2022 7:00:00 AM 17.76 63.968 0.216 7.52 125.09 8.22
6/9/2022 7:15:00 AM 17.71 63.878 0.22 7.5 116.78 8.2
6/9/2022 7:30:00 AM 17.65 63.77 0.223 7.52 108.84 8.22
6/9/2022 7:45:00 AM 17.6 63.68 0.225 7.52 101.46 8.27
6/9/2022 8:00:00 AM 17.54 63.572 0.227 7.54 96.03 8.32
6/9/2022 8:15:00 AM 17.5 63.5 0.228 7.56 88.38 8.38
6/9/2022 8:30:00 AM 17.46 63.428 0.231 7.57 85.73 8.42
6/9/2022 8:45:00 AM 17.42 63.356 0.233 7.58 77.42 8.47
6/9/2022 9:00:00 AM 17.4 63.32 0.236 7.59 71.79 8.5
6/9/2022 9:15:00 AM 17.35 63.23 0.239 7.61 70.4 8.54
6/9/2022 9:30:00 AM 17.32 63.176 0.242 7.61 69 8.56
6/9/2022 9:45:00 AM 17.29 63.122 0.245 7.58 64.19 8.57
6/9/2022 10:00:00 AM 17.28 63.104 0.248 7.63 58.5 8.62
6/9/2022 10:15:00 AM 17.26 63.068 0.25 7.64 56.7 8.66
6/9/2022 10:30:00 AM 17.22 62.996 0.254 7.65 53.18 8.67
6/9/2022 10:45:00 AM 17.17 62.906 0.258 7.66 50.93 8.66
6/9/2022 11:00:00 AM 17.17 62.906 0.262 7.62 47.88 8.69
6/9/2022 11:15:00 AM 17.15 62.87 0.267 7.67 43.82 8.7
6/9/2022 11:30:00 AM 17.22 62.996 0.271 7.65 40.6 8.74
6/9/2022 11:45:00 AM 17.44 63.392 0.273 7.7 38.82 8.81
6/9/2022 12:00:00 PM 17.34 63.212 0.274 7.71 38.85 8.83
6/9/2022 12:15:00 PM 17.31 63.158 0.274 7.7 35.5 8.84
6/9/2022 12:30:00 PM 17.33 63.194 0.273 7.73 35.23 8.9
6/9/2022 12:45:00 PM 17.35 63.23 0.273 7.74 33.52 8.94
6/9/2022 1:00:00 PM 17.31 63.158 0.273 7.74 32.24 8.95
6/9/2022 1:15:00 PM 17.27 63.086 0.274 7.75 30.15 8.93
6/9/2022 1:30:00 PM 17.3 63.14 0.276 7.76 29.54 8.94
6/9/2022 1:45:00 PM 17.32 63.176 0.278 7.77 28.76 8.99
6/9/2022 2:00:00 PM 17.26 63.068 0.28 7.77 27.25 8.97
6/9/2022 2:15:00 PM 17.28 63.104 0.282 7.78 24.15 9.01
6/9/2022 2:30:00 PM 17.27 63.086 0.283 7.77 24.26 8.99
6/9/2022 2:45:00 PM 17.24 63.032 0.284 7.78 23.43 9.01
6/9/2022 3:00:00 PM 17.29 63.122 0.285 7.81 22.17 9
6/9/2022 3:15:00 PM 17.35 63.23 0.287 7.82 19.03 9.1
6/9/2022 3:30:00 PM 17.4 63.32 0.289 7.84 21.18 9.15
6/9/2022 3:45:00 PM 17.4 63.32 0.293 7.84 19.6 9.16
6/9/2022 4:00:00 PM 17.35 63.23 0.297 7.84 18.65 9.11
6/9/2022 4:15:00 PM 17.31 63.158 0.3 7.81 18.12 9.07
6/9/2022 4:30:00 PM 17.29 63.122 0.302 7.81 17.86 9.05
6/9/2022 4:45:00 PM 17.26 63.068 0.302 7.83 17.07 9.04
6/9/2022 5:00:00 PM 17.22 62.996 0.301 7.83 16.23 9.01
6/9/2022 5:15:00 PM 17.25 63.05 0.301 7.84 16.12 9.06
6/9/2022 5:30:00 PM 17.29 63.122 0.3 7.85 16.35 9.12
6/9/2022 5:45:00 PM 17.29 63.122 0.3 7.82 16.03 9.13
6/9/2022 6:00:00 PM 17.29 63.122 0.3 7.86 77.57 9.14
6/9/2022 6:15:00 PM 17.28 63.104 0.3 7.87 13.53 9.15
6/9/2022 6:30:00 PM 17.25 63.05 0.301 7.87 14.19 9.14
6/9/2022 6:45:00 PM 17.21 62.978 0.301 7.86 14.62 9.1
6/9/2022 7:00:00 PM 17.16 62.888 0.303 7.86 14.1 9.06
6/9/2022 7:15:00 PM 17.13 62.834 0.305 7.85 14.08 9.03
6/9/2022 7:30:00 PM 17.1 62.78 0.308 7.84 13.85 9.04
6/9/2022 7:45:00 PM 17.06 62.708 0.312 7.84 13.32 9
6/9/2022 8:00:00 PM 17.02 62.636 0.315 7.81 12.76 8.99
6/9/2022 8:15:00 PM 16.99 62.582 0.317 7.83 12.49 8.98
6/9/2022 8:30:00 PM 16.95 62.51 0.318 7.83 12.16 8.98
6/9/2022 8:45:00 PM 16.91 62.438 0.318 7.84 11.98 8.98
6/9/2022 9:00:00 PM 16.86 62.348 0.316 7.84 12.26 8.95
6/9/2022 9:15:00 PM 16.81 62.258 0.315 7.83 11.81 8.94
6/9/2022 9:30:00 PM 16.75 62.15 0.314 7.82 13.07 8.93
6/9/2022 9:45:00 PM 16.7 62.06 0.315 7.82 12.6 8.92
6/9/2022 10:00:00 PM 16.64 61.952 0.316 7.82 12.26 8.91
6/9/2022 10:15:00 PM 16.58 61.844 0.317 7.8 11.71 8.92
6/9/2022 10:30:00 PM 16.53 61.754 0.318 7.81 12.15 8.92
6/9/2022 10:45:00 PM 16.48 61.664 0.319 7.77 11.68 8.92
6/9/2022 11:00:00 PM 16.42 61.556 0.32 7.81 11.77 8.92
6/9/2022 11:15:00 PM 16.36 61.448 0.32 7.81 11.06 8.94
6/9/2022 11:30:00 PM 16.29 61.322 0.321 7.81 11.19 8.94
6/9/2022 11:45:00 PM 16.23 61.214 0.321 7.79 11.49 8.96
6/10/2022 12:00:00 AM 16.16 61.088 0.32 7.8 10.75 8.95
6/10/2022 12:15:00 AM 16.1 60.98 0.318 7.8 11.46 8.96
6/10/2022 12:30:00 AM 16.04 60.872 0.317 7.8 10.44 8.98
6/10/2022 12:45:00 AM 15.97 60.746 0.316 7.76 10.66 9
6/10/2022 1:00:00 AM 15.91 60.638 0.315 7.78 11.15 9.02
6/10/2022 1:15:00 AM 15.84 60.512 0.315 7.8 10.7 9.03
6/10/2022 1:30:00 AM 15.78 60.404 0.315 7.8 10.69 9.03
6/10/2022 1:45:00 AM 15.72 60.296 0.317 7.8 10 9.06
6/10/2022 2:00:00 AM 15.65 60.17 0.318 7.8 10.39 9.07
6/10/2022 2:15:00 AM 15.59 60.062 0.32 7.8 10.53 9.08
6/10/2022 2:30:00 AM 15.52 59.936 0.321 7.8 9.84 9.1
6/10/2022 2:45:00 AM 15.45 59.81 0.319 7.81 9.86 9.11
6/10/2022 3:00:00 AM 15.39 59.702 0.317 7.81 9.47 9.13
6/10/2022 3:15:00 AM 15.33 59.594 0.314 7.8 9.55 9.16
6/10/2022 3:30:00 AM 15.27 59.486 0.311 7.8 9.82 9.16
6/10/2022 3:45:00 AM 15.21 59.378 0.308 7.79 9.64 9.19
6/10/2022 4:00:00 AM 15.15 59.27 0.306 7.79 10.01 9.19
6/10/2022 4:15:00 AM 15.09 59.162 0.304 7.8 9.54 9.2
6/10/2022 4:30:00 AM 15.03 59.054 0.304 7.79 9.59 9.22
6/10/2022 4:45:00 AM 14.98 58.964 0.304 7.78 9.52 9.23
6/10/2022 5:00:00 AM 14.93 58.874 0.305 7.8 13.35 9.26
6/10/2022 5:15:00 AM 14.87 58.766 0.306 7.8 8.91 9.28
6/10/2022 5:30:00 AM 14.82 58.676 0.305 7.8 8.9 9.29
6/10/2022 5:45:00 AM 14.76 58.568 0.305 7.8 9.1 9.3
6/10/2022 6:00:00 AM 14.71 58.478 0.304 7.8 8.89 9.33
6/10/2022 6:15:00 AM 14.67 58.406 0.303 7.8 9.13 9.35
6/10/2022 6:30:00 AM 14.62 58.316 0.302 7.8 8.86 9.38
6/10/2022 6:45:00 AM 14.59 58.262 0.301 7.81 9.04 9.41
6/10/2022 7:00:00 AM 14.56 58.208 0.3 7.77 9.44 9.45
6/10/2022 7:15:00 AM 14.55 58.19 0.3 7.79 8.48 9.49
6/10/2022 7:30:00 AM 14.54 58.172 0.301 7.82 8.42 9.51
6/10/2022 7:45:00 AM 14.53 58.154 0.302 7.82 8.48 9.54
6/10/2022 8:00:00 AM 14.55 58.19 0.303 7.8 8.13 9.58
6/10/2022 8:15:00 AM 14.58 58.244 0.303 7.84 8.09 9.61
6/10/2022 8:30:00 AM 14.64 58.352 0.302 7.83 7.84 9.65
6/10/2022 8:45:00 AM 14.71 58.478 0.3 7.86 7.72 9.71
6/10/2022 9:00:00 AM 14.75 58.55 0.298 7.87 7.56 9.72
6/10/2022 9:15:00 AM 14.83 58.694 0.296 7.85 7.5 9.75
6/10/2022 9:30:00 AM 14.93 58.874 0.294 7.88 7.27 9.77
6/10/2022 9:45:00 AM 15.06 59.108 0.293 7.89 7.43 9.81
6/10/2022 10:00:00 AM 15.22 59.396 0.292 7.91 7.17 9.84
6/10/2022 10:15:00 AM 15.4 59.72 0.292 7.89 7.14 9.86
6/10/2022 10:30:00 AM